<?xml version="1.0" encoding="UTF-8" standalone="no" ?>
<gpx xmlns="http://www.topografix.com/GPX/1/1" xmlns:xsi="http://www.w3.org/2001/XMLSchema-instance" xsi:schemaLocation="http://www.topografix.com/GPX/1/1 http://www.topografix.com/GPX/1/1/gpx.xsd" version="1.1" creator="VisuGPX - https://www.visugpx.com">
  <metadata>
    <name>gr20nord - j3 : bergerie de Vaccaghia - refuge de Vergio</name>
    <desc><![CDATA[Petite étape de transition et de détente : continuer direction nord-ouest par une montée tranquille jusqu'à Bocca a Reta (avec une petite halte gastronomique et 'culturelle' à la bergerie des Inzecches pour une dégustation de bruccio fait devant nous par le berger) en longeant le lac de Nino ; la montée se poursuit le long de la Serra San Tomaghiu (point culminant de l'étape) avant de redescendre vers le col St-Pierre puis à travers la forêt territoriale de Valdu Nielu jusqu'à Castello di Vergio avec les cochons sauvages (?) en compagnons de route.]]></desc>
  </metadata>
  <trk>
    <name><![CDATA[GR20N-J3 vaccaghia bergerie - vergio refuge 2015-06-23]]></name>
    <trkseg>
      <trkpt lat="42.23673" lon="8.97425">
        <ele>1599.77</ele>
        <time>2015-06-23T07:04:55Z</time>
      </trkpt>
      <trkpt lat="42.23685" lon="8.97438">
        <ele>1599.77</ele>
        <time>2015-06-23T07:05:03Z</time>
      </trkpt>
      <trkpt lat="42.23685" lon="8.97443">
        <ele>1603.62</ele>
        <time>2015-06-23T07:05:14Z</time>
      </trkpt>
      <trkpt lat="42.23685" lon="8.97444">
        <ele>1600.25</ele>
        <time>2015-06-23T07:05:16Z</time>
      </trkpt>
      <trkpt lat="42.23691" lon="8.97443">
        <ele>1602.17</ele>
        <time>2015-06-23T07:05:31Z</time>
      </trkpt>
      <trkpt lat="42.23696" lon="8.9743">
        <ele>1602.66</ele>
        <time>2015-06-23T07:05:45Z</time>
      </trkpt>
      <trkpt lat="42.23703" lon="8.97425">
        <ele>1602.66</ele>
        <time>2015-06-23T07:06:00Z</time>
      </trkpt>
      <trkpt lat="42.23709" lon="8.97428">
        <ele>1603.62</ele>
        <time>2015-06-23T07:06:16Z</time>
      </trkpt>
      <trkpt lat="42.23714" lon="8.97441">
        <ele>1605.06</ele>
        <time>2015-06-23T07:06:33Z</time>
      </trkpt>
      <trkpt lat="42.23715" lon="8.97445">
        <ele>1604.58</ele>
        <time>2015-06-23T07:06:38Z</time>
      </trkpt>
      <trkpt lat="42.23716" lon="8.97446">
        <ele>1604.58</ele>
        <time>2015-06-23T07:06:40Z</time>
      </trkpt>
      <trkpt lat="42.23722" lon="8.97459">
        <ele>1607.46</ele>
        <time>2015-06-23T07:06:56Z</time>
      </trkpt>
      <trkpt lat="42.23728" lon="8.97466">
        <ele>1606.5</ele>
        <time>2015-06-23T07:07:09Z</time>
      </trkpt>
      <trkpt lat="42.23732" lon="8.97466">
        <ele>1606.02</ele>
        <time>2015-06-23T07:07:14Z</time>
      </trkpt>
      <trkpt lat="42.23745" lon="8.97452">
        <ele>1605.54</ele>
        <time>2015-06-23T07:07:32Z</time>
      </trkpt>
      <trkpt lat="42.23759" lon="8.97442">
        <ele>1603.62</ele>
        <time>2015-06-23T07:07:47Z</time>
      </trkpt>
      <trkpt lat="42.23773" lon="8.9743">
        <ele>1603.14</ele>
        <time>2015-06-23T07:08:02Z</time>
      </trkpt>
      <trkpt lat="42.23788" lon="8.97421">
        <ele>1602.66</ele>
        <time>2015-06-23T07:08:18Z</time>
      </trkpt>
      <trkpt lat="42.23788" lon="8.97421">
        <ele>1602.66</ele>
        <time>2015-06-23T07:08:19Z</time>
      </trkpt>
      <trkpt lat="42.23792" lon="8.97421">
        <ele>1602.66</ele>
        <time>2015-06-23T07:08:23Z</time>
      </trkpt>
      <trkpt lat="42.23796" lon="8.97418">
        <ele>1602.17</ele>
        <time>2015-06-23T07:08:28Z</time>
      </trkpt>
      <trkpt lat="42.2381" lon="8.9741">
        <ele>1601.69</ele>
        <time>2015-06-23T07:08:44Z</time>
      </trkpt>
      <trkpt lat="42.23814" lon="8.97405">
        <ele>1601.69</ele>
        <time>2015-06-23T07:08:49Z</time>
      </trkpt>
      <trkpt lat="42.23818" lon="8.97397">
        <ele>1601.21</ele>
        <time>2015-06-23T07:08:57Z</time>
      </trkpt>
      <trkpt lat="42.23827" lon="8.97392">
        <ele>1601.21</ele>
        <time>2015-06-23T07:09:07Z</time>
      </trkpt>
      <trkpt lat="42.23832" lon="8.97387">
        <ele>1601.21</ele>
        <time>2015-06-23T07:09:14Z</time>
      </trkpt>
      <trkpt lat="42.23844" lon="8.97379">
        <ele>1600.25</ele>
        <time>2015-06-23T07:09:28Z</time>
      </trkpt>
      <trkpt lat="42.23858" lon="8.9737">
        <ele>1600.73</ele>
        <time>2015-06-23T07:09:43Z</time>
      </trkpt>
      <trkpt lat="42.23859" lon="8.97367">
        <ele>1600.73</ele>
        <time>2015-06-23T07:09:46Z</time>
      </trkpt>
      <trkpt lat="42.23873" lon="8.97362">
        <ele>1601.21</ele>
        <time>2015-06-23T07:10:01Z</time>
      </trkpt>
      <trkpt lat="42.23879" lon="8.97358">
        <ele>1601.69</ele>
        <time>2015-06-23T07:10:08Z</time>
      </trkpt>
      <trkpt lat="42.23887" lon="8.97354">
        <ele>1601.21</ele>
        <time>2015-06-23T07:10:17Z</time>
      </trkpt>
      <trkpt lat="42.23896" lon="8.9734">
        <ele>1601.69</ele>
        <time>2015-06-23T07:10:32Z</time>
      </trkpt>
      <trkpt lat="42.23909" lon="8.97327">
        <ele>1600.73</ele>
        <time>2015-06-23T07:10:49Z</time>
      </trkpt>
      <trkpt lat="42.23919" lon="8.97317">
        <ele>1600.73</ele>
        <time>2015-06-23T07:11:04Z</time>
      </trkpt>
      <trkpt lat="42.23924" lon="8.97315">
        <ele>1601.21</ele>
        <time>2015-06-23T07:11:11Z</time>
      </trkpt>
      <trkpt lat="42.2393" lon="8.97303">
        <ele>1601.69</ele>
        <time>2015-06-23T07:11:25Z</time>
      </trkpt>
      <trkpt lat="42.23935" lon="8.97295">
        <ele>1602.66</ele>
        <time>2015-06-23T07:11:37Z</time>
      </trkpt>
      <trkpt lat="42.2395" lon="8.97296">
        <ele>1602.66</ele>
        <time>2015-06-23T07:11:52Z</time>
      </trkpt>
      <trkpt lat="42.23961" lon="8.97286">
        <ele>1603.14</ele>
        <time>2015-06-23T07:12:07Z</time>
      </trkpt>
      <trkpt lat="42.23971" lon="8.97275">
        <ele>1603.14</ele>
        <time>2015-06-23T07:12:23Z</time>
      </trkpt>
      <trkpt lat="42.23977" lon="8.97264">
        <ele>1604.1</ele>
        <time>2015-06-23T07:12:38Z</time>
      </trkpt>
      <trkpt lat="42.23987" lon="8.97252">
        <ele>1604.1</ele>
        <time>2015-06-23T07:12:53Z</time>
      </trkpt>
      <trkpt lat="42.23997" lon="8.97236">
        <ele>1604.1</ele>
        <time>2015-06-23T07:13:10Z</time>
      </trkpt>
      <trkpt lat="42.24003" lon="8.97224">
        <ele>1603.62</ele>
        <time>2015-06-23T07:13:23Z</time>
      </trkpt>
      <trkpt lat="42.24009" lon="8.97216">
        <ele>1603.62</ele>
        <time>2015-06-23T07:13:32Z</time>
      </trkpt>
      <trkpt lat="42.24015" lon="8.97207">
        <ele>1603.14</ele>
        <time>2015-06-23T07:13:44Z</time>
      </trkpt>
      <trkpt lat="42.24024" lon="8.97197">
        <ele>1602.66</ele>
        <time>2015-06-23T07:13:58Z</time>
      </trkpt>
      <trkpt lat="42.24034" lon="8.97183">
        <ele>1601.69</ele>
        <time>2015-06-23T07:14:13Z</time>
      </trkpt>
      <trkpt lat="42.24043" lon="8.97177">
        <ele>1600.73</ele>
        <time>2015-06-23T07:14:26Z</time>
      </trkpt>
      <trkpt lat="42.24044" lon="8.97176">
        <ele>1600.73</ele>
        <time>2015-06-23T07:14:28Z</time>
      </trkpt>
      <trkpt lat="42.24052" lon="8.97162">
        <ele>1600.73</ele>
        <time>2015-06-23T07:14:43Z</time>
      </trkpt>
      <trkpt lat="42.2406" lon="8.97157">
        <ele>1599.77</ele>
        <time>2015-06-23T07:14:57Z</time>
      </trkpt>
      <trkpt lat="42.24068" lon="8.97144">
        <ele>1599.77</ele>
        <time>2015-06-23T07:15:11Z</time>
      </trkpt>
      <trkpt lat="42.24078" lon="8.97134">
        <ele>1601.69</ele>
        <time>2015-06-23T07:15:27Z</time>
      </trkpt>
      <trkpt lat="42.24086" lon="8.97124">
        <ele>1601.69</ele>
        <time>2015-06-23T07:15:43Z</time>
      </trkpt>
      <trkpt lat="42.24098" lon="8.97113">
        <ele>1602.66</ele>
        <time>2015-06-23T07:16:00Z</time>
      </trkpt>
      <trkpt lat="42.24107" lon="8.97104">
        <ele>1604.1</ele>
        <time>2015-06-23T07:16:18Z</time>
      </trkpt>
      <trkpt lat="42.24115" lon="8.97098">
        <ele>1604.58</ele>
        <time>2015-06-23T07:16:30Z</time>
      </trkpt>
      <trkpt lat="42.24122" lon="8.97092">
        <ele>1605.06</ele>
        <time>2015-06-23T07:16:45Z</time>
      </trkpt>
      <trkpt lat="42.24123" lon="8.97088">
        <ele>1605.06</ele>
        <time>2015-06-23T07:16:48Z</time>
      </trkpt>
      <trkpt lat="42.24135" lon="8.97077">
        <ele>1604.58</ele>
        <time>2015-06-23T07:17:04Z</time>
      </trkpt>
      <trkpt lat="42.24142" lon="8.97068">
        <ele>1604.58</ele>
        <time>2015-06-23T07:17:18Z</time>
      </trkpt>
      <trkpt lat="42.24145" lon="8.97066">
        <ele>1604.1</ele>
        <time>2015-06-23T07:17:22Z</time>
      </trkpt>
      <trkpt lat="42.2415" lon="8.97055">
        <ele>1604.1</ele>
        <time>2015-06-23T07:17:37Z</time>
      </trkpt>
      <trkpt lat="42.24149" lon="8.97054">
        <ele>1603.62</ele>
        <time>2015-06-23T07:17:57Z</time>
      </trkpt>
      <trkpt lat="42.24149" lon="8.97051">
        <ele>1604.1</ele>
        <time>2015-06-23T07:18:15Z</time>
      </trkpt>
      <trkpt lat="42.24155" lon="8.97039">
        <ele>1604.58</ele>
        <time>2015-06-23T07:18:25Z</time>
      </trkpt>
      <trkpt lat="42.24159" lon="8.97036">
        <ele>1605.06</ele>
        <time>2015-06-23T07:18:29Z</time>
      </trkpt>
      <trkpt lat="42.24171" lon="8.97027">
        <ele>1605.06</ele>
        <time>2015-06-23T07:18:42Z</time>
      </trkpt>
      <trkpt lat="42.24184" lon="8.97015">
        <ele>1606.5</ele>
        <time>2015-06-23T07:18:57Z</time>
      </trkpt>
      <trkpt lat="42.24191" lon="8.96993">
        <ele>1606.02</ele>
        <time>2015-06-23T07:19:13Z</time>
      </trkpt>
      <trkpt lat="42.24197" lon="8.96974">
        <ele>1606.02</ele>
        <time>2015-06-23T07:19:28Z</time>
      </trkpt>
      <trkpt lat="42.24205" lon="8.96957">
        <ele>1604.1</ele>
        <time>2015-06-23T07:19:42Z</time>
      </trkpt>
      <trkpt lat="42.24213" lon="8.96943">
        <ele>1603.62</ele>
        <time>2015-06-23T07:19:56Z</time>
      </trkpt>
      <trkpt lat="42.24222" lon="8.96929">
        <ele>1602.66</ele>
        <time>2015-06-23T07:20:09Z</time>
      </trkpt>
      <trkpt lat="42.24231" lon="8.96913">
        <ele>1602.66</ele>
        <time>2015-06-23T07:20:25Z</time>
      </trkpt>
      <trkpt lat="42.24238" lon="8.96899">
        <ele>1603.62</ele>
        <time>2015-06-23T07:20:42Z</time>
      </trkpt>
      <trkpt lat="42.24241" lon="8.96885">
        <ele>1602.66</ele>
        <time>2015-06-23T07:21:00Z</time>
      </trkpt>
      <trkpt lat="42.24243" lon="8.96887">
        <ele>1603.62</ele>
        <time>2015-06-23T07:21:21Z</time>
      </trkpt>
      <trkpt lat="42.24243" lon="8.96891">
        <ele>1604.58</ele>
        <time>2015-06-23T07:21:54Z</time>
      </trkpt>
      <trkpt lat="42.24244" lon="8.96893">
        <ele>1604.58</ele>
        <time>2015-06-23T07:22:27Z</time>
      </trkpt>
      <trkpt lat="42.24244" lon="8.96884">
        <ele>1604.58</ele>
        <time>2015-06-23T07:22:43Z</time>
      </trkpt>
      <trkpt lat="42.24249" lon="8.96881">
        <ele>1605.06</ele>
        <time>2015-06-23T07:22:48Z</time>
      </trkpt>
      <trkpt lat="42.24258" lon="8.9687">
        <ele>1603.14</ele>
        <time>2015-06-23T07:23:03Z</time>
      </trkpt>
      <trkpt lat="42.24267" lon="8.96855">
        <ele>1602.66</ele>
        <time>2015-06-23T07:23:17Z</time>
      </trkpt>
      <trkpt lat="42.24273" lon="8.96846">
        <ele>1603.14</ele>
        <time>2015-06-23T07:23:30Z</time>
      </trkpt>
      <trkpt lat="42.24281" lon="8.96832">
        <ele>1602.17</ele>
        <time>2015-06-23T07:23:45Z</time>
      </trkpt>
      <trkpt lat="42.24289" lon="8.9682">
        <ele>1603.14</ele>
        <time>2015-06-23T07:23:58Z</time>
      </trkpt>
      <trkpt lat="42.24299" lon="8.96816">
        <ele>1603.62</ele>
        <time>2015-06-23T07:24:10Z</time>
      </trkpt>
      <trkpt lat="42.2431" lon="8.96808">
        <ele>1605.54</ele>
        <time>2015-06-23T07:24:24Z</time>
      </trkpt>
      <trkpt lat="42.24321" lon="8.96807">
        <ele>1604.1</ele>
        <time>2015-06-23T07:24:38Z</time>
      </trkpt>
      <trkpt lat="42.24329" lon="8.968">
        <ele>1604.1</ele>
        <time>2015-06-23T07:24:48Z</time>
      </trkpt>
      <trkpt lat="42.24334" lon="8.96791">
        <ele>1604.1</ele>
        <time>2015-06-23T07:24:55Z</time>
      </trkpt>
      <trkpt lat="42.24349" lon="8.96769">
        <ele>1604.1</ele>
        <time>2015-06-23T07:25:14Z</time>
      </trkpt>
      <trkpt lat="42.24361" lon="8.9675">
        <ele>1604.58</ele>
        <time>2015-06-23T07:25:29Z</time>
      </trkpt>
      <trkpt lat="42.24362" lon="8.96744">
        <ele>1604.58</ele>
        <time>2015-06-23T07:25:33Z</time>
      </trkpt>
      <trkpt lat="42.24365" lon="8.96729">
        <ele>1605.06</ele>
        <time>2015-06-23T07:25:42Z</time>
      </trkpt>
      <trkpt lat="42.2437" lon="8.96727">
        <ele>1606.02</ele>
        <time>2015-06-23T07:25:55Z</time>
      </trkpt>
      <trkpt lat="42.24376" lon="8.96718">
        <ele>1603.62</ele>
        <time>2015-06-23T07:26:17Z</time>
      </trkpt>
      <trkpt lat="42.24376" lon="8.96716">
        <ele>1604.58</ele>
        <time>2015-06-23T07:26:18Z</time>
      </trkpt>
      <trkpt lat="42.24378" lon="8.96699">
        <ele>1603.62</ele>
        <time>2015-06-23T07:26:30Z</time>
      </trkpt>
      <trkpt lat="42.2438" lon="8.96697">
        <ele>1603.62</ele>
        <time>2015-06-23T07:26:32Z</time>
      </trkpt>
      <trkpt lat="42.24387" lon="8.96698">
        <ele>1604.1</ele>
        <time>2015-06-23T07:26:38Z</time>
      </trkpt>
      <trkpt lat="42.24399" lon="8.96688">
        <ele>1604.58</ele>
        <time>2015-06-23T07:26:49Z</time>
      </trkpt>
      <trkpt lat="42.24404" lon="8.96677">
        <ele>1604.58</ele>
        <time>2015-06-23T07:26:56Z</time>
      </trkpt>
      <trkpt lat="42.24421" lon="8.96659">
        <ele>1604.58</ele>
        <time>2015-06-23T07:27:13Z</time>
      </trkpt>
      <trkpt lat="42.24431" lon="8.96646">
        <ele>1604.58</ele>
        <time>2015-06-23T07:27:24Z</time>
      </trkpt>
      <trkpt lat="42.24441" lon="8.96636">
        <ele>1604.1</ele>
        <time>2015-06-23T07:27:38Z</time>
      </trkpt>
      <trkpt lat="42.2444" lon="8.96634">
        <ele>1603.14</ele>
        <time>2015-06-23T07:27:40Z</time>
      </trkpt>
      <trkpt lat="42.24441" lon="8.96628">
        <ele>1602.66</ele>
        <time>2015-06-23T07:27:44Z</time>
      </trkpt>
      <trkpt lat="42.24443" lon="8.96619">
        <ele>1603.62</ele>
        <time>2015-06-23T07:27:49Z</time>
      </trkpt>
      <trkpt lat="42.24447" lon="8.96617">
        <ele>1604.58</ele>
        <time>2015-06-23T07:27:52Z</time>
      </trkpt>
      <trkpt lat="42.24453" lon="8.96609">
        <ele>1604.58</ele>
        <time>2015-06-23T07:27:59Z</time>
      </trkpt>
      <trkpt lat="42.24469" lon="8.96594">
        <ele>1605.06</ele>
        <time>2015-06-23T07:28:15Z</time>
      </trkpt>
      <trkpt lat="42.24486" lon="8.96576">
        <ele>1605.54</ele>
        <time>2015-06-23T07:28:32Z</time>
      </trkpt>
      <trkpt lat="42.24502" lon="8.96568">
        <ele>1606.5</ele>
        <time>2015-06-23T07:28:45Z</time>
      </trkpt>
      <trkpt lat="42.24507" lon="8.96565">
        <ele>1606.02</ele>
        <time>2015-06-23T07:28:50Z</time>
      </trkpt>
      <trkpt lat="42.24525" lon="8.96555">
        <ele>1607.46</ele>
        <time>2015-06-23T07:29:06Z</time>
      </trkpt>
      <trkpt lat="42.24532" lon="8.96546">
        <ele>1606.5</ele>
        <time>2015-06-23T07:29:16Z</time>
      </trkpt>
      <trkpt lat="42.24533" lon="8.96537">
        <ele>1607.46</ele>
        <time>2015-06-23T07:29:22Z</time>
      </trkpt>
      <trkpt lat="42.24541" lon="8.96519">
        <ele>1608.9</ele>
        <time>2015-06-23T07:29:37Z</time>
      </trkpt>
      <trkpt lat="42.24544" lon="8.96506">
        <ele>1608.42</ele>
        <time>2015-06-23T07:29:51Z</time>
      </trkpt>
      <trkpt lat="42.24543" lon="8.96503">
        <ele>1607.94</ele>
        <time>2015-06-23T07:29:53Z</time>
      </trkpt>
      <trkpt lat="42.24543" lon="8.96499">
        <ele>1607.94</ele>
        <time>2015-06-23T07:29:56Z</time>
      </trkpt>
      <trkpt lat="42.24545" lon="8.96497">
        <ele>1607.94</ele>
        <time>2015-06-23T07:29:59Z</time>
      </trkpt>
      <trkpt lat="42.24549" lon="8.96489">
        <ele>1608.9</ele>
        <time>2015-06-23T07:30:09Z</time>
      </trkpt>
      <trkpt lat="42.2455" lon="8.96481">
        <ele>1609.86</ele>
        <time>2015-06-23T07:30:15Z</time>
      </trkpt>
      <trkpt lat="42.24551" lon="8.96479">
        <ele>1610.35</ele>
        <time>2015-06-23T07:30:17Z</time>
      </trkpt>
      <trkpt lat="42.24557" lon="8.9646">
        <ele>1610.35</ele>
        <time>2015-06-23T07:30:34Z</time>
      </trkpt>
      <trkpt lat="42.24566" lon="8.96451">
        <ele>1612.27</ele>
        <time>2015-06-23T07:30:51Z</time>
      </trkpt>
      <trkpt lat="42.24575" lon="8.9644">
        <ele>1613.71</ele>
        <time>2015-06-23T07:31:08Z</time>
      </trkpt>
      <trkpt lat="42.2458" lon="8.96428">
        <ele>1614.67</ele>
        <time>2015-06-23T07:31:23Z</time>
      </trkpt>
      <trkpt lat="42.24587" lon="8.96417">
        <ele>1615.15</ele>
        <time>2015-06-23T07:31:38Z</time>
      </trkpt>
      <trkpt lat="42.24596" lon="8.9641">
        <ele>1615.63</ele>
        <time>2015-06-23T07:31:54Z</time>
      </trkpt>
      <trkpt lat="42.24602" lon="8.96393">
        <ele>1615.63</ele>
        <time>2015-06-23T07:32:10Z</time>
      </trkpt>
      <trkpt lat="42.24614" lon="8.96392">
        <ele>1616.59</ele>
        <time>2015-06-23T07:32:25Z</time>
      </trkpt>
      <trkpt lat="42.24622" lon="8.96387">
        <ele>1617.07</ele>
        <time>2015-06-23T07:32:40Z</time>
      </trkpt>
      <trkpt lat="42.24621" lon="8.96378">
        <ele>1619</ele>
        <time>2015-06-23T07:32:56Z</time>
      </trkpt>
      <trkpt lat="42.24626" lon="8.96366">
        <ele>1619.48</ele>
        <time>2015-06-23T07:33:08Z</time>
      </trkpt>
      <trkpt lat="42.24632" lon="8.96356">
        <ele>1619.96</ele>
        <time>2015-06-23T07:33:23Z</time>
      </trkpt>
      <trkpt lat="42.24638" lon="8.96344">
        <ele>1621.4</ele>
        <time>2015-06-23T07:33:39Z</time>
      </trkpt>
      <trkpt lat="42.24641" lon="8.9634">
        <ele>1622.36</ele>
        <time>2015-06-23T07:33:53Z</time>
      </trkpt>
      <trkpt lat="42.24642" lon="8.9634">
        <ele>1622.36</ele>
        <time>2015-06-23T07:34:07Z</time>
      </trkpt>
      <trkpt lat="42.24641" lon="8.96337">
        <ele>1622.84</ele>
        <time>2015-06-23T07:34:10Z</time>
      </trkpt>
      <trkpt lat="42.24643" lon="8.96334">
        <ele>1622.84</ele>
        <time>2015-06-23T07:34:13Z</time>
      </trkpt>
      <trkpt lat="42.24643" lon="8.96328">
        <ele>1622.84</ele>
        <time>2015-06-23T07:34:17Z</time>
      </trkpt>
      <trkpt lat="42.24648" lon="8.96314">
        <ele>1623.8</ele>
        <time>2015-06-23T07:34:29Z</time>
      </trkpt>
      <trkpt lat="42.24659" lon="8.96295">
        <ele>1623.8</ele>
        <time>2015-06-23T07:34:46Z</time>
      </trkpt>
      <trkpt lat="42.2466" lon="8.96291">
        <ele>1623.32</ele>
        <time>2015-06-23T07:34:49Z</time>
      </trkpt>
      <trkpt lat="42.24673" lon="8.96289">
        <ele>1626.21</ele>
        <time>2015-06-23T07:35:05Z</time>
      </trkpt>
      <trkpt lat="42.24681" lon="8.96289">
        <ele>1627.65</ele>
        <time>2015-06-23T07:35:19Z</time>
      </trkpt>
      <trkpt lat="42.24682" lon="8.96284">
        <ele>1628.61</ele>
        <time>2015-06-23T07:35:24Z</time>
      </trkpt>
      <trkpt lat="42.24692" lon="8.96276">
        <ele>1629.57</ele>
        <time>2015-06-23T07:35:39Z</time>
      </trkpt>
      <trkpt lat="42.24693" lon="8.96275">
        <ele>1629.57</ele>
        <time>2015-06-23T07:35:41Z</time>
      </trkpt>
      <trkpt lat="42.24707" lon="8.96271">
        <ele>1631.01</ele>
        <time>2015-06-23T07:35:57Z</time>
      </trkpt>
      <trkpt lat="42.2471" lon="8.96268">
        <ele>1631.49</ele>
        <time>2015-06-23T07:36:02Z</time>
      </trkpt>
      <trkpt lat="42.24718" lon="8.96263">
        <ele>1632.46</ele>
        <time>2015-06-23T07:36:17Z</time>
      </trkpt>
      <trkpt lat="42.24725" lon="8.96265">
        <ele>1633.42</ele>
        <time>2015-06-23T07:36:32Z</time>
      </trkpt>
      <trkpt lat="42.24735" lon="8.96264">
        <ele>1633.9</ele>
        <time>2015-06-23T07:36:48Z</time>
      </trkpt>
      <trkpt lat="42.24744" lon="8.96257">
        <ele>1633.9</ele>
        <time>2015-06-23T07:37:01Z</time>
      </trkpt>
      <trkpt lat="42.2475" lon="8.96245">
        <ele>1635.34</ele>
        <time>2015-06-23T07:37:17Z</time>
      </trkpt>
      <trkpt lat="42.24757" lon="8.9624">
        <ele>1635.82</ele>
        <time>2015-06-23T07:37:32Z</time>
      </trkpt>
      <trkpt lat="42.24763" lon="8.96233">
        <ele>1636.78</ele>
        <time>2015-06-23T07:37:46Z</time>
      </trkpt>
      <trkpt lat="42.24771" lon="8.9623">
        <ele>1638.22</ele>
        <time>2015-06-23T07:38:00Z</time>
      </trkpt>
      <trkpt lat="42.24779" lon="8.9623">
        <ele>1639.67</ele>
        <time>2015-06-23T07:38:13Z</time>
      </trkpt>
      <trkpt lat="42.24781" lon="8.96223">
        <ele>1642.07</ele>
        <time>2015-06-23T07:38:28Z</time>
      </trkpt>
      <trkpt lat="42.24786" lon="8.96229">
        <ele>1643.03</ele>
        <time>2015-06-23T07:38:41Z</time>
      </trkpt>
      <trkpt lat="42.24793" lon="8.96227">
        <ele>1643.99</ele>
        <time>2015-06-23T07:38:57Z</time>
      </trkpt>
      <trkpt lat="42.24795" lon="8.96218">
        <ele>1646.4</ele>
        <time>2015-06-23T07:39:11Z</time>
      </trkpt>
      <trkpt lat="42.24799" lon="8.96209">
        <ele>1647.84</ele>
        <time>2015-06-23T07:39:24Z</time>
      </trkpt>
      <trkpt lat="42.24804" lon="8.96201">
        <ele>1650.24</ele>
        <time>2015-06-23T07:39:37Z</time>
      </trkpt>
      <trkpt lat="42.24814" lon="8.96198">
        <ele>1650.24</ele>
        <time>2015-06-23T07:39:50Z</time>
      </trkpt>
      <trkpt lat="42.24824" lon="8.96197">
        <ele>1651.68</ele>
        <time>2015-06-23T07:40:05Z</time>
      </trkpt>
      <trkpt lat="42.24827" lon="8.96193">
        <ele>1653.12</ele>
        <time>2015-06-23T07:40:21Z</time>
      </trkpt>
      <trkpt lat="42.24833" lon="8.96187">
        <ele>1654.57</ele>
        <time>2015-06-23T07:40:34Z</time>
      </trkpt>
      <trkpt lat="42.2484" lon="8.9618">
        <ele>1656.01</ele>
        <time>2015-06-23T07:40:48Z</time>
      </trkpt>
      <trkpt lat="42.24852" lon="8.96179">
        <ele>1656.49</ele>
        <time>2015-06-23T07:41:04Z</time>
      </trkpt>
      <trkpt lat="42.24859" lon="8.96181">
        <ele>1658.41</ele>
        <time>2015-06-23T07:41:19Z</time>
      </trkpt>
      <trkpt lat="42.24868" lon="8.96182">
        <ele>1659.85</ele>
        <time>2015-06-23T07:41:35Z</time>
      </trkpt>
      <trkpt lat="42.24875" lon="8.9618">
        <ele>1661.78</ele>
        <time>2015-06-23T07:41:49Z</time>
      </trkpt>
      <trkpt lat="42.24883" lon="8.9618">
        <ele>1663.22</ele>
        <time>2015-06-23T07:42:04Z</time>
      </trkpt>
      <trkpt lat="42.24891" lon="8.96179">
        <ele>1664.18</ele>
        <time>2015-06-23T07:42:19Z</time>
      </trkpt>
      <trkpt lat="42.24894" lon="8.96179">
        <ele>1664.18</ele>
        <time>2015-06-23T07:42:21Z</time>
      </trkpt>
      <trkpt lat="42.24903" lon="8.96179">
        <ele>1664.18</ele>
        <time>2015-06-23T07:42:35Z</time>
      </trkpt>
      <trkpt lat="42.24909" lon="8.96189">
        <ele>1665.14</ele>
        <time>2015-06-23T07:42:51Z</time>
      </trkpt>
      <trkpt lat="42.24913" lon="8.96198">
        <ele>1666.1</ele>
        <time>2015-06-23T07:43:06Z</time>
      </trkpt>
      <trkpt lat="42.24916" lon="8.96195">
        <ele>1666.58</ele>
        <time>2015-06-23T07:43:11Z</time>
      </trkpt>
      <trkpt lat="42.24924" lon="8.96191">
        <ele>1668.02</ele>
        <time>2015-06-23T07:43:24Z</time>
      </trkpt>
      <trkpt lat="42.24932" lon="8.96192">
        <ele>1668.99</ele>
        <time>2015-06-23T07:43:40Z</time>
      </trkpt>
      <trkpt lat="42.24938" lon="8.9619">
        <ele>1669.95</ele>
        <time>2015-06-23T07:43:54Z</time>
      </trkpt>
      <trkpt lat="42.2494" lon="8.96189">
        <ele>1671.39</ele>
        <time>2015-06-23T07:43:58Z</time>
      </trkpt>
      <trkpt lat="42.2495" lon="8.96192">
        <ele>1673.31</ele>
        <time>2015-06-23T07:44:14Z</time>
      </trkpt>
      <trkpt lat="42.2495" lon="8.96193">
        <ele>1673.31</ele>
        <time>2015-06-23T07:44:15Z</time>
      </trkpt>
      <trkpt lat="42.24953" lon="8.96206">
        <ele>1674.75</ele>
        <time>2015-06-23T07:44:29Z</time>
      </trkpt>
      <trkpt lat="42.24958" lon="8.96212">
        <ele>1676.68</ele>
        <time>2015-06-23T07:44:43Z</time>
      </trkpt>
      <trkpt lat="42.24968" lon="8.96217">
        <ele>1678.12</ele>
        <time>2015-06-23T07:44:58Z</time>
      </trkpt>
      <trkpt lat="42.24972" lon="8.96218">
        <ele>1679.08</ele>
        <time>2015-06-23T07:45:12Z</time>
      </trkpt>
      <trkpt lat="42.24972" lon="8.96217">
        <ele>1679.08</ele>
        <time>2015-06-23T07:45:37Z</time>
      </trkpt>
      <trkpt lat="42.24973" lon="8.96217">
        <ele>1679.08</ele>
        <time>2015-06-23T07:46:09Z</time>
      </trkpt>
      <trkpt lat="42.24971" lon="8.96215">
        <ele>1678.6</ele>
        <time>2015-06-23T07:46:44Z</time>
      </trkpt>
      <trkpt lat="42.24976" lon="8.96219">
        <ele>1678.6</ele>
        <time>2015-06-23T07:47:16Z</time>
      </trkpt>
      <trkpt lat="42.2498" lon="8.96212">
        <ele>1680.52</ele>
        <time>2015-06-23T07:47:30Z</time>
      </trkpt>
      <trkpt lat="42.24988" lon="8.96211">
        <ele>1681.96</ele>
        <time>2015-06-23T07:47:42Z</time>
      </trkpt>
      <trkpt lat="42.25" lon="8.96213">
        <ele>1684.37</ele>
        <time>2015-06-23T07:47:59Z</time>
      </trkpt>
      <trkpt lat="42.25008" lon="8.96214">
        <ele>1685.81</ele>
        <time>2015-06-23T07:48:13Z</time>
      </trkpt>
      <trkpt lat="42.25015" lon="8.96213">
        <ele>1687.25</ele>
        <time>2015-06-23T07:48:28Z</time>
      </trkpt>
      <trkpt lat="42.25019" lon="8.96208">
        <ele>1688.69</ele>
        <time>2015-06-23T07:48:43Z</time>
      </trkpt>
      <trkpt lat="42.25025" lon="8.96203">
        <ele>1690.62</ele>
        <time>2015-06-23T07:48:56Z</time>
      </trkpt>
      <trkpt lat="42.25028" lon="8.96196">
        <ele>1690.62</ele>
        <time>2015-06-23T07:49:11Z</time>
      </trkpt>
      <trkpt lat="42.25032" lon="8.96185">
        <ele>1693.02</ele>
        <time>2015-06-23T07:49:25Z</time>
      </trkpt>
      <trkpt lat="42.25039" lon="8.9618">
        <ele>1694.46</ele>
        <time>2015-06-23T07:49:38Z</time>
      </trkpt>
      <trkpt lat="42.25044" lon="8.96178">
        <ele>1695.9</ele>
        <time>2015-06-23T07:49:53Z</time>
      </trkpt>
      <trkpt lat="42.25051" lon="8.96179">
        <ele>1697.34</ele>
        <time>2015-06-23T07:50:06Z</time>
      </trkpt>
      <trkpt lat="42.25059" lon="8.96179">
        <ele>1698.79</ele>
        <time>2015-06-23T07:50:20Z</time>
      </trkpt>
      <trkpt lat="42.25065" lon="8.96174">
        <ele>1701.19</ele>
        <time>2015-06-23T07:50:33Z</time>
      </trkpt>
      <trkpt lat="42.2507" lon="8.96163">
        <ele>1701.67</ele>
        <time>2015-06-23T07:50:46Z</time>
      </trkpt>
      <trkpt lat="42.25079" lon="8.96157">
        <ele>1703.59</ele>
        <time>2015-06-23T07:51:02Z</time>
      </trkpt>
      <trkpt lat="42.25082" lon="8.96151">
        <ele>1704.07</ele>
        <time>2015-06-23T07:51:16Z</time>
      </trkpt>
      <trkpt lat="42.25088" lon="8.96143">
        <ele>1705.52</ele>
        <time>2015-06-23T07:51:31Z</time>
      </trkpt>
      <trkpt lat="42.2509" lon="8.96134">
        <ele>1708.4</ele>
        <time>2015-06-23T07:51:46Z</time>
      </trkpt>
      <trkpt lat="42.25094" lon="8.96124">
        <ele>1708.88</ele>
        <time>2015-06-23T07:52:01Z</time>
      </trkpt>
      <trkpt lat="42.25095" lon="8.96121">
        <ele>1711.76</ele>
        <time>2015-06-23T07:52:05Z</time>
      </trkpt>
      <trkpt lat="42.25101" lon="8.96113">
        <ele>1714.65</ele>
        <time>2015-06-23T07:52:18Z</time>
      </trkpt>
      <trkpt lat="42.25109" lon="8.96102">
        <ele>1715.13</ele>
        <time>2015-06-23T07:52:34Z</time>
      </trkpt>
      <trkpt lat="42.25112" lon="8.96098">
        <ele>1715.13</ele>
        <time>2015-06-23T07:52:39Z</time>
      </trkpt>
      <trkpt lat="42.25116" lon="8.9609">
        <ele>1714.65</ele>
        <time>2015-06-23T07:52:47Z</time>
      </trkpt>
      <trkpt lat="42.25118" lon="8.96086">
        <ele>1715.13</ele>
        <time>2015-06-23T07:52:51Z</time>
      </trkpt>
      <trkpt lat="42.25125" lon="8.96072">
        <ele>1717.05</ele>
        <time>2015-06-23T07:53:06Z</time>
      </trkpt>
      <trkpt lat="42.25131" lon="8.96058">
        <ele>1718.01</ele>
        <time>2015-06-23T07:53:22Z</time>
      </trkpt>
      <trkpt lat="42.25137" lon="8.96044">
        <ele>1719.94</ele>
        <time>2015-06-23T07:53:37Z</time>
      </trkpt>
      <trkpt lat="42.25142" lon="8.96033">
        <ele>1721.38</ele>
        <time>2015-06-23T07:53:52Z</time>
      </trkpt>
      <trkpt lat="42.25149" lon="8.96022">
        <ele>1723.3</ele>
        <time>2015-06-23T07:54:07Z</time>
      </trkpt>
      <trkpt lat="42.25158" lon="8.9602">
        <ele>1723.78</ele>
        <time>2015-06-23T07:54:21Z</time>
      </trkpt>
      <trkpt lat="42.25167" lon="8.9601">
        <ele>1725.22</ele>
        <time>2015-06-23T07:54:37Z</time>
      </trkpt>
      <trkpt lat="42.25176" lon="8.96002">
        <ele>1725.22</ele>
        <time>2015-06-23T07:54:50Z</time>
      </trkpt>
      <trkpt lat="42.2519" lon="8.95995">
        <ele>1724.74</ele>
        <time>2015-06-23T07:55:06Z</time>
      </trkpt>
      <trkpt lat="42.25192" lon="8.95993">
        <ele>1724.74</ele>
        <time>2015-06-23T07:55:09Z</time>
      </trkpt>
      <trkpt lat="42.25203" lon="8.9598">
        <ele>1724.26</ele>
        <time>2015-06-23T07:55:26Z</time>
      </trkpt>
      <trkpt lat="42.25213" lon="8.95969">
        <ele>1724.74</ele>
        <time>2015-06-23T07:55:40Z</time>
      </trkpt>
      <trkpt lat="42.25223" lon="8.95958">
        <ele>1725.7</ele>
        <time>2015-06-23T07:55:54Z</time>
      </trkpt>
      <trkpt lat="42.25235" lon="8.95947">
        <ele>1725.7</ele>
        <time>2015-06-23T07:56:09Z</time>
      </trkpt>
      <trkpt lat="42.25243" lon="8.95938">
        <ele>1726.67</ele>
        <time>2015-06-23T07:56:22Z</time>
      </trkpt>
      <trkpt lat="42.25251" lon="8.95928">
        <ele>1727.15</ele>
        <time>2015-06-23T07:56:35Z</time>
      </trkpt>
      <trkpt lat="42.25258" lon="8.95915">
        <ele>1728.11</ele>
        <time>2015-06-23T07:56:50Z</time>
      </trkpt>
      <trkpt lat="42.25259" lon="8.95914">
        <ele>1728.11</ele>
        <time>2015-06-23T07:56:52Z</time>
      </trkpt>
      <trkpt lat="42.25268" lon="8.95903">
        <ele>1729.55</ele>
        <time>2015-06-23T07:57:08Z</time>
      </trkpt>
      <trkpt lat="42.25274" lon="8.95893">
        <ele>1730.99</ele>
        <time>2015-06-23T07:57:21Z</time>
      </trkpt>
      <trkpt lat="42.25278" lon="8.9588">
        <ele>1731.47</ele>
        <time>2015-06-23T07:57:36Z</time>
      </trkpt>
      <trkpt lat="42.25284" lon="8.95864">
        <ele>1731.95</ele>
        <time>2015-06-23T07:57:51Z</time>
      </trkpt>
      <trkpt lat="42.25293" lon="8.95848">
        <ele>1731.95</ele>
        <time>2015-06-23T07:58:08Z</time>
      </trkpt>
      <trkpt lat="42.25303" lon="8.95836">
        <ele>1730.99</ele>
        <time>2015-06-23T07:58:24Z</time>
      </trkpt>
      <trkpt lat="42.25311" lon="8.9582">
        <ele>1730.51</ele>
        <time>2015-06-23T07:58:40Z</time>
      </trkpt>
      <trkpt lat="42.25317" lon="8.95811">
        <ele>1730.51</ele>
        <time>2015-06-23T07:58:49Z</time>
      </trkpt>
      <trkpt lat="42.25318" lon="8.95809">
        <ele>1730.99</ele>
        <time>2015-06-23T07:58:51Z</time>
      </trkpt>
      <trkpt lat="42.25327" lon="8.95797">
        <ele>1730.51</ele>
        <time>2015-06-23T07:59:04Z</time>
      </trkpt>
      <trkpt lat="42.25337" lon="8.95784">
        <ele>1730.99</ele>
        <time>2015-06-23T07:59:18Z</time>
      </trkpt>
      <trkpt lat="42.25343" lon="8.95778">
        <ele>1730.99</ele>
        <time>2015-06-23T07:59:33Z</time>
      </trkpt>
      <trkpt lat="42.25354" lon="8.95766">
        <ele>1731.95</ele>
        <time>2015-06-23T07:59:48Z</time>
      </trkpt>
      <trkpt lat="42.25359" lon="8.95761">
        <ele>1731.47</ele>
        <time>2015-06-23T07:59:55Z</time>
      </trkpt>
      <trkpt lat="42.2537" lon="8.95753">
        <ele>1730.99</ele>
        <time>2015-06-23T08:00:10Z</time>
      </trkpt>
      <trkpt lat="42.25373" lon="8.95753">
        <ele>1730.99</ele>
        <time>2015-06-23T08:00:13Z</time>
      </trkpt>
      <trkpt lat="42.25383" lon="8.95755">
        <ele>1730.03</ele>
        <time>2015-06-23T08:00:26Z</time>
      </trkpt>
      <trkpt lat="42.25387" lon="8.95749">
        <ele>1729.55</ele>
        <time>2015-06-23T08:00:40Z</time>
      </trkpt>
      <trkpt lat="42.25392" lon="8.95749">
        <ele>1729.55</ele>
        <time>2015-06-23T08:00:52Z</time>
      </trkpt>
      <trkpt lat="42.25399" lon="8.95752">
        <ele>1730.51</ele>
        <time>2015-06-23T08:01:04Z</time>
      </trkpt>
      <trkpt lat="42.25411" lon="8.95752">
        <ele>1731.47</ele>
        <time>2015-06-23T08:01:17Z</time>
      </trkpt>
      <trkpt lat="42.25412" lon="8.95751">
        <ele>1731.95</ele>
        <time>2015-06-23T08:01:18Z</time>
      </trkpt>
      <trkpt lat="42.25425" lon="8.95752">
        <ele>1732.91</ele>
        <time>2015-06-23T08:01:34Z</time>
      </trkpt>
      <trkpt lat="42.25434" lon="8.95759">
        <ele>1733.88</ele>
        <time>2015-06-23T08:01:48Z</time>
      </trkpt>
      <trkpt lat="42.25447" lon="8.95766">
        <ele>1734.84</ele>
        <time>2015-06-23T08:02:03Z</time>
      </trkpt>
      <trkpt lat="42.25461" lon="8.95765">
        <ele>1734.84</ele>
        <time>2015-06-23T08:02:21Z</time>
      </trkpt>
      <trkpt lat="42.25463" lon="8.95767">
        <ele>1734.84</ele>
        <time>2015-06-23T08:02:23Z</time>
      </trkpt>
      <trkpt lat="42.25472" lon="8.95777">
        <ele>1734.84</ele>
        <time>2015-06-23T08:02:37Z</time>
      </trkpt>
      <trkpt lat="42.25479" lon="8.95789">
        <ele>1733.88</ele>
        <time>2015-06-23T08:02:49Z</time>
      </trkpt>
      <trkpt lat="42.25479" lon="8.95792">
        <ele>1733.88</ele>
        <time>2015-06-23T08:02:52Z</time>
      </trkpt>
      <trkpt lat="42.25486" lon="8.95804">
        <ele>1735.32</ele>
        <time>2015-06-23T08:03:06Z</time>
      </trkpt>
      <trkpt lat="42.25488" lon="8.95806">
        <ele>1735.8</ele>
        <time>2015-06-23T08:03:09Z</time>
      </trkpt>
      <trkpt lat="42.25498" lon="8.95814">
        <ele>1737.24</ele>
        <time>2015-06-23T08:03:24Z</time>
      </trkpt>
      <trkpt lat="42.25509" lon="8.95824">
        <ele>1738.68</ele>
        <time>2015-06-23T08:03:39Z</time>
      </trkpt>
      <trkpt lat="42.25516" lon="8.95836">
        <ele>1739.64</ele>
        <time>2015-06-23T08:03:54Z</time>
      </trkpt>
      <trkpt lat="42.25525" lon="8.95852">
        <ele>1740.6</ele>
        <time>2015-06-23T08:04:14Z</time>
      </trkpt>
      <trkpt lat="42.25532" lon="8.95859">
        <ele>1742.05</ele>
        <time>2015-06-23T08:04:27Z</time>
      </trkpt>
      <trkpt lat="42.25544" lon="8.95862">
        <ele>1744.45</ele>
        <time>2015-06-23T08:04:43Z</time>
      </trkpt>
      <trkpt lat="42.25545" lon="8.95862">
        <ele>1744.93</ele>
        <time>2015-06-23T08:04:44Z</time>
      </trkpt>
      <trkpt lat="42.25557" lon="8.95864">
        <ele>1745.89</ele>
        <time>2015-06-23T08:05:00Z</time>
      </trkpt>
      <trkpt lat="42.25566" lon="8.9587">
        <ele>1747.33</ele>
        <time>2015-06-23T08:05:15Z</time>
      </trkpt>
      <trkpt lat="42.25571" lon="8.95883">
        <ele>1749.74</ele>
        <time>2015-06-23T08:05:30Z</time>
      </trkpt>
      <trkpt lat="42.25577" lon="8.95889">
        <ele>1750.22</ele>
        <time>2015-06-23T08:05:41Z</time>
      </trkpt>
      <trkpt lat="42.25579" lon="8.95891">
        <ele>1751.18</ele>
        <time>2015-06-23T08:05:45Z</time>
      </trkpt>
      <trkpt lat="42.25589" lon="8.95897">
        <ele>1753.58</ele>
        <time>2015-06-23T08:06:01Z</time>
      </trkpt>
      <trkpt lat="42.25598" lon="8.95901">
        <ele>1755.99</ele>
        <time>2015-06-23T08:06:14Z</time>
      </trkpt>
      <trkpt lat="42.25608" lon="8.95907">
        <ele>1756.47</ele>
        <time>2015-06-23T08:06:30Z</time>
      </trkpt>
      <trkpt lat="42.25617" lon="8.95917">
        <ele>1758.87</ele>
        <time>2015-06-23T08:06:45Z</time>
      </trkpt>
      <trkpt lat="42.25622" lon="8.95918">
        <ele>1759.83</ele>
        <time>2015-06-23T08:06:55Z</time>
      </trkpt>
      <trkpt lat="42.25632" lon="8.95921">
        <ele>1762.23</ele>
        <time>2015-06-23T08:07:10Z</time>
      </trkpt>
      <trkpt lat="42.25637" lon="8.9593">
        <ele>1764.16</ele>
        <time>2015-06-23T08:07:24Z</time>
      </trkpt>
      <trkpt lat="42.25634" lon="8.95936">
        <ele>1763.68</ele>
        <time>2015-06-23T08:07:30Z</time>
      </trkpt>
      <trkpt lat="42.2564" lon="8.95949">
        <ele>1763.68</ele>
        <time>2015-06-23T08:07:47Z</time>
      </trkpt>
      <trkpt lat="42.25649" lon="8.95959">
        <ele>1766.08</ele>
        <time>2015-06-23T08:08:02Z</time>
      </trkpt>
      <trkpt lat="42.25652" lon="8.95966">
        <ele>1765.12</ele>
        <time>2015-06-23T08:08:18Z</time>
      </trkpt>
      <trkpt lat="42.2565" lon="8.95966">
        <ele>1765.6</ele>
        <time>2015-06-23T08:08:50Z</time>
      </trkpt>
      <trkpt lat="42.25652" lon="8.95967">
        <ele>1765.6</ele>
        <time>2015-06-23T08:09:13Z</time>
      </trkpt>
      <trkpt lat="42.25654" lon="8.95968">
        <ele>1766.08</ele>
        <time>2015-06-23T08:09:36Z</time>
      </trkpt>
      <trkpt lat="42.25655" lon="8.95968">
        <ele>1766.08</ele>
        <time>2015-06-23T08:09:58Z</time>
      </trkpt>
      <trkpt lat="42.25653" lon="8.95967">
        <ele>1766.08</ele>
        <time>2015-06-23T08:10:26Z</time>
      </trkpt>
      <trkpt lat="42.25654" lon="8.95968">
        <ele>1766.08</ele>
        <time>2015-06-23T08:10:46Z</time>
      </trkpt>
      <trkpt lat="42.25649" lon="8.95966">
        <ele>1765.6</ele>
        <time>2015-06-23T08:11:09Z</time>
      </trkpt>
      <trkpt lat="42.25651" lon="8.95967">
        <ele>1765.6</ele>
        <time>2015-06-23T08:11:19Z</time>
      </trkpt>
      <trkpt lat="42.25649" lon="8.95965">
        <ele>1765.12</ele>
        <time>2015-06-23T08:11:23Z</time>
      </trkpt>
      <trkpt lat="42.25653" lon="8.95965">
        <ele>1766.56</ele>
        <time>2015-06-23T08:11:35Z</time>
      </trkpt>
      <trkpt lat="42.25654" lon="8.95969">
        <ele>1766.56</ele>
        <time>2015-06-23T08:11:48Z</time>
      </trkpt>
      <trkpt lat="42.25652" lon="8.95968">
        <ele>1766.08</ele>
        <time>2015-06-23T08:12:01Z</time>
      </trkpt>
      <trkpt lat="42.25652" lon="8.95968">
        <ele>1765.6</ele>
        <time>2015-06-23T08:12:35Z</time>
      </trkpt>
      <trkpt lat="42.25652" lon="8.95969">
        <ele>1765.6</ele>
        <time>2015-06-23T08:13:04Z</time>
      </trkpt>
      <trkpt lat="42.25653" lon="8.95968">
        <ele>1766.08</ele>
        <time>2015-06-23T08:13:29Z</time>
      </trkpt>
      <trkpt lat="42.25653" lon="8.95968">
        <ele>1763.68</ele>
        <time>2015-06-23T09:38:45Z</time>
      </trkpt>
      <trkpt lat="42.2565" lon="8.95962">
        <ele>1763.68</ele>
        <time>2015-06-23T09:38:52Z</time>
      </trkpt>
      <trkpt lat="42.2565" lon="8.95966">
        <ele>1762.71</ele>
        <time>2015-06-23T09:39:07Z</time>
      </trkpt>
      <trkpt lat="42.25649" lon="8.95967">
        <ele>1763.2</ele>
        <time>2015-06-23T09:39:20Z</time>
      </trkpt>
      <trkpt lat="42.25649" lon="8.95966">
        <ele>1763.2</ele>
        <time>2015-06-23T09:39:37Z</time>
      </trkpt>
      <trkpt lat="42.25651" lon="8.95964">
        <ele>1763.2</ele>
        <time>2015-06-23T09:39:53Z</time>
      </trkpt>
      <trkpt lat="42.25648" lon="8.95965">
        <ele>1763.68</ele>
        <time>2015-06-23T09:40:09Z</time>
      </trkpt>
      <trkpt lat="42.25646" lon="8.95956">
        <ele>1764.16</ele>
        <time>2015-06-23T09:40:25Z</time>
      </trkpt>
      <trkpt lat="42.25641" lon="8.9595">
        <ele>1764.16</ele>
        <time>2015-06-23T09:40:47Z</time>
      </trkpt>
      <trkpt lat="42.25641" lon="8.95949">
        <ele>1763.2</ele>
        <time>2015-06-23T09:40:48Z</time>
      </trkpt>
      <trkpt lat="42.25632" lon="8.95951">
        <ele>1762.23</ele>
        <time>2015-06-23T09:41:03Z</time>
      </trkpt>
      <trkpt lat="42.25629" lon="8.95948">
        <ele>1762.71</ele>
        <time>2015-06-23T09:41:24Z</time>
      </trkpt>
      <trkpt lat="42.25627" lon="8.95937">
        <ele>1762.23</ele>
        <time>2015-06-23T09:41:39Z</time>
      </trkpt>
      <trkpt lat="42.25626" lon="8.95934">
        <ele>1761.75</ele>
        <time>2015-06-23T09:41:42Z</time>
      </trkpt>
      <trkpt lat="42.25625" lon="8.95925">
        <ele>1760.79</ele>
        <time>2015-06-23T09:41:52Z</time>
      </trkpt>
      <trkpt lat="42.25623" lon="8.9592">
        <ele>1760.31</ele>
        <time>2015-06-23T09:41:56Z</time>
      </trkpt>
      <trkpt lat="42.25621" lon="8.95916">
        <ele>1759.83</ele>
        <time>2015-06-23T09:42:01Z</time>
      </trkpt>
      <trkpt lat="42.25614" lon="8.95915">
        <ele>1757.91</ele>
        <time>2015-06-23T09:42:09Z</time>
      </trkpt>
      <trkpt lat="42.25612" lon="8.95911">
        <ele>1756.95</ele>
        <time>2015-06-23T09:42:13Z</time>
      </trkpt>
      <trkpt lat="42.25606" lon="8.95908">
        <ele>1755.99</ele>
        <time>2015-06-23T09:42:20Z</time>
      </trkpt>
      <trkpt lat="42.25606" lon="8.95906">
        <ele>1755.5</ele>
        <time>2015-06-23T09:42:22Z</time>
      </trkpt>
      <trkpt lat="42.25602" lon="8.95897">
        <ele>1754.06</ele>
        <time>2015-06-23T09:42:30Z</time>
      </trkpt>
      <trkpt lat="42.25598" lon="8.95895">
        <ele>1754.06</ele>
        <time>2015-06-23T09:42:34Z</time>
      </trkpt>
      <trkpt lat="42.25586" lon="8.95892">
        <ele>1752.14</ele>
        <time>2015-06-23T09:42:48Z</time>
      </trkpt>
      <trkpt lat="42.25575" lon="8.95889">
        <ele>1749.26</ele>
        <time>2015-06-23T09:43:01Z</time>
      </trkpt>
      <trkpt lat="42.25573" lon="8.95887">
        <ele>1748.78</ele>
        <time>2015-06-23T09:43:18Z</time>
      </trkpt>
      <trkpt lat="42.25564" lon="8.95876">
        <ele>1746.37</ele>
        <time>2015-06-23T09:43:32Z</time>
      </trkpt>
      <trkpt lat="42.25556" lon="8.95871">
        <ele>1744.45</ele>
        <time>2015-06-23T09:43:47Z</time>
      </trkpt>
      <trkpt lat="42.25552" lon="8.95866">
        <ele>1744.45</ele>
        <time>2015-06-23T09:43:54Z</time>
      </trkpt>
      <trkpt lat="42.25551" lon="8.9586">
        <ele>1743.97</ele>
        <time>2015-06-23T09:43:59Z</time>
      </trkpt>
      <trkpt lat="42.25541" lon="8.95848">
        <ele>1743.01</ele>
        <time>2015-06-23T09:44:15Z</time>
      </trkpt>
      <trkpt lat="42.25529" lon="8.95838">
        <ele>1741.08</ele>
        <time>2015-06-23T09:44:34Z</time>
      </trkpt>
      <trkpt lat="42.25527" lon="8.95836">
        <ele>1741.08</ele>
        <time>2015-06-23T09:44:37Z</time>
      </trkpt>
      <trkpt lat="42.25515" lon="8.95835">
        <ele>1739.64</ele>
        <time>2015-06-23T09:44:52Z</time>
      </trkpt>
      <trkpt lat="42.25514" lon="8.95836">
        <ele>1739.64</ele>
        <time>2015-06-23T09:44:53Z</time>
      </trkpt>
      <trkpt lat="42.25508" lon="8.95829">
        <ele>1738.68</ele>
        <time>2015-06-23T09:45:09Z</time>
      </trkpt>
      <trkpt lat="42.25498" lon="8.95819">
        <ele>1737.72</ele>
        <time>2015-06-23T09:45:26Z</time>
      </trkpt>
      <trkpt lat="42.25487" lon="8.95806">
        <ele>1735.32</ele>
        <time>2015-06-23T09:45:43Z</time>
      </trkpt>
      <trkpt lat="42.25485" lon="8.95802">
        <ele>1735.32</ele>
        <time>2015-06-23T09:45:47Z</time>
      </trkpt>
      <trkpt lat="42.25484" lon="8.958">
        <ele>1735.32</ele>
        <time>2015-06-23T09:45:50Z</time>
      </trkpt>
      <trkpt lat="42.25479" lon="8.95798">
        <ele>1735.32</ele>
        <time>2015-06-23T09:45:56Z</time>
      </trkpt>
      <trkpt lat="42.25478" lon="8.95793">
        <ele>1734.36</ele>
        <time>2015-06-23T09:46:00Z</time>
      </trkpt>
      <trkpt lat="42.25479" lon="8.95789">
        <ele>1734.84</ele>
        <time>2015-06-23T09:46:03Z</time>
      </trkpt>
      <trkpt lat="42.25472" lon="8.95777">
        <ele>1734.36</ele>
        <time>2015-06-23T09:46:17Z</time>
      </trkpt>
      <trkpt lat="42.25469" lon="8.95774">
        <ele>1734.36</ele>
        <time>2015-06-23T09:46:24Z</time>
      </trkpt>
      <trkpt lat="42.25467" lon="8.95769">
        <ele>1734.36</ele>
        <time>2015-06-23T09:46:29Z</time>
      </trkpt>
      <trkpt lat="42.25456" lon="8.95767">
        <ele>1734.36</ele>
        <time>2015-06-23T09:46:43Z</time>
      </trkpt>
      <trkpt lat="42.25442" lon="8.95768">
        <ele>1733.39</ele>
        <time>2015-06-23T09:46:56Z</time>
      </trkpt>
      <trkpt lat="42.25427" lon="8.95759">
        <ele>1731.95</ele>
        <time>2015-06-23T09:47:14Z</time>
      </trkpt>
      <trkpt lat="42.25425" lon="8.95755">
        <ele>1731.95</ele>
        <time>2015-06-23T09:47:19Z</time>
      </trkpt>
      <trkpt lat="42.25424" lon="8.95753">
        <ele>1731.95</ele>
        <time>2015-06-23T09:47:21Z</time>
      </trkpt>
      <trkpt lat="42.2543" lon="8.95736">
        <ele>1732.43</ele>
        <time>2015-06-23T09:47:37Z</time>
      </trkpt>
      <trkpt lat="42.2543" lon="8.95731">
        <ele>1732.91</ele>
        <time>2015-06-23T09:47:42Z</time>
      </trkpt>
      <trkpt lat="42.25426" lon="8.95714">
        <ele>1732.91</ele>
        <time>2015-06-23T09:47:56Z</time>
      </trkpt>
      <trkpt lat="42.25419" lon="8.95698">
        <ele>1733.39</ele>
        <time>2015-06-23T09:48:12Z</time>
      </trkpt>
      <trkpt lat="42.25412" lon="8.95682">
        <ele>1735.32</ele>
        <time>2015-06-23T09:48:28Z</time>
      </trkpt>
      <trkpt lat="42.25401" lon="8.9567">
        <ele>1736.28</ele>
        <time>2015-06-23T09:48:44Z</time>
      </trkpt>
      <trkpt lat="42.25392" lon="8.95657">
        <ele>1737.24</ele>
        <time>2015-06-23T09:48:59Z</time>
      </trkpt>
      <trkpt lat="42.25385" lon="8.95645">
        <ele>1738.2</ele>
        <time>2015-06-23T09:49:14Z</time>
      </trkpt>
      <trkpt lat="42.25377" lon="8.9563">
        <ele>1737.72</ele>
        <time>2015-06-23T09:49:29Z</time>
      </trkpt>
      <trkpt lat="42.25371" lon="8.95614">
        <ele>1737.24</ele>
        <time>2015-06-23T09:49:46Z</time>
      </trkpt>
      <trkpt lat="42.25369" lon="8.95606">
        <ele>1739.16</ele>
        <time>2015-06-23T09:49:52Z</time>
      </trkpt>
      <trkpt lat="42.25367" lon="8.956">
        <ele>1738.68</ele>
        <time>2015-06-23T09:49:58Z</time>
      </trkpt>
      <trkpt lat="42.25364" lon="8.95575">
        <ele>1739.64</ele>
        <time>2015-06-23T09:50:16Z</time>
      </trkpt>
      <trkpt lat="42.2536" lon="8.95555">
        <ele>1740.12</ele>
        <time>2015-06-23T09:50:31Z</time>
      </trkpt>
      <trkpt lat="42.25359" lon="8.95533">
        <ele>1740.12</ele>
        <time>2015-06-23T09:50:47Z</time>
      </trkpt>
      <trkpt lat="42.25358" lon="8.95521">
        <ele>1740.12</ele>
        <time>2015-06-23T09:50:57Z</time>
      </trkpt>
      <trkpt lat="42.25352" lon="8.95501">
        <ele>1739.64</ele>
        <time>2015-06-23T09:51:14Z</time>
      </trkpt>
      <trkpt lat="42.25347" lon="8.95487">
        <ele>1740.12</ele>
        <time>2015-06-23T09:51:27Z</time>
      </trkpt>
      <trkpt lat="42.2534" lon="8.95467">
        <ele>1739.16</ele>
        <time>2015-06-23T09:51:43Z</time>
      </trkpt>
      <trkpt lat="42.25338" lon="8.95457">
        <ele>1738.68</ele>
        <time>2015-06-23T09:51:51Z</time>
      </trkpt>
      <trkpt lat="42.25337" lon="8.95454">
        <ele>1738.68</ele>
        <time>2015-06-23T09:51:53Z</time>
      </trkpt>
      <trkpt lat="42.25333" lon="8.95426">
        <ele>1738.68</ele>
        <time>2015-06-23T09:52:13Z</time>
      </trkpt>
      <trkpt lat="42.25327" lon="8.95405">
        <ele>1738.2</ele>
        <time>2015-06-23T09:52:30Z</time>
      </trkpt>
      <trkpt lat="42.25321" lon="8.95386">
        <ele>1738.2</ele>
        <time>2015-06-23T09:52:46Z</time>
      </trkpt>
      <trkpt lat="42.25319" lon="8.95374">
        <ele>1737.24</ele>
        <time>2015-06-23T09:52:54Z</time>
      </trkpt>
      <trkpt lat="42.25319" lon="8.95368">
        <ele>1739.16</ele>
        <time>2015-06-23T09:52:59Z</time>
      </trkpt>
      <trkpt lat="42.25318" lon="8.95348">
        <ele>1739.64</ele>
        <time>2015-06-23T09:53:14Z</time>
      </trkpt>
      <trkpt lat="42.25313" lon="8.95335">
        <ele>1740.6</ele>
        <time>2015-06-23T09:53:27Z</time>
      </trkpt>
      <trkpt lat="42.25314" lon="8.9532">
        <ele>1742.05</ele>
        <time>2015-06-23T09:53:40Z</time>
      </trkpt>
      <trkpt lat="42.25313" lon="8.95316">
        <ele>1742.53</ele>
        <time>2015-06-23T09:53:44Z</time>
      </trkpt>
      <trkpt lat="42.25303" lon="8.95294">
        <ele>1742.05</ele>
        <time>2015-06-23T09:54:02Z</time>
      </trkpt>
      <trkpt lat="42.25297" lon="8.9528">
        <ele>1742.05</ele>
        <time>2015-06-23T09:54:16Z</time>
      </trkpt>
      <trkpt lat="42.25289" lon="8.95256">
        <ele>1742.05</ele>
        <time>2015-06-23T09:54:33Z</time>
      </trkpt>
      <trkpt lat="42.25286" lon="8.95236">
        <ele>1743.01</ele>
        <time>2015-06-23T09:54:47Z</time>
      </trkpt>
      <trkpt lat="42.25283" lon="8.95212">
        <ele>1743.01</ele>
        <time>2015-06-23T09:55:02Z</time>
      </trkpt>
      <trkpt lat="42.25278" lon="8.9519">
        <ele>1743.01</ele>
        <time>2015-06-23T09:55:17Z</time>
      </trkpt>
      <trkpt lat="42.25271" lon="8.95165">
        <ele>1742.53</ele>
        <time>2015-06-23T09:55:34Z</time>
      </trkpt>
      <trkpt lat="42.25271" lon="8.95147">
        <ele>1742.53</ele>
        <time>2015-06-23T09:55:50Z</time>
      </trkpt>
      <trkpt lat="42.25271" lon="8.95141">
        <ele>1743.01</ele>
        <time>2015-06-23T09:55:54Z</time>
      </trkpt>
      <trkpt lat="42.25275" lon="8.95122">
        <ele>1743.49</ele>
        <time>2015-06-23T09:56:07Z</time>
      </trkpt>
      <trkpt lat="42.25274" lon="8.951">
        <ele>1743.49</ele>
        <time>2015-06-23T09:56:22Z</time>
      </trkpt>
      <trkpt lat="42.25275" lon="8.95074">
        <ele>1743.49</ele>
        <time>2015-06-23T09:56:39Z</time>
      </trkpt>
      <trkpt lat="42.25277" lon="8.95051">
        <ele>1743.97</ele>
        <time>2015-06-23T09:56:54Z</time>
      </trkpt>
      <trkpt lat="42.25279" lon="8.95025">
        <ele>1743.49</ele>
        <time>2015-06-23T09:57:11Z</time>
      </trkpt>
      <trkpt lat="42.25284" lon="8.95013">
        <ele>1743.49</ele>
        <time>2015-06-23T09:57:20Z</time>
      </trkpt>
      <trkpt lat="42.25283" lon="8.95001">
        <ele>1743.49</ele>
        <time>2015-06-23T09:57:29Z</time>
      </trkpt>
      <trkpt lat="42.25277" lon="8.94983">
        <ele>1743.49</ele>
        <time>2015-06-23T09:57:43Z</time>
      </trkpt>
      <trkpt lat="42.25268" lon="8.94964">
        <ele>1744.45</ele>
        <time>2015-06-23T09:57:59Z</time>
      </trkpt>
      <trkpt lat="42.25258" lon="8.94943">
        <ele>1744.93</ele>
        <time>2015-06-23T09:58:14Z</time>
      </trkpt>
      <trkpt lat="42.25249" lon="8.94919">
        <ele>1744.45</ele>
        <time>2015-06-23T09:58:30Z</time>
      </trkpt>
      <trkpt lat="42.25247" lon="8.9491">
        <ele>1744.93</ele>
        <time>2015-06-23T09:58:45Z</time>
      </trkpt>
      <trkpt lat="42.25239" lon="8.94901">
        <ele>1744.93</ele>
        <time>2015-06-23T09:58:59Z</time>
      </trkpt>
      <trkpt lat="42.2522" lon="8.94881">
        <ele>1744.45</ele>
        <time>2015-06-23T09:59:18Z</time>
      </trkpt>
      <trkpt lat="42.25209" lon="8.94875">
        <ele>1745.41</ele>
        <time>2015-06-23T09:59:31Z</time>
      </trkpt>
      <trkpt lat="42.25207" lon="8.94876">
        <ele>1744.93</ele>
        <time>2015-06-23T09:59:34Z</time>
      </trkpt>
      <trkpt lat="42.25202" lon="8.94868">
        <ele>1745.41</ele>
        <time>2015-06-23T09:59:40Z</time>
      </trkpt>
      <trkpt lat="42.25197" lon="8.94859">
        <ele>1744.93</ele>
        <time>2015-06-23T09:59:48Z</time>
      </trkpt>
      <trkpt lat="42.25191" lon="8.94857">
        <ele>1744.45</ele>
        <time>2015-06-23T09:59:53Z</time>
      </trkpt>
      <trkpt lat="42.25171" lon="8.94841">
        <ele>1744.45</ele>
        <time>2015-06-23T10:00:12Z</time>
      </trkpt>
      <trkpt lat="42.25156" lon="8.94832">
        <ele>1743.97</ele>
        <time>2015-06-23T10:00:26Z</time>
      </trkpt>
      <trkpt lat="42.25141" lon="8.94825">
        <ele>1743.49</ele>
        <time>2015-06-23T10:00:41Z</time>
      </trkpt>
      <trkpt lat="42.25139" lon="8.94824">
        <ele>1743.01</ele>
        <time>2015-06-23T10:00:58Z</time>
      </trkpt>
      <trkpt lat="42.25139" lon="8.94823">
        <ele>1743.01</ele>
        <time>2015-06-23T10:00:59Z</time>
      </trkpt>
      <trkpt lat="42.25135" lon="8.94822">
        <ele>1743.49</ele>
        <time>2015-06-23T10:01:03Z</time>
      </trkpt>
      <trkpt lat="42.25123" lon="8.94819">
        <ele>1743.01</ele>
        <time>2015-06-23T10:01:16Z</time>
      </trkpt>
      <trkpt lat="42.25121" lon="8.94817">
        <ele>1743.01</ele>
        <time>2015-06-23T10:01:18Z</time>
      </trkpt>
      <trkpt lat="42.25105" lon="8.94808">
        <ele>1743.01</ele>
        <time>2015-06-23T10:01:34Z</time>
      </trkpt>
      <trkpt lat="42.25097" lon="8.94804">
        <ele>1743.49</ele>
        <time>2015-06-23T10:01:41Z</time>
      </trkpt>
      <trkpt lat="42.25096" lon="8.94797">
        <ele>1743.49</ele>
        <time>2015-06-23T10:01:46Z</time>
      </trkpt>
      <trkpt lat="42.25093" lon="8.9479">
        <ele>1743.49</ele>
        <time>2015-06-23T10:01:59Z</time>
      </trkpt>
      <trkpt lat="42.25091" lon="8.94787">
        <ele>1743.97</ele>
        <time>2015-06-23T10:02:24Z</time>
      </trkpt>
      <trkpt lat="42.2509" lon="8.94785">
        <ele>1744.45</ele>
        <time>2015-06-23T10:02:43Z</time>
      </trkpt>
      <trkpt lat="42.25088" lon="8.94785">
        <ele>1744.93</ele>
        <time>2015-06-23T10:03:06Z</time>
      </trkpt>
      <trkpt lat="42.25081" lon="8.9477">
        <ele>1744.45</ele>
        <time>2015-06-23T10:03:18Z</time>
      </trkpt>
      <trkpt lat="42.25079" lon="8.94767">
        <ele>1744.45</ele>
        <time>2015-06-23T10:03:21Z</time>
      </trkpt>
      <trkpt lat="42.25078" lon="8.94741">
        <ele>1744.93</ele>
        <time>2015-06-23T10:03:39Z</time>
      </trkpt>
      <trkpt lat="42.25078" lon="8.9474">
        <ele>1744.93</ele>
        <time>2015-06-23T10:03:40Z</time>
      </trkpt>
      <trkpt lat="42.25071" lon="8.94736">
        <ele>1744.93</ele>
        <time>2015-06-23T10:03:47Z</time>
      </trkpt>
      <trkpt lat="42.25065" lon="8.94721">
        <ele>1745.89</ele>
        <time>2015-06-23T10:04:03Z</time>
      </trkpt>
      <trkpt lat="42.25071" lon="8.9472">
        <ele>1745.41</ele>
        <time>2015-06-23T10:04:17Z</time>
      </trkpt>
      <trkpt lat="42.25071" lon="8.94722">
        <ele>1744.93</ele>
        <time>2015-06-23T10:04:39Z</time>
      </trkpt>
      <trkpt lat="42.2507" lon="8.94723">
        <ele>1744.93</ele>
        <time>2015-06-23T10:04:56Z</time>
      </trkpt>
      <trkpt lat="42.25063" lon="8.94724">
        <ele>1745.41</ele>
        <time>2015-06-23T10:05:08Z</time>
      </trkpt>
      <trkpt lat="42.25062" lon="8.94715">
        <ele>1745.41</ele>
        <time>2015-06-23T10:05:16Z</time>
      </trkpt>
      <trkpt lat="42.25066" lon="8.94694">
        <ele>1745.89</ele>
        <time>2015-06-23T10:05:30Z</time>
      </trkpt>
      <trkpt lat="42.25068" lon="8.94688">
        <ele>1746.85</ele>
        <time>2015-06-23T10:05:34Z</time>
      </trkpt>
      <trkpt lat="42.2507" lon="8.94661">
        <ele>1747.81</ele>
        <time>2015-06-23T10:05:51Z</time>
      </trkpt>
      <trkpt lat="42.25071" lon="8.94635">
        <ele>1747.81</ele>
        <time>2015-06-23T10:06:07Z</time>
      </trkpt>
      <trkpt lat="42.2508" lon="8.94611">
        <ele>1748.29</ele>
        <time>2015-06-23T10:06:23Z</time>
      </trkpt>
      <trkpt lat="42.25093" lon="8.94597">
        <ele>1749.26</ele>
        <time>2015-06-23T10:06:37Z</time>
      </trkpt>
      <trkpt lat="42.25098" lon="8.9458">
        <ele>1748.78</ele>
        <time>2015-06-23T10:06:49Z</time>
      </trkpt>
      <trkpt lat="42.25107" lon="8.94559">
        <ele>1748.29</ele>
        <time>2015-06-23T10:07:04Z</time>
      </trkpt>
      <trkpt lat="42.25116" lon="8.94535">
        <ele>1747.33</ele>
        <time>2015-06-23T10:07:20Z</time>
      </trkpt>
      <trkpt lat="42.2512" lon="8.9451">
        <ele>1748.29</ele>
        <time>2015-06-23T10:07:37Z</time>
      </trkpt>
      <trkpt lat="42.25128" lon="8.94486">
        <ele>1748.29</ele>
        <time>2015-06-23T10:07:54Z</time>
      </trkpt>
      <trkpt lat="42.25135" lon="8.9447">
        <ele>1748.29</ele>
        <time>2015-06-23T10:08:07Z</time>
      </trkpt>
      <trkpt lat="42.25143" lon="8.94455">
        <ele>1748.78</ele>
        <time>2015-06-23T10:08:21Z</time>
      </trkpt>
      <trkpt lat="42.25148" lon="8.94439">
        <ele>1749.74</ele>
        <time>2015-06-23T10:08:35Z</time>
      </trkpt>
      <trkpt lat="42.2515" lon="8.94425">
        <ele>1750.22</ele>
        <time>2015-06-23T10:08:48Z</time>
      </trkpt>
      <trkpt lat="42.25151" lon="8.94424">
        <ele>1750.22</ele>
        <time>2015-06-23T10:08:49Z</time>
      </trkpt>
      <trkpt lat="42.25163" lon="8.94411">
        <ele>1749.74</ele>
        <time>2015-06-23T10:09:04Z</time>
      </trkpt>
      <trkpt lat="42.25167" lon="8.94407">
        <ele>1749.74</ele>
        <time>2015-06-23T10:09:09Z</time>
      </trkpt>
      <trkpt lat="42.25168" lon="8.94404">
        <ele>1750.22</ele>
        <time>2015-06-23T10:09:11Z</time>
      </trkpt>
      <trkpt lat="42.25178" lon="8.94388">
        <ele>1749.74</ele>
        <time>2015-06-23T10:09:28Z</time>
      </trkpt>
      <trkpt lat="42.25185" lon="8.94376">
        <ele>1749.26</ele>
        <time>2015-06-23T10:09:43Z</time>
      </trkpt>
      <trkpt lat="42.25195" lon="8.94365">
        <ele>1748.78</ele>
        <time>2015-06-23T10:09:59Z</time>
      </trkpt>
      <trkpt lat="42.25202" lon="8.9435">
        <ele>1749.26</ele>
        <time>2015-06-23T10:10:15Z</time>
      </trkpt>
      <trkpt lat="42.25211" lon="8.94337">
        <ele>1749.74</ele>
        <time>2015-06-23T10:10:28Z</time>
      </trkpt>
      <trkpt lat="42.25224" lon="8.94322">
        <ele>1749.74</ele>
        <time>2015-06-23T10:10:43Z</time>
      </trkpt>
      <trkpt lat="42.25232" lon="8.94304">
        <ele>1749.74</ele>
        <time>2015-06-23T10:10:57Z</time>
      </trkpt>
      <trkpt lat="42.25245" lon="8.94286">
        <ele>1749.26</ele>
        <time>2015-06-23T10:11:14Z</time>
      </trkpt>
      <trkpt lat="42.25257" lon="8.94273">
        <ele>1749.74</ele>
        <time>2015-06-23T10:11:28Z</time>
      </trkpt>
      <trkpt lat="42.25258" lon="8.94273">
        <ele>1750.22</ele>
        <time>2015-06-23T10:11:29Z</time>
      </trkpt>
      <trkpt lat="42.2526" lon="8.94268">
        <ele>1750.22</ele>
        <time>2015-06-23T10:11:33Z</time>
      </trkpt>
      <trkpt lat="42.25271" lon="8.94247">
        <ele>1750.7</ele>
        <time>2015-06-23T10:11:49Z</time>
      </trkpt>
      <trkpt lat="42.25279" lon="8.94243">
        <ele>1750.22</ele>
        <time>2015-06-23T10:11:57Z</time>
      </trkpt>
      <trkpt lat="42.25283" lon="8.94232">
        <ele>1749.26</ele>
        <time>2015-06-23T10:12:05Z</time>
      </trkpt>
      <trkpt lat="42.2529" lon="8.94222">
        <ele>1749.26</ele>
        <time>2015-06-23T10:12:14Z</time>
      </trkpt>
      <trkpt lat="42.2529" lon="8.94219">
        <ele>1749.74</ele>
        <time>2015-06-23T10:12:17Z</time>
      </trkpt>
      <trkpt lat="42.25297" lon="8.94208">
        <ele>1748.78</ele>
        <time>2015-06-23T10:12:26Z</time>
      </trkpt>
      <trkpt lat="42.25308" lon="8.94188">
        <ele>1748.29</ele>
        <time>2015-06-23T10:12:42Z</time>
      </trkpt>
      <trkpt lat="42.25318" lon="8.94165">
        <ele>1748.29</ele>
        <time>2015-06-23T10:13:00Z</time>
      </trkpt>
      <trkpt lat="42.25329" lon="8.94147">
        <ele>1748.78</ele>
        <time>2015-06-23T10:13:15Z</time>
      </trkpt>
      <trkpt lat="42.25336" lon="8.94137">
        <ele>1749.74</ele>
        <time>2015-06-23T10:13:25Z</time>
      </trkpt>
      <trkpt lat="42.25337" lon="8.94134">
        <ele>1749.74</ele>
        <time>2015-06-23T10:13:27Z</time>
      </trkpt>
      <trkpt lat="42.25345" lon="8.94114">
        <ele>1750.22</ele>
        <time>2015-06-23T10:13:43Z</time>
      </trkpt>
      <trkpt lat="42.25352" lon="8.94096">
        <ele>1749.74</ele>
        <time>2015-06-23T10:13:56Z</time>
      </trkpt>
      <trkpt lat="42.25354" lon="8.9409">
        <ele>1750.22</ele>
        <time>2015-06-23T10:14:01Z</time>
      </trkpt>
      <trkpt lat="42.25359" lon="8.94069">
        <ele>1749.74</ele>
        <time>2015-06-23T10:14:16Z</time>
      </trkpt>
      <trkpt lat="42.2536" lon="8.94047">
        <ele>1749.26</ele>
        <time>2015-06-23T10:14:30Z</time>
      </trkpt>
      <trkpt lat="42.25366" lon="8.94023">
        <ele>1749.74</ele>
        <time>2015-06-23T10:14:47Z</time>
      </trkpt>
      <trkpt lat="42.25371" lon="8.94013">
        <ele>1749.74</ele>
        <time>2015-06-23T10:14:55Z</time>
      </trkpt>
      <trkpt lat="42.25365" lon="8.93999">
        <ele>1751.18</ele>
        <time>2015-06-23T10:15:10Z</time>
      </trkpt>
      <trkpt lat="42.25362" lon="8.93993">
        <ele>1752.62</ele>
        <time>2015-06-23T10:15:26Z</time>
      </trkpt>
      <trkpt lat="42.25364" lon="8.93994">
        <ele>1753.1</ele>
        <time>2015-06-23T10:15:49Z</time>
      </trkpt>
      <trkpt lat="42.25367" lon="8.93989">
        <ele>1752.14</ele>
        <time>2015-06-23T10:15:57Z</time>
      </trkpt>
      <trkpt lat="42.25371" lon="8.93987">
        <ele>1751.66</ele>
        <time>2015-06-23T10:16:02Z</time>
      </trkpt>
      <trkpt lat="42.25378" lon="8.9398">
        <ele>1750.7</ele>
        <time>2015-06-23T10:16:12Z</time>
      </trkpt>
      <trkpt lat="42.25381" lon="8.93977">
        <ele>1749.74</ele>
        <time>2015-06-23T10:16:16Z</time>
      </trkpt>
      <trkpt lat="42.25387" lon="8.93951">
        <ele>1750.7</ele>
        <time>2015-06-23T10:16:34Z</time>
      </trkpt>
      <trkpt lat="42.25389" lon="8.9394">
        <ele>1751.18</ele>
        <time>2015-06-23T10:16:42Z</time>
      </trkpt>
      <trkpt lat="42.25396" lon="8.93921">
        <ele>1750.22</ele>
        <time>2015-06-23T10:16:59Z</time>
      </trkpt>
      <trkpt lat="42.254" lon="8.93904">
        <ele>1750.22</ele>
        <time>2015-06-23T10:17:14Z</time>
      </trkpt>
      <trkpt lat="42.25401" lon="8.93892">
        <ele>1750.22</ele>
        <time>2015-06-23T10:17:30Z</time>
      </trkpt>
      <trkpt lat="42.25403" lon="8.93895">
        <ele>1749.26</ele>
        <time>2015-06-23T10:17:44Z</time>
      </trkpt>
      <trkpt lat="42.25403" lon="8.93896">
        <ele>1749.74</ele>
        <time>2015-06-23T10:18:13Z</time>
      </trkpt>
      <trkpt lat="42.25402" lon="8.93896">
        <ele>1749.74</ele>
        <time>2015-06-23T10:18:42Z</time>
      </trkpt>
      <trkpt lat="42.25402" lon="8.93894">
        <ele>1749.74</ele>
        <time>2015-06-23T10:19:11Z</time>
      </trkpt>
      <trkpt lat="42.25401" lon="8.93893">
        <ele>1749.74</ele>
        <time>2015-06-23T10:19:42Z</time>
      </trkpt>
      <trkpt lat="42.254" lon="8.93891">
        <ele>1748.78</ele>
        <time>2015-06-23T10:20:12Z</time>
      </trkpt>
      <trkpt lat="42.25401" lon="8.93892">
        <ele>1749.26</ele>
        <time>2015-06-23T10:20:41Z</time>
      </trkpt>
      <trkpt lat="42.254" lon="8.93892">
        <ele>1749.74</ele>
        <time>2015-06-23T10:21:08Z</time>
      </trkpt>
      <trkpt lat="42.254" lon="8.93893">
        <ele>1750.22</ele>
        <time>2015-06-23T10:21:37Z</time>
      </trkpt>
      <trkpt lat="42.254" lon="8.93891">
        <ele>1749.74</ele>
        <time>2015-06-23T10:22:14Z</time>
      </trkpt>
      <trkpt lat="42.25401" lon="8.93894">
        <ele>1749.74</ele>
        <time>2015-06-23T10:22:46Z</time>
      </trkpt>
      <trkpt lat="42.25401" lon="8.93895">
        <ele>1750.7</ele>
        <time>2015-06-23T10:23:21Z</time>
      </trkpt>
      <trkpt lat="42.25402" lon="8.93893">
        <ele>1750.22</ele>
        <time>2015-06-23T10:23:57Z</time>
      </trkpt>
      <trkpt lat="42.254" lon="8.93893">
        <ele>1750.22</ele>
        <time>2015-06-23T10:24:33Z</time>
      </trkpt>
      <trkpt lat="42.25401" lon="8.93892">
        <ele>1750.7</ele>
        <time>2015-06-23T10:25:08Z</time>
      </trkpt>
      <trkpt lat="42.25402" lon="8.93894">
        <ele>1750.7</ele>
        <time>2015-06-23T10:25:41Z</time>
      </trkpt>
      <trkpt lat="42.25402" lon="8.93894">
        <ele>1750.22</ele>
        <time>2015-06-23T10:26:17Z</time>
      </trkpt>
      <trkpt lat="42.25402" lon="8.93895">
        <ele>1750.22</ele>
        <time>2015-06-23T10:26:49Z</time>
      </trkpt>
      <trkpt lat="42.25403" lon="8.93895">
        <ele>1750.22</ele>
        <time>2015-06-23T10:27:20Z</time>
      </trkpt>
      <trkpt lat="42.25402" lon="8.93895">
        <ele>1749.26</ele>
        <time>2015-06-23T10:27:47Z</time>
      </trkpt>
      <trkpt lat="42.25403" lon="8.93892">
        <ele>1750.22</ele>
        <time>2015-06-23T10:27:54Z</time>
      </trkpt>
      <trkpt lat="42.25405" lon="8.93882">
        <ele>1750.7</ele>
        <time>2015-06-23T10:28:02Z</time>
      </trkpt>
      <trkpt lat="42.25416" lon="8.93861">
        <ele>1750.22</ele>
        <time>2015-06-23T10:28:18Z</time>
      </trkpt>
      <trkpt lat="42.25421" lon="8.9385">
        <ele>1750.7</ele>
        <time>2015-06-23T10:28:27Z</time>
      </trkpt>
      <trkpt lat="42.25433" lon="8.9384">
        <ele>1751.18</ele>
        <time>2015-06-23T10:28:41Z</time>
      </trkpt>
      <trkpt lat="42.25434" lon="8.93837">
        <ele>1751.66</ele>
        <time>2015-06-23T10:28:44Z</time>
      </trkpt>
      <trkpt lat="42.25436" lon="8.93822">
        <ele>1752.62</ele>
        <time>2015-06-23T10:29:00Z</time>
      </trkpt>
      <trkpt lat="42.25444" lon="8.93817">
        <ele>1753.1</ele>
        <time>2015-06-23T10:29:16Z</time>
      </trkpt>
      <trkpt lat="42.25447" lon="8.93807">
        <ele>1754.54</ele>
        <time>2015-06-23T10:29:30Z</time>
      </trkpt>
      <trkpt lat="42.25453" lon="8.93798">
        <ele>1755.99</ele>
        <time>2015-06-23T10:29:45Z</time>
      </trkpt>
      <trkpt lat="42.25453" lon="8.93789">
        <ele>1756.95</ele>
        <time>2015-06-23T10:29:57Z</time>
      </trkpt>
      <trkpt lat="42.25454" lon="8.93778">
        <ele>1758.39</ele>
        <time>2015-06-23T10:30:11Z</time>
      </trkpt>
      <trkpt lat="42.25461" lon="8.9377">
        <ele>1758.39</ele>
        <time>2015-06-23T10:30:24Z</time>
      </trkpt>
      <trkpt lat="42.25469" lon="8.9377">
        <ele>1758.87</ele>
        <time>2015-06-23T10:30:33Z</time>
      </trkpt>
      <trkpt lat="42.25482" lon="8.93765">
        <ele>1759.35</ele>
        <time>2015-06-23T10:30:48Z</time>
      </trkpt>
      <trkpt lat="42.25494" lon="8.93759">
        <ele>1760.31</ele>
        <time>2015-06-23T10:31:02Z</time>
      </trkpt>
      <trkpt lat="42.25503" lon="8.93757">
        <ele>1760.79</ele>
        <time>2015-06-23T10:31:14Z</time>
      </trkpt>
      <trkpt lat="42.2551" lon="8.93759">
        <ele>1760.79</ele>
        <time>2015-06-23T10:31:22Z</time>
      </trkpt>
      <trkpt lat="42.25516" lon="8.93758">
        <ele>1761.27</ele>
        <time>2015-06-23T10:31:28Z</time>
      </trkpt>
      <trkpt lat="42.25518" lon="8.93758">
        <ele>1761.27</ele>
        <time>2015-06-23T10:31:31Z</time>
      </trkpt>
      <trkpt lat="42.2553" lon="8.93752">
        <ele>1762.23</ele>
        <time>2015-06-23T10:31:46Z</time>
      </trkpt>
      <trkpt lat="42.25541" lon="8.93753">
        <ele>1763.68</ele>
        <time>2015-06-23T10:32:03Z</time>
      </trkpt>
      <trkpt lat="42.25551" lon="8.9375">
        <ele>1765.12</ele>
        <time>2015-06-23T10:32:18Z</time>
      </trkpt>
      <trkpt lat="42.25562" lon="8.93745">
        <ele>1767.52</ele>
        <time>2015-06-23T10:32:35Z</time>
      </trkpt>
      <trkpt lat="42.25567" lon="8.93735">
        <ele>1768.48</ele>
        <time>2015-06-23T10:32:50Z</time>
      </trkpt>
      <trkpt lat="42.25575" lon="8.93722">
        <ele>1770.89</ele>
        <time>2015-06-23T10:33:08Z</time>
      </trkpt>
      <trkpt lat="42.25575" lon="8.93705">
        <ele>1772.81</ele>
        <time>2015-06-23T10:33:25Z</time>
      </trkpt>
      <trkpt lat="42.25572" lon="8.93692">
        <ele>1773.77</ele>
        <time>2015-06-23T10:33:39Z</time>
      </trkpt>
      <trkpt lat="42.25568" lon="8.93678">
        <ele>1776.17</ele>
        <time>2015-06-23T10:33:54Z</time>
      </trkpt>
      <trkpt lat="42.25566" lon="8.93662">
        <ele>1778.1</ele>
        <time>2015-06-23T10:34:11Z</time>
      </trkpt>
      <trkpt lat="42.25565" lon="8.93649">
        <ele>1779.06</ele>
        <time>2015-06-23T10:34:24Z</time>
      </trkpt>
      <trkpt lat="42.25566" lon="8.93632">
        <ele>1781.46</ele>
        <time>2015-06-23T10:34:41Z</time>
      </trkpt>
      <trkpt lat="42.25564" lon="8.93622">
        <ele>1783.38</ele>
        <time>2015-06-23T10:34:55Z</time>
      </trkpt>
      <trkpt lat="42.25558" lon="8.93616">
        <ele>1785.31</ele>
        <time>2015-06-23T10:35:09Z</time>
      </trkpt>
      <trkpt lat="42.25552" lon="8.936">
        <ele>1787.71</ele>
        <time>2015-06-23T10:35:25Z</time>
      </trkpt>
      <trkpt lat="42.25552" lon="8.93598">
        <ele>1787.71</ele>
        <time>2015-06-23T10:35:27Z</time>
      </trkpt>
      <trkpt lat="42.25552" lon="8.93582">
        <ele>1789.63</ele>
        <time>2015-06-23T10:35:43Z</time>
      </trkpt>
      <trkpt lat="42.25556" lon="8.93567">
        <ele>1791.07</ele>
        <time>2015-06-23T10:35:59Z</time>
      </trkpt>
      <trkpt lat="42.2556" lon="8.93553">
        <ele>1792.03</ele>
        <time>2015-06-23T10:36:14Z</time>
      </trkpt>
      <trkpt lat="42.25563" lon="8.93539">
        <ele>1793.96</ele>
        <time>2015-06-23T10:36:29Z</time>
      </trkpt>
      <trkpt lat="42.25563" lon="8.93527">
        <ele>1795.4</ele>
        <time>2015-06-23T10:36:45Z</time>
      </trkpt>
      <trkpt lat="42.25554" lon="8.93528">
        <ele>1797.32</ele>
        <time>2015-06-23T10:37:01Z</time>
      </trkpt>
      <trkpt lat="42.25548" lon="8.93524">
        <ele>1800.21</ele>
        <time>2015-06-23T10:37:15Z</time>
      </trkpt>
      <trkpt lat="42.25555" lon="8.93509">
        <ele>1801.17</ele>
        <time>2015-06-23T10:37:31Z</time>
      </trkpt>
      <trkpt lat="42.25549" lon="8.93506">
        <ele>1803.09</ele>
        <time>2015-06-23T10:37:47Z</time>
      </trkpt>
      <trkpt lat="42.25541" lon="8.93507">
        <ele>1804.53</ele>
        <time>2015-06-23T10:38:01Z</time>
      </trkpt>
      <trkpt lat="42.25538" lon="8.93505">
        <ele>1805.01</ele>
        <time>2015-06-23T10:38:05Z</time>
      </trkpt>
      <trkpt lat="42.25538" lon="8.93491">
        <ele>1805.97</ele>
        <time>2015-06-23T10:38:18Z</time>
      </trkpt>
      <trkpt lat="42.25542" lon="8.93478">
        <ele>1807.9</ele>
        <time>2015-06-23T10:38:34Z</time>
      </trkpt>
      <trkpt lat="42.25548" lon="8.93468">
        <ele>1809.34</ele>
        <time>2015-06-23T10:38:48Z</time>
      </trkpt>
      <trkpt lat="42.25552" lon="8.93453">
        <ele>1811.74</ele>
        <time>2015-06-23T10:39:05Z</time>
      </trkpt>
      <trkpt lat="42.25557" lon="8.93446">
        <ele>1812.7</ele>
        <time>2015-06-23T10:39:15Z</time>
      </trkpt>
      <trkpt lat="42.2556" lon="8.93433">
        <ele>1814.15</ele>
        <time>2015-06-23T10:39:31Z</time>
      </trkpt>
      <trkpt lat="42.2556" lon="8.93423">
        <ele>1816.07</ele>
        <time>2015-06-23T10:39:47Z</time>
      </trkpt>
      <trkpt lat="42.25551" lon="8.93426">
        <ele>1817.99</ele>
        <time>2015-06-23T10:40:00Z</time>
      </trkpt>
      <trkpt lat="42.2554" lon="8.93423">
        <ele>1819.91</ele>
        <time>2015-06-23T10:40:18Z</time>
      </trkpt>
      <trkpt lat="42.25548" lon="8.93413">
        <ele>1821.84</ele>
        <time>2015-06-23T10:40:33Z</time>
      </trkpt>
      <trkpt lat="42.25554" lon="8.93402">
        <ele>1822.8</ele>
        <time>2015-06-23T10:40:47Z</time>
      </trkpt>
      <trkpt lat="42.25552" lon="8.93387">
        <ele>1823.76</ele>
        <time>2015-06-23T10:41:02Z</time>
      </trkpt>
      <trkpt lat="42.25546" lon="8.93379">
        <ele>1825.68</ele>
        <time>2015-06-23T10:41:15Z</time>
      </trkpt>
      <trkpt lat="42.25542" lon="8.93368">
        <ele>1827.6</ele>
        <time>2015-06-23T10:41:29Z</time>
      </trkpt>
      <trkpt lat="42.25539" lon="8.93356">
        <ele>1830.01</ele>
        <time>2015-06-23T10:41:47Z</time>
      </trkpt>
      <trkpt lat="42.25537" lon="8.93344">
        <ele>1831.93</ele>
        <time>2015-06-23T10:42:02Z</time>
      </trkpt>
      <trkpt lat="42.25535" lon="8.93331">
        <ele>1834.33</ele>
        <time>2015-06-23T10:42:19Z</time>
      </trkpt>
      <trkpt lat="42.25531" lon="8.93323">
        <ele>1836.74</ele>
        <time>2015-06-23T10:42:34Z</time>
      </trkpt>
      <trkpt lat="42.25523" lon="8.93317">
        <ele>1837.7</ele>
        <time>2015-06-23T10:42:46Z</time>
      </trkpt>
      <trkpt lat="42.25522" lon="8.93309">
        <ele>1839.62</ele>
        <time>2015-06-23T10:42:52Z</time>
      </trkpt>
      <trkpt lat="42.25515" lon="8.9329">
        <ele>1840.58</ele>
        <time>2015-06-23T10:43:08Z</time>
      </trkpt>
      <trkpt lat="42.25515" lon="8.93275">
        <ele>1841.54</ele>
        <time>2015-06-23T10:43:22Z</time>
      </trkpt>
      <trkpt lat="42.2551" lon="8.93261">
        <ele>1841.54</ele>
        <time>2015-06-23T10:43:35Z</time>
      </trkpt>
      <trkpt lat="42.2551" lon="8.9326">
        <ele>1842.5</ele>
        <time>2015-06-23T10:43:37Z</time>
      </trkpt>
      <trkpt lat="42.25513" lon="8.93263">
        <ele>1842.98</ele>
        <time>2015-06-23T10:44:07Z</time>
      </trkpt>
      <trkpt lat="42.25514" lon="8.93263">
        <ele>1842.5</ele>
        <time>2015-06-23T10:44:35Z</time>
      </trkpt>
      <trkpt lat="42.25513" lon="8.93264">
        <ele>1843.47</ele>
        <time>2015-06-23T10:45:07Z</time>
      </trkpt>
      <trkpt lat="42.25513" lon="8.93264">
        <ele>1842.5</ele>
        <time>2015-06-23T10:45:41Z</time>
      </trkpt>
      <trkpt lat="42.25514" lon="8.93264">
        <ele>1842.02</ele>
        <time>2015-06-23T10:46:06Z</time>
      </trkpt>
      <trkpt lat="42.25514" lon="8.93264">
        <ele>1842.98</ele>
        <time>2015-06-23T10:46:38Z</time>
      </trkpt>
      <trkpt lat="42.25516" lon="8.93263">
        <ele>1842.5</ele>
        <time>2015-06-23T10:47:08Z</time>
      </trkpt>
      <trkpt lat="42.25515" lon="8.93264">
        <ele>1842.02</ele>
        <time>2015-06-23T10:47:39Z</time>
      </trkpt>
      <trkpt lat="42.25514" lon="8.93265">
        <ele>1842.98</ele>
        <time>2015-06-23T10:48:15Z</time>
      </trkpt>
      <trkpt lat="42.25509" lon="8.93256">
        <ele>1841.54</ele>
        <time>2015-06-23T10:48:32Z</time>
      </trkpt>
      <trkpt lat="42.25508" lon="8.93253">
        <ele>1842.5</ele>
        <time>2015-06-23T10:48:48Z</time>
      </trkpt>
      <trkpt lat="42.25506" lon="8.93243">
        <ele>1842.02</ele>
        <time>2015-06-23T10:49:16Z</time>
      </trkpt>
      <trkpt lat="42.25498" lon="8.93226">
        <ele>1842.5</ele>
        <time>2015-06-23T10:49:32Z</time>
      </trkpt>
      <trkpt lat="42.25495" lon="8.93222">
        <ele>1843.47</ele>
        <time>2015-06-23T10:49:38Z</time>
      </trkpt>
      <trkpt lat="42.25489" lon="8.93202">
        <ele>1842.98</ele>
        <time>2015-06-23T10:49:53Z</time>
      </trkpt>
      <trkpt lat="42.25485" lon="8.93179">
        <ele>1843.47</ele>
        <time>2015-06-23T10:50:09Z</time>
      </trkpt>
      <trkpt lat="42.25478" lon="8.93162">
        <ele>1844.43</ele>
        <time>2015-06-23T10:50:23Z</time>
      </trkpt>
      <trkpt lat="42.25476" lon="8.93143">
        <ele>1845.39</ele>
        <time>2015-06-23T10:50:39Z</time>
      </trkpt>
      <trkpt lat="42.25477" lon="8.93132">
        <ele>1846.35</ele>
        <time>2015-06-23T10:50:46Z</time>
      </trkpt>
      <trkpt lat="42.25481" lon="8.93112">
        <ele>1845.87</ele>
        <time>2015-06-23T10:51:01Z</time>
      </trkpt>
      <trkpt lat="42.25483" lon="8.93091">
        <ele>1845.87</ele>
        <time>2015-06-23T10:51:16Z</time>
      </trkpt>
      <trkpt lat="42.25484" lon="8.9307">
        <ele>1846.83</ele>
        <time>2015-06-23T10:51:31Z</time>
      </trkpt>
      <trkpt lat="42.25484" lon="8.9305">
        <ele>1847.79</ele>
        <time>2015-06-23T10:51:45Z</time>
      </trkpt>
      <trkpt lat="42.25484" lon="8.93029">
        <ele>1848.27</ele>
        <time>2015-06-23T10:52:00Z</time>
      </trkpt>
      <trkpt lat="42.25483" lon="8.93006">
        <ele>1848.27</ele>
        <time>2015-06-23T10:52:15Z</time>
      </trkpt>
      <trkpt lat="42.25481" lon="8.92987">
        <ele>1847.31</ele>
        <time>2015-06-23T10:52:30Z</time>
      </trkpt>
      <trkpt lat="42.25481" lon="8.92964">
        <ele>1848.75</ele>
        <time>2015-06-23T10:52:47Z</time>
      </trkpt>
      <trkpt lat="42.2548" lon="8.92951">
        <ele>1849.23</ele>
        <time>2015-06-23T10:52:58Z</time>
      </trkpt>
      <trkpt lat="42.25476" lon="8.92931">
        <ele>1850.19</ele>
        <time>2015-06-23T10:53:13Z</time>
      </trkpt>
      <trkpt lat="42.25475" lon="8.92923">
        <ele>1850.19</ele>
        <time>2015-06-23T10:53:19Z</time>
      </trkpt>
      <trkpt lat="42.25474" lon="8.92904">
        <ele>1851.64</ele>
        <time>2015-06-23T10:53:34Z</time>
      </trkpt>
      <trkpt lat="42.25471" lon="8.9289">
        <ele>1852.12</ele>
        <time>2015-06-23T10:53:45Z</time>
      </trkpt>
      <trkpt lat="42.25472" lon="8.9288">
        <ele>1852.6</ele>
        <time>2015-06-23T10:53:52Z</time>
      </trkpt>
      <trkpt lat="42.25468" lon="8.9286">
        <ele>1853.56</ele>
        <time>2015-06-23T10:54:09Z</time>
      </trkpt>
      <trkpt lat="42.25466" lon="8.92851">
        <ele>1855.48</ele>
        <time>2015-06-23T10:54:18Z</time>
      </trkpt>
      <trkpt lat="42.25463" lon="8.92834">
        <ele>1855.96</ele>
        <time>2015-06-23T10:54:34Z</time>
      </trkpt>
      <trkpt lat="42.2546" lon="8.9282">
        <ele>1858.85</ele>
        <time>2015-06-23T10:54:49Z</time>
      </trkpt>
      <trkpt lat="42.25457" lon="8.92813">
        <ele>1859.81</ele>
        <time>2015-06-23T10:54:57Z</time>
      </trkpt>
      <trkpt lat="42.25451" lon="8.92798">
        <ele>1863.17</ele>
        <time>2015-06-23T10:55:14Z</time>
      </trkpt>
      <trkpt lat="42.25451" lon="8.92797">
        <ele>1863.17</ele>
        <time>2015-06-23T10:55:15Z</time>
      </trkpt>
      <trkpt lat="42.25447" lon="8.92786">
        <ele>1863.17</ele>
        <time>2015-06-23T10:55:29Z</time>
      </trkpt>
      <trkpt lat="42.25445" lon="8.92773">
        <ele>1865.58</ele>
        <time>2015-06-23T10:55:46Z</time>
      </trkpt>
      <trkpt lat="42.25442" lon="8.92759">
        <ele>1867.98</ele>
        <time>2015-06-23T10:56:04Z</time>
      </trkpt>
      <trkpt lat="42.25436" lon="8.92748">
        <ele>1869.42</ele>
        <time>2015-06-23T10:56:20Z</time>
      </trkpt>
      <trkpt lat="42.25436" lon="8.92739">
        <ele>1871.82</ele>
        <time>2015-06-23T10:56:30Z</time>
      </trkpt>
      <trkpt lat="42.25435" lon="8.92729">
        <ele>1871.82</ele>
        <time>2015-06-23T10:56:43Z</time>
      </trkpt>
      <trkpt lat="42.25434" lon="8.92725">
        <ele>1873.27</ele>
        <time>2015-06-23T10:56:47Z</time>
      </trkpt>
      <trkpt lat="42.2543" lon="8.92715">
        <ele>1874.23</ele>
        <time>2015-06-23T10:56:58Z</time>
      </trkpt>
      <trkpt lat="42.25427" lon="8.92698">
        <ele>1876.63</ele>
        <time>2015-06-23T10:57:13Z</time>
      </trkpt>
      <trkpt lat="42.25429" lon="8.92682">
        <ele>1877.11</ele>
        <time>2015-06-23T10:57:29Z</time>
      </trkpt>
      <trkpt lat="42.2543" lon="8.92669">
        <ele>1878.55</ele>
        <time>2015-06-23T10:57:41Z</time>
      </trkpt>
      <trkpt lat="42.25432" lon="8.92653">
        <ele>1879.51</ele>
        <time>2015-06-23T10:57:56Z</time>
      </trkpt>
      <trkpt lat="42.25433" lon="8.92649">
        <ele>1880.96</ele>
        <time>2015-06-23T10:58:11Z</time>
      </trkpt>
      <trkpt lat="42.25432" lon="8.9264">
        <ele>1880.48</ele>
        <time>2015-06-23T10:58:20Z</time>
      </trkpt>
      <trkpt lat="42.2543" lon="8.92629">
        <ele>1879.03</ele>
        <time>2015-06-23T10:58:35Z</time>
      </trkpt>
      <trkpt lat="42.25425" lon="8.92617">
        <ele>1882.4</ele>
        <time>2015-06-23T10:58:50Z</time>
      </trkpt>
      <trkpt lat="42.25425" lon="8.92616">
        <ele>1880.96</ele>
        <time>2015-06-23T10:59:03Z</time>
      </trkpt>
      <trkpt lat="42.25425" lon="8.92616">
        <ele>1881.92</ele>
        <time>2015-06-23T10:59:07Z</time>
      </trkpt>
      <trkpt lat="42.25425" lon="8.92613">
        <ele>1880.48</ele>
        <time>2015-06-23T10:59:10Z</time>
      </trkpt>
      <trkpt lat="42.25425" lon="8.92608">
        <ele>1879.51</ele>
        <time>2015-06-23T10:59:14Z</time>
      </trkpt>
      <trkpt lat="42.25422" lon="8.92596">
        <ele>1880</ele>
        <time>2015-06-23T10:59:23Z</time>
      </trkpt>
      <trkpt lat="42.25421" lon="8.92575">
        <ele>1876.15</ele>
        <time>2015-06-23T10:59:37Z</time>
      </trkpt>
      <trkpt lat="42.2542" lon="8.92568">
        <ele>1875.19</ele>
        <time>2015-06-23T10:59:41Z</time>
      </trkpt>
      <trkpt lat="42.25419" lon="8.92561">
        <ele>1874.23</ele>
        <time>2015-06-23T10:59:46Z</time>
      </trkpt>
      <trkpt lat="42.25416" lon="8.92537">
        <ele>1872.79</ele>
        <time>2015-06-23T11:00:03Z</time>
      </trkpt>
      <trkpt lat="42.25416" lon="8.92536">
        <ele>1872.79</ele>
        <time>2015-06-23T11:00:04Z</time>
      </trkpt>
      <trkpt lat="42.25416" lon="8.92531">
        <ele>1870.38</ele>
        <time>2015-06-23T11:00:08Z</time>
      </trkpt>
      <trkpt lat="42.25414" lon="8.92522">
        <ele>1872.3</ele>
        <time>2015-06-23T11:00:26Z</time>
      </trkpt>
      <trkpt lat="42.25415" lon="8.9252">
        <ele>1870.86</ele>
        <time>2015-06-23T11:00:38Z</time>
      </trkpt>
      <trkpt lat="42.25415" lon="8.92515">
        <ele>1870.86</ele>
        <time>2015-06-23T11:00:43Z</time>
      </trkpt>
      <trkpt lat="42.25419" lon="8.925">
        <ele>1867.02</ele>
        <time>2015-06-23T11:00:56Z</time>
      </trkpt>
      <trkpt lat="42.2542" lon="8.92498">
        <ele>1866.06</ele>
        <time>2015-06-23T11:00:58Z</time>
      </trkpt>
      <trkpt lat="42.2542" lon="8.92493">
        <ele>1867.02</ele>
        <time>2015-06-23T11:01:07Z</time>
      </trkpt>
      <trkpt lat="42.25421" lon="8.9249">
        <ele>1865.58</ele>
        <time>2015-06-23T11:01:27Z</time>
      </trkpt>
      <trkpt lat="42.25424" lon="8.92483">
        <ele>1865.09</ele>
        <time>2015-06-23T11:01:32Z</time>
      </trkpt>
      <trkpt lat="42.25425" lon="8.92481">
        <ele>1866.06</ele>
        <time>2015-06-23T11:01:34Z</time>
      </trkpt>
      <trkpt lat="42.25426" lon="8.9247">
        <ele>1862.69</ele>
        <time>2015-06-23T11:01:42Z</time>
      </trkpt>
      <trkpt lat="42.25428" lon="8.92458">
        <ele>1862.21</ele>
        <time>2015-06-23T11:01:50Z</time>
      </trkpt>
      <trkpt lat="42.25428" lon="8.92455">
        <ele>1862.69</ele>
        <time>2015-06-23T11:01:52Z</time>
      </trkpt>
      <trkpt lat="42.25434" lon="8.92429">
        <ele>1860.77</ele>
        <time>2015-06-23T11:02:10Z</time>
      </trkpt>
      <trkpt lat="42.25434" lon="8.92414">
        <ele>1859.33</ele>
        <time>2015-06-23T11:02:21Z</time>
      </trkpt>
      <trkpt lat="42.25436" lon="8.92395">
        <ele>1856.44</ele>
        <time>2015-06-23T11:02:36Z</time>
      </trkpt>
      <trkpt lat="42.25442" lon="8.9237">
        <ele>1855</ele>
        <time>2015-06-23T11:02:54Z</time>
      </trkpt>
      <trkpt lat="42.25446" lon="8.92361">
        <ele>1854.52</ele>
        <time>2015-06-23T11:03:02Z</time>
      </trkpt>
      <trkpt lat="42.25448" lon="8.92349">
        <ele>1854.04</ele>
        <time>2015-06-23T11:03:11Z</time>
      </trkpt>
      <trkpt lat="42.25448" lon="8.92346">
        <ele>1853.56</ele>
        <time>2015-06-23T11:03:14Z</time>
      </trkpt>
      <trkpt lat="42.2545" lon="8.9234">
        <ele>1851.64</ele>
        <time>2015-06-23T11:03:20Z</time>
      </trkpt>
      <trkpt lat="42.25451" lon="8.92338">
        <ele>1852.12</ele>
        <time>2015-06-23T11:03:22Z</time>
      </trkpt>
      <trkpt lat="42.25451" lon="8.92325">
        <ele>1851.16</ele>
        <time>2015-06-23T11:03:31Z</time>
      </trkpt>
      <trkpt lat="42.25453" lon="8.9232">
        <ele>1852.12</ele>
        <time>2015-06-23T11:03:35Z</time>
      </trkpt>
      <trkpt lat="42.25453" lon="8.92316">
        <ele>1850.19</ele>
        <time>2015-06-23T11:03:38Z</time>
      </trkpt>
      <trkpt lat="42.25454" lon="8.92314">
        <ele>1851.16</ele>
        <time>2015-06-23T11:03:40Z</time>
      </trkpt>
      <trkpt lat="42.25456" lon="8.92303">
        <ele>1849.71</ele>
        <time>2015-06-23T11:03:50Z</time>
      </trkpt>
      <trkpt lat="42.25458" lon="8.923">
        <ele>1848.75</ele>
        <time>2015-06-23T11:03:53Z</time>
      </trkpt>
      <trkpt lat="42.25461" lon="8.92286">
        <ele>1849.23</ele>
        <time>2015-06-23T11:04:07Z</time>
      </trkpt>
      <trkpt lat="42.25463" lon="8.92279">
        <ele>1848.27</ele>
        <time>2015-06-23T11:04:17Z</time>
      </trkpt>
      <trkpt lat="42.25464" lon="8.92276">
        <ele>1847.31</ele>
        <time>2015-06-23T11:04:19Z</time>
      </trkpt>
      <trkpt lat="42.25469" lon="8.92263">
        <ele>1846.83</ele>
        <time>2015-06-23T11:04:30Z</time>
      </trkpt>
      <trkpt lat="42.25472" lon="8.92252">
        <ele>1846.35</ele>
        <time>2015-06-23T11:04:39Z</time>
      </trkpt>
      <trkpt lat="42.25474" lon="8.92243">
        <ele>1845.39</ele>
        <time>2015-06-23T11:04:47Z</time>
      </trkpt>
      <trkpt lat="42.2548" lon="8.92225">
        <ele>1844.91</ele>
        <time>2015-06-23T11:05:01Z</time>
      </trkpt>
      <trkpt lat="42.25483" lon="8.92209">
        <ele>1843.95</ele>
        <time>2015-06-23T11:05:15Z</time>
      </trkpt>
      <trkpt lat="42.25486" lon="8.92193">
        <ele>1843.47</ele>
        <time>2015-06-23T11:05:29Z</time>
      </trkpt>
      <trkpt lat="42.2549" lon="8.92179">
        <ele>1842.98</ele>
        <time>2015-06-23T11:05:42Z</time>
      </trkpt>
      <trkpt lat="42.25498" lon="8.92165">
        <ele>1842.5</ele>
        <time>2015-06-23T11:05:58Z</time>
      </trkpt>
      <trkpt lat="42.25503" lon="8.92154">
        <ele>1841.06</ele>
        <time>2015-06-23T11:06:12Z</time>
      </trkpt>
      <trkpt lat="42.25506" lon="8.92148">
        <ele>1839.14</ele>
        <time>2015-06-23T11:06:20Z</time>
      </trkpt>
      <trkpt lat="42.25513" lon="8.92134">
        <ele>1839.14</ele>
        <time>2015-06-23T11:06:34Z</time>
      </trkpt>
      <trkpt lat="42.2552" lon="8.92123">
        <ele>1840.58</ele>
        <time>2015-06-23T11:06:48Z</time>
      </trkpt>
      <trkpt lat="42.25525" lon="8.92113">
        <ele>1840.58</ele>
        <time>2015-06-23T11:07:02Z</time>
      </trkpt>
      <trkpt lat="42.25526" lon="8.92109">
        <ele>1839.62</ele>
        <time>2015-06-23T11:07:06Z</time>
      </trkpt>
      <trkpt lat="42.25532" lon="8.92092">
        <ele>1837.22</ele>
        <time>2015-06-23T11:07:21Z</time>
      </trkpt>
      <trkpt lat="42.25535" lon="8.92078">
        <ele>1836.74</ele>
        <time>2015-06-23T11:07:36Z</time>
      </trkpt>
      <trkpt lat="42.25536" lon="8.92074">
        <ele>1835.77</ele>
        <time>2015-06-23T11:07:40Z</time>
      </trkpt>
      <trkpt lat="42.25535" lon="8.92066">
        <ele>1835.29</ele>
        <time>2015-06-23T11:07:47Z</time>
      </trkpt>
      <trkpt lat="42.25536" lon="8.92062">
        <ele>1834.33</ele>
        <time>2015-06-23T11:07:50Z</time>
      </trkpt>
      <trkpt lat="42.25537" lon="8.92045">
        <ele>1835.29</ele>
        <time>2015-06-23T11:08:03Z</time>
      </trkpt>
      <trkpt lat="42.2554" lon="8.92035">
        <ele>1835.77</ele>
        <time>2015-06-23T11:08:12Z</time>
      </trkpt>
      <trkpt lat="42.25545" lon="8.9202">
        <ele>1835.77</ele>
        <time>2015-06-23T11:08:26Z</time>
      </trkpt>
      <trkpt lat="42.25548" lon="8.92007">
        <ele>1836.74</ele>
        <time>2015-06-23T11:08:40Z</time>
      </trkpt>
      <trkpt lat="42.25549" lon="8.92001">
        <ele>1835.29</ele>
        <time>2015-06-23T11:08:46Z</time>
      </trkpt>
      <trkpt lat="42.25553" lon="8.91989">
        <ele>1838.18</ele>
        <time>2015-06-23T11:09:01Z</time>
      </trkpt>
      <trkpt lat="42.25552" lon="8.91987">
        <ele>1838.66</ele>
        <time>2015-06-23T11:09:05Z</time>
      </trkpt>
      <trkpt lat="42.2555" lon="8.91977">
        <ele>1837.7</ele>
        <time>2015-06-23T11:09:15Z</time>
      </trkpt>
      <trkpt lat="42.25552" lon="8.91964">
        <ele>1837.22</ele>
        <time>2015-06-23T11:09:28Z</time>
      </trkpt>
      <trkpt lat="42.25554" lon="8.91945">
        <ele>1837.7</ele>
        <time>2015-06-23T11:09:42Z</time>
      </trkpt>
      <trkpt lat="42.25555" lon="8.91938">
        <ele>1835.77</ele>
        <time>2015-06-23T11:09:50Z</time>
      </trkpt>
      <trkpt lat="42.25556" lon="8.91933">
        <ele>1835.77</ele>
        <time>2015-06-23T11:09:55Z</time>
      </trkpt>
      <trkpt lat="42.25558" lon="8.91924">
        <ele>1833.37</ele>
        <time>2015-06-23T11:10:02Z</time>
      </trkpt>
      <trkpt lat="42.25556" lon="8.91913">
        <ele>1832.89</ele>
        <time>2015-06-23T11:10:11Z</time>
      </trkpt>
      <trkpt lat="42.25555" lon="8.9191">
        <ele>1832.41</ele>
        <time>2015-06-23T11:10:15Z</time>
      </trkpt>
      <trkpt lat="42.25557" lon="8.91892">
        <ele>1833.37</ele>
        <time>2015-06-23T11:10:29Z</time>
      </trkpt>
      <trkpt lat="42.25557" lon="8.91873">
        <ele>1832.41</ele>
        <time>2015-06-23T11:10:44Z</time>
      </trkpt>
      <trkpt lat="42.25559" lon="8.91856">
        <ele>1832.41</ele>
        <time>2015-06-23T11:10:59Z</time>
      </trkpt>
      <trkpt lat="42.25556" lon="8.91843">
        <ele>1830.97</ele>
        <time>2015-06-23T11:11:12Z</time>
      </trkpt>
      <trkpt lat="42.25557" lon="8.91827">
        <ele>1829.53</ele>
        <time>2015-06-23T11:11:26Z</time>
      </trkpt>
      <trkpt lat="42.25557" lon="8.91826">
        <ele>1829.53</ele>
        <time>2015-06-23T11:11:27Z</time>
      </trkpt>
      <trkpt lat="42.25565" lon="8.91812">
        <ele>1830.01</ele>
        <time>2015-06-23T11:11:42Z</time>
      </trkpt>
      <trkpt lat="42.25567" lon="8.91802">
        <ele>1827.12</ele>
        <time>2015-06-23T11:11:57Z</time>
      </trkpt>
      <trkpt lat="42.25567" lon="8.91802">
        <ele>1827.12</ele>
        <time>2015-06-23T11:11:58Z</time>
      </trkpt>
      <trkpt lat="42.25562" lon="8.91796">
        <ele>1824.72</ele>
        <time>2015-06-23T11:12:10Z</time>
      </trkpt>
      <trkpt lat="42.25561" lon="8.91792">
        <ele>1823.76</ele>
        <time>2015-06-23T11:12:16Z</time>
      </trkpt>
      <trkpt lat="42.2556" lon="8.91789">
        <ele>1822.8</ele>
        <time>2015-06-23T11:12:18Z</time>
      </trkpt>
      <trkpt lat="42.2556" lon="8.91783">
        <ele>1821.35</ele>
        <time>2015-06-23T11:12:25Z</time>
      </trkpt>
      <trkpt lat="42.25561" lon="8.91777">
        <ele>1820.87</ele>
        <time>2015-06-23T11:12:32Z</time>
      </trkpt>
      <trkpt lat="42.25561" lon="8.91776">
        <ele>1819.91</ele>
        <time>2015-06-23T11:12:34Z</time>
      </trkpt>
      <trkpt lat="42.25559" lon="8.91776">
        <ele>1818.95</ele>
        <time>2015-06-23T11:12:39Z</time>
      </trkpt>
      <trkpt lat="42.25559" lon="8.91774">
        <ele>1817.99</ele>
        <time>2015-06-23T11:12:41Z</time>
      </trkpt>
      <trkpt lat="42.25559" lon="8.91772">
        <ele>1818.47</ele>
        <time>2015-06-23T11:12:43Z</time>
      </trkpt>
      <trkpt lat="42.2556" lon="8.91761">
        <ele>1815.11</ele>
        <time>2015-06-23T11:12:54Z</time>
      </trkpt>
      <trkpt lat="42.25556" lon="8.91751">
        <ele>1814.63</ele>
        <time>2015-06-23T11:13:06Z</time>
      </trkpt>
      <trkpt lat="42.2555" lon="8.91749">
        <ele>1811.74</ele>
        <time>2015-06-23T11:13:18Z</time>
      </trkpt>
      <trkpt lat="42.25549" lon="8.91746">
        <ele>1810.3</ele>
        <time>2015-06-23T11:13:23Z</time>
      </trkpt>
      <trkpt lat="42.25545" lon="8.91741">
        <ele>1807.9</ele>
        <time>2015-06-23T11:13:38Z</time>
      </trkpt>
      <trkpt lat="42.25541" lon="8.91735">
        <ele>1805.97</ele>
        <time>2015-06-23T11:13:51Z</time>
      </trkpt>
      <trkpt lat="42.25539" lon="8.91743">
        <ele>1805.01</ele>
        <time>2015-06-23T11:13:58Z</time>
      </trkpt>
      <trkpt lat="42.25533" lon="8.91742">
        <ele>1802.61</ele>
        <time>2015-06-23T11:14:10Z</time>
      </trkpt>
      <trkpt lat="42.25532" lon="8.91722">
        <ele>1800.69</ele>
        <time>2015-06-23T11:14:26Z</time>
      </trkpt>
      <trkpt lat="42.25533" lon="8.91707">
        <ele>1798.76</ele>
        <time>2015-06-23T11:14:40Z</time>
      </trkpt>
      <trkpt lat="42.25533" lon="8.91703">
        <ele>1797.8</ele>
        <time>2015-06-23T11:14:43Z</time>
      </trkpt>
      <trkpt lat="42.25535" lon="8.91687">
        <ele>1798.28</ele>
        <time>2015-06-23T11:14:56Z</time>
      </trkpt>
      <trkpt lat="42.25532" lon="8.9167">
        <ele>1796.36</ele>
        <time>2015-06-23T11:15:11Z</time>
      </trkpt>
      <trkpt lat="42.25531" lon="8.91654">
        <ele>1796.36</ele>
        <time>2015-06-23T11:15:25Z</time>
      </trkpt>
      <trkpt lat="42.25528" lon="8.91638">
        <ele>1795.4</ele>
        <time>2015-06-23T11:15:40Z</time>
      </trkpt>
      <trkpt lat="42.25528" lon="8.91625">
        <ele>1797.32</ele>
        <time>2015-06-23T11:15:55Z</time>
      </trkpt>
      <trkpt lat="42.25532" lon="8.91626">
        <ele>1798.28</ele>
        <time>2015-06-23T11:16:08Z</time>
      </trkpt>
      <trkpt lat="42.25529" lon="8.91616">
        <ele>1801.17</ele>
        <time>2015-06-23T11:16:22Z</time>
      </trkpt>
      <trkpt lat="42.25527" lon="8.91608">
        <ele>1803.57</ele>
        <time>2015-06-23T11:16:36Z</time>
      </trkpt>
      <trkpt lat="42.25527" lon="8.91595">
        <ele>1805.01</ele>
        <time>2015-06-23T11:16:51Z</time>
      </trkpt>
      <trkpt lat="42.25525" lon="8.91586">
        <ele>1807.9</ele>
        <time>2015-06-23T11:17:07Z</time>
      </trkpt>
      <trkpt lat="42.25526" lon="8.9158">
        <ele>1809.34</ele>
        <time>2015-06-23T11:17:21Z</time>
      </trkpt>
      <trkpt lat="42.25535" lon="8.91588">
        <ele>1812.7</ele>
        <time>2015-06-23T11:17:34Z</time>
      </trkpt>
      <trkpt lat="42.25538" lon="8.91593">
        <ele>1814.15</ele>
        <time>2015-06-23T11:17:49Z</time>
      </trkpt>
      <trkpt lat="42.25535" lon="8.91581">
        <ele>1815.59</ele>
        <time>2015-06-23T11:18:04Z</time>
      </trkpt>
      <trkpt lat="42.2554" lon="8.91567">
        <ele>1814.63</ele>
        <time>2015-06-23T11:18:19Z</time>
      </trkpt>
      <trkpt lat="42.2554" lon="8.91555">
        <ele>1812.7</ele>
        <time>2015-06-23T11:18:29Z</time>
      </trkpt>
      <trkpt lat="42.25537" lon="8.91544">
        <ele>1812.22</ele>
        <time>2015-06-23T11:18:42Z</time>
      </trkpt>
      <trkpt lat="42.25536" lon="8.9154">
        <ele>1812.7</ele>
        <time>2015-06-23T11:18:46Z</time>
      </trkpt>
      <trkpt lat="42.25532" lon="8.91521">
        <ele>1811.26</ele>
        <time>2015-06-23T11:19:01Z</time>
      </trkpt>
      <trkpt lat="42.25532" lon="8.9152">
        <ele>1811.26</ele>
        <time>2015-06-23T11:19:02Z</time>
      </trkpt>
      <trkpt lat="42.2553" lon="8.91505">
        <ele>1808.86</ele>
        <time>2015-06-23T11:19:18Z</time>
      </trkpt>
      <trkpt lat="42.25529" lon="8.91497">
        <ele>1806.45</ele>
        <time>2015-06-23T11:19:29Z</time>
      </trkpt>
      <trkpt lat="42.2553" lon="8.9149">
        <ele>1805.01</ele>
        <time>2015-06-23T11:19:38Z</time>
      </trkpt>
      <trkpt lat="42.25528" lon="8.91488">
        <ele>1805.01</ele>
        <time>2015-06-23T11:19:41Z</time>
      </trkpt>
      <trkpt lat="42.25526" lon="8.91469">
        <ele>1803.09</ele>
        <time>2015-06-23T11:19:57Z</time>
      </trkpt>
      <trkpt lat="42.25524" lon="8.9146">
        <ele>1801.65</ele>
        <time>2015-06-23T11:20:06Z</time>
      </trkpt>
      <trkpt lat="42.25525" lon="8.91446">
        <ele>1800.21</ele>
        <time>2015-06-23T11:20:21Z</time>
      </trkpt>
      <trkpt lat="42.25521" lon="8.91432">
        <ele>1797.32</ele>
        <time>2015-06-23T11:20:36Z</time>
      </trkpt>
      <trkpt lat="42.25519" lon="8.91416">
        <ele>1795.88</ele>
        <time>2015-06-23T11:20:51Z</time>
      </trkpt>
      <trkpt lat="42.25517" lon="8.91408">
        <ele>1794.44</ele>
        <time>2015-06-23T11:20:59Z</time>
      </trkpt>
      <trkpt lat="42.25517" lon="8.91405">
        <ele>1794.44</ele>
        <time>2015-06-23T11:21:01Z</time>
      </trkpt>
      <trkpt lat="42.25514" lon="8.91388">
        <ele>1792.03</ele>
        <time>2015-06-23T11:21:17Z</time>
      </trkpt>
      <trkpt lat="42.25513" lon="8.9137">
        <ele>1790.11</ele>
        <time>2015-06-23T11:21:30Z</time>
      </trkpt>
      <trkpt lat="42.25512" lon="8.91349">
        <ele>1788.67</ele>
        <time>2015-06-23T11:21:45Z</time>
      </trkpt>
      <trkpt lat="42.25515" lon="8.91339">
        <ele>1788.19</ele>
        <time>2015-06-23T11:21:52Z</time>
      </trkpt>
      <trkpt lat="42.25515" lon="8.91332">
        <ele>1787.71</ele>
        <time>2015-06-23T11:21:57Z</time>
      </trkpt>
      <trkpt lat="42.25515" lon="8.91308">
        <ele>1786.75</ele>
        <time>2015-06-23T11:22:14Z</time>
      </trkpt>
      <trkpt lat="42.25517" lon="8.91287">
        <ele>1786.27</ele>
        <time>2015-06-23T11:22:30Z</time>
      </trkpt>
      <trkpt lat="42.25518" lon="8.91282">
        <ele>1786.27</ele>
        <time>2015-06-23T11:22:34Z</time>
      </trkpt>
      <trkpt lat="42.25521" lon="8.91264">
        <ele>1785.79</ele>
        <time>2015-06-23T11:22:48Z</time>
      </trkpt>
      <trkpt lat="42.25524" lon="8.91243">
        <ele>1785.31</ele>
        <time>2015-06-23T11:23:04Z</time>
      </trkpt>
      <trkpt lat="42.25529" lon="8.91223">
        <ele>1784.34</ele>
        <time>2015-06-23T11:23:19Z</time>
      </trkpt>
      <trkpt lat="42.25532" lon="8.91205">
        <ele>1783.38</ele>
        <time>2015-06-23T11:23:34Z</time>
      </trkpt>
      <trkpt lat="42.25535" lon="8.91189">
        <ele>1782.9</ele>
        <time>2015-06-23T11:23:47Z</time>
      </trkpt>
      <trkpt lat="42.25538" lon="8.9117">
        <ele>1782.9</ele>
        <time>2015-06-23T11:24:02Z</time>
      </trkpt>
      <trkpt lat="42.25541" lon="8.91156">
        <ele>1783.38</ele>
        <time>2015-06-23T11:24:15Z</time>
      </trkpt>
      <trkpt lat="42.25542" lon="8.91148">
        <ele>1781.46</ele>
        <time>2015-06-23T11:24:20Z</time>
      </trkpt>
      <trkpt lat="42.25544" lon="8.91138">
        <ele>1780.98</ele>
        <time>2015-06-23T11:24:30Z</time>
      </trkpt>
      <trkpt lat="42.25545" lon="8.91136">
        <ele>1780.98</ele>
        <time>2015-06-23T11:24:32Z</time>
      </trkpt>
      <trkpt lat="42.25545" lon="8.9113">
        <ele>1780.5</ele>
        <time>2015-06-23T11:24:37Z</time>
      </trkpt>
      <trkpt lat="42.25545" lon="8.9111">
        <ele>1779.54</ele>
        <time>2015-06-23T11:24:54Z</time>
      </trkpt>
      <trkpt lat="42.25545" lon="8.91108">
        <ele>1780.02</ele>
        <time>2015-06-23T11:25:10Z</time>
      </trkpt>
      <trkpt lat="42.25545" lon="8.91101">
        <ele>1779.06</ele>
        <time>2015-06-23T11:25:27Z</time>
      </trkpt>
      <trkpt lat="42.25545" lon="8.91084">
        <ele>1777.13</ele>
        <time>2015-06-23T11:25:41Z</time>
      </trkpt>
      <trkpt lat="42.25543" lon="8.91071">
        <ele>1776.65</ele>
        <time>2015-06-23T11:25:51Z</time>
      </trkpt>
      <trkpt lat="42.25537" lon="8.91052">
        <ele>1775.69</ele>
        <time>2015-06-23T11:26:06Z</time>
      </trkpt>
      <trkpt lat="42.25536" lon="8.91047">
        <ele>1775.69</ele>
        <time>2015-06-23T11:26:09Z</time>
      </trkpt>
      <trkpt lat="42.25529" lon="8.91029">
        <ele>1774.73</ele>
        <time>2015-06-23T11:26:24Z</time>
      </trkpt>
      <trkpt lat="42.2552" lon="8.91013">
        <ele>1772.33</ele>
        <time>2015-06-23T11:26:40Z</time>
      </trkpt>
      <trkpt lat="42.2551" lon="8.90998">
        <ele>1771.37</ele>
        <time>2015-06-23T11:26:53Z</time>
      </trkpt>
      <trkpt lat="42.25504" lon="8.90985">
        <ele>1773.29</ele>
        <time>2015-06-23T11:27:07Z</time>
      </trkpt>
      <trkpt lat="42.25504" lon="8.90985">
        <ele>1773.29</ele>
        <time>2015-06-23T11:27:08Z</time>
      </trkpt>
      <trkpt lat="42.25503" lon="8.90984">
        <ele>1773.77</ele>
        <time>2015-06-23T11:27:09Z</time>
      </trkpt>
      <trkpt lat="42.25503" lon="8.90972">
        <ele>1770.89</ele>
        <time>2015-06-23T11:27:17Z</time>
      </trkpt>
      <trkpt lat="42.25503" lon="8.90955">
        <ele>1768.96</ele>
        <time>2015-06-23T11:27:30Z</time>
      </trkpt>
      <trkpt lat="42.25502" lon="8.9094">
        <ele>1767.52</ele>
        <time>2015-06-23T11:27:44Z</time>
      </trkpt>
      <trkpt lat="42.25503" lon="8.90937">
        <ele>1766.56</ele>
        <time>2015-06-23T11:27:46Z</time>
      </trkpt>
      <trkpt lat="42.255" lon="8.90921">
        <ele>1767.04</ele>
        <time>2015-06-23T11:27:58Z</time>
      </trkpt>
      <trkpt lat="42.255" lon="8.90917">
        <ele>1766.56</ele>
        <time>2015-06-23T11:28:02Z</time>
      </trkpt>
      <trkpt lat="42.25501" lon="8.90903">
        <ele>1766.56</ele>
        <time>2015-06-23T11:28:13Z</time>
      </trkpt>
      <trkpt lat="42.25505" lon="8.90888">
        <ele>1764.64</ele>
        <time>2015-06-23T11:28:26Z</time>
      </trkpt>
      <trkpt lat="42.25509" lon="8.90873">
        <ele>1763.68</ele>
        <time>2015-06-23T11:28:40Z</time>
      </trkpt>
      <trkpt lat="42.25512" lon="8.90865">
        <ele>1761.75</ele>
        <time>2015-06-23T11:28:51Z</time>
      </trkpt>
      <trkpt lat="42.25516" lon="8.90849">
        <ele>1760.31</ele>
        <time>2015-06-23T11:29:06Z</time>
      </trkpt>
      <trkpt lat="42.25518" lon="8.90835">
        <ele>1758.87</ele>
        <time>2015-06-23T11:29:17Z</time>
      </trkpt>
      <trkpt lat="42.25521" lon="8.90823">
        <ele>1758.87</ele>
        <time>2015-06-23T11:29:31Z</time>
      </trkpt>
      <trkpt lat="42.25523" lon="8.90822">
        <ele>1757.91</ele>
        <time>2015-06-23T11:29:34Z</time>
      </trkpt>
      <trkpt lat="42.2553" lon="8.90811">
        <ele>1755.02</ele>
        <time>2015-06-23T11:29:48Z</time>
      </trkpt>
      <trkpt lat="42.25531" lon="8.9081">
        <ele>1754.06</ele>
        <time>2015-06-23T11:29:49Z</time>
      </trkpt>
      <trkpt lat="42.25537" lon="8.90802">
        <ele>1752.62</ele>
        <time>2015-06-23T11:30:01Z</time>
      </trkpt>
      <trkpt lat="42.25539" lon="8.90799">
        <ele>1751.18</ele>
        <time>2015-06-23T11:30:04Z</time>
      </trkpt>
      <trkpt lat="42.25538" lon="8.90789">
        <ele>1748.29</ele>
        <time>2015-06-23T11:30:11Z</time>
      </trkpt>
      <trkpt lat="42.25539" lon="8.90777">
        <ele>1747.33</ele>
        <time>2015-06-23T11:30:24Z</time>
      </trkpt>
      <trkpt lat="42.25541" lon="8.90763">
        <ele>1745.41</ele>
        <time>2015-06-23T11:30:39Z</time>
      </trkpt>
      <trkpt lat="42.2554" lon="8.90749">
        <ele>1742.53</ele>
        <time>2015-06-23T11:30:54Z</time>
      </trkpt>
      <trkpt lat="42.25541" lon="8.90746">
        <ele>1742.05</ele>
        <time>2015-06-23T11:30:57Z</time>
      </trkpt>
      <trkpt lat="42.25541" lon="8.90739">
        <ele>1740.6</ele>
        <time>2015-06-23T11:31:02Z</time>
      </trkpt>
      <trkpt lat="42.25538" lon="8.90732">
        <ele>1741.08</ele>
        <time>2015-06-23T11:31:07Z</time>
      </trkpt>
      <trkpt lat="42.25531" lon="8.90717">
        <ele>1739.64</ele>
        <time>2015-06-23T11:31:23Z</time>
      </trkpt>
      <trkpt lat="42.25524" lon="8.90702">
        <ele>1738.2</ele>
        <time>2015-06-23T11:31:37Z</time>
      </trkpt>
      <trkpt lat="42.25515" lon="8.90685">
        <ele>1736.76</ele>
        <time>2015-06-23T11:31:53Z</time>
      </trkpt>
      <trkpt lat="42.25509" lon="8.90671">
        <ele>1734.84</ele>
        <time>2015-06-23T11:32:08Z</time>
      </trkpt>
      <trkpt lat="42.2551" lon="8.9066">
        <ele>1731.95</ele>
        <time>2015-06-23T11:32:23Z</time>
      </trkpt>
      <trkpt lat="42.25519" lon="8.90667">
        <ele>1729.55</ele>
        <time>2015-06-23T11:32:37Z</time>
      </trkpt>
      <trkpt lat="42.25525" lon="8.9067">
        <ele>1729.07</ele>
        <time>2015-06-23T11:32:44Z</time>
      </trkpt>
      <trkpt lat="42.25533" lon="8.90676">
        <ele>1726.18</ele>
        <time>2015-06-23T11:32:58Z</time>
      </trkpt>
      <trkpt lat="42.25534" lon="8.90677">
        <ele>1726.18</ele>
        <time>2015-06-23T11:32:59Z</time>
      </trkpt>
      <trkpt lat="42.25536" lon="8.9068">
        <ele>1724.26</ele>
        <time>2015-06-23T11:33:02Z</time>
      </trkpt>
      <trkpt lat="42.25542" lon="8.90695">
        <ele>1725.7</ele>
        <time>2015-06-23T11:33:17Z</time>
      </trkpt>
      <trkpt lat="42.25554" lon="8.90702">
        <ele>1724.26</ele>
        <time>2015-06-23T11:33:33Z</time>
      </trkpt>
      <trkpt lat="42.25563" lon="8.90709">
        <ele>1722.34</ele>
        <time>2015-06-23T11:33:50Z</time>
      </trkpt>
      <trkpt lat="42.25567" lon="8.9071">
        <ele>1721.86</ele>
        <time>2015-06-23T11:33:55Z</time>
      </trkpt>
      <trkpt lat="42.25576" lon="8.90719">
        <ele>1721.38</ele>
        <time>2015-06-23T11:34:09Z</time>
      </trkpt>
      <trkpt lat="42.25587" lon="8.90733">
        <ele>1719.94</ele>
        <time>2015-06-23T11:34:25Z</time>
      </trkpt>
      <trkpt lat="42.25589" lon="8.90736">
        <ele>1718.49</ele>
        <time>2015-06-23T11:34:29Z</time>
      </trkpt>
      <trkpt lat="42.25593" lon="8.90736">
        <ele>1718.01</ele>
        <time>2015-06-23T11:34:45Z</time>
      </trkpt>
      <trkpt lat="42.25593" lon="8.90731">
        <ele>1716.09</ele>
        <time>2015-06-23T11:34:50Z</time>
      </trkpt>
      <trkpt lat="42.25592" lon="8.90726">
        <ele>1714.17</ele>
        <time>2015-06-23T11:34:54Z</time>
      </trkpt>
      <trkpt lat="42.2559" lon="8.90716">
        <ele>1713.21</ele>
        <time>2015-06-23T11:35:06Z</time>
      </trkpt>
      <trkpt lat="42.25589" lon="8.90712">
        <ele>1712.25</ele>
        <time>2015-06-23T11:35:10Z</time>
      </trkpt>
      <trkpt lat="42.25587" lon="8.9071">
        <ele>1711.76</ele>
        <time>2015-06-23T11:35:12Z</time>
      </trkpt>
      <trkpt lat="42.25582" lon="8.90694">
        <ele>1710.8</ele>
        <time>2015-06-23T11:35:27Z</time>
      </trkpt>
      <trkpt lat="42.25575" lon="8.90684">
        <ele>1708.88</ele>
        <time>2015-06-23T11:35:42Z</time>
      </trkpt>
      <trkpt lat="42.25572" lon="8.90681">
        <ele>1708.88</ele>
        <time>2015-06-23T11:35:46Z</time>
      </trkpt>
      <trkpt lat="42.25566" lon="8.90665">
        <ele>1706</ele>
        <time>2015-06-23T11:36:00Z</time>
      </trkpt>
      <trkpt lat="42.25564" lon="8.90652">
        <ele>1704.55</ele>
        <time>2015-06-23T11:36:15Z</time>
      </trkpt>
      <trkpt lat="42.25565" lon="8.90642">
        <ele>1703.11</ele>
        <time>2015-06-23T11:36:24Z</time>
      </trkpt>
      <trkpt lat="42.25566" lon="8.9064">
        <ele>1702.15</ele>
        <time>2015-06-23T11:36:28Z</time>
      </trkpt>
      <trkpt lat="42.25571" lon="8.90628">
        <ele>1699.27</ele>
        <time>2015-06-23T11:36:44Z</time>
      </trkpt>
      <trkpt lat="42.25576" lon="8.90628">
        <ele>1696.86</ele>
        <time>2015-06-23T11:36:55Z</time>
      </trkpt>
      <trkpt lat="42.25579" lon="8.90619">
        <ele>1693.5</ele>
        <time>2015-06-23T11:37:07Z</time>
      </trkpt>
      <trkpt lat="42.2558" lon="8.90619">
        <ele>1693.98</ele>
        <time>2015-06-23T11:37:08Z</time>
      </trkpt>
      <trkpt lat="42.2559" lon="8.9064">
        <ele>1692.06</ele>
        <time>2015-06-23T11:37:24Z</time>
      </trkpt>
      <trkpt lat="42.25599" lon="8.90655">
        <ele>1690.14</ele>
        <time>2015-06-23T11:37:39Z</time>
      </trkpt>
      <trkpt lat="42.25594" lon="8.90643">
        <ele>1689.17</ele>
        <time>2015-06-23T11:37:51Z</time>
      </trkpt>
      <trkpt lat="42.25595" lon="8.90626">
        <ele>1686.77</ele>
        <time>2015-06-23T11:38:06Z</time>
      </trkpt>
      <trkpt lat="42.25594" lon="8.90621">
        <ele>1686.77</ele>
        <time>2015-06-23T11:38:11Z</time>
      </trkpt>
      <trkpt lat="42.25594" lon="8.90611">
        <ele>1685.81</ele>
        <time>2015-06-23T11:38:17Z</time>
      </trkpt>
      <trkpt lat="42.25596" lon="8.90592">
        <ele>1684.85</ele>
        <time>2015-06-23T11:38:33Z</time>
      </trkpt>
      <trkpt lat="42.25599" lon="8.90577">
        <ele>1683.41</ele>
        <time>2015-06-23T11:38:48Z</time>
      </trkpt>
      <trkpt lat="42.25597" lon="8.90568">
        <ele>1682.93</ele>
        <time>2015-06-23T11:38:58Z</time>
      </trkpt>
      <trkpt lat="42.25599" lon="8.90554">
        <ele>1681</ele>
        <time>2015-06-23T11:39:12Z</time>
      </trkpt>
      <trkpt lat="42.25599" lon="8.9055">
        <ele>1680.52</ele>
        <time>2015-06-23T11:39:15Z</time>
      </trkpt>
      <trkpt lat="42.25596" lon="8.90532">
        <ele>1678.6</ele>
        <time>2015-06-23T11:39:31Z</time>
      </trkpt>
      <trkpt lat="42.25596" lon="8.90519">
        <ele>1677.16</ele>
        <time>2015-06-23T11:39:44Z</time>
      </trkpt>
      <trkpt lat="42.25595" lon="8.90513">
        <ele>1677.16</ele>
        <time>2015-06-23T11:39:48Z</time>
      </trkpt>
      <trkpt lat="42.256" lon="8.90499">
        <ele>1676.68</ele>
        <time>2015-06-23T11:40:02Z</time>
      </trkpt>
      <trkpt lat="42.25604" lon="8.90488">
        <ele>1675.23</ele>
        <time>2015-06-23T11:40:14Z</time>
      </trkpt>
      <trkpt lat="42.25608" lon="8.90476">
        <ele>1674.27</ele>
        <time>2015-06-23T11:40:25Z</time>
      </trkpt>
      <trkpt lat="42.25608" lon="8.90473">
        <ele>1673.79</ele>
        <time>2015-06-23T11:40:27Z</time>
      </trkpt>
      <trkpt lat="42.25612" lon="8.90454">
        <ele>1673.79</ele>
        <time>2015-06-23T11:40:42Z</time>
      </trkpt>
      <trkpt lat="42.25615" lon="8.90439">
        <ele>1673.31</ele>
        <time>2015-06-23T11:40:56Z</time>
      </trkpt>
      <trkpt lat="42.25616" lon="8.90434">
        <ele>1672.83</ele>
        <time>2015-06-23T11:41:00Z</time>
      </trkpt>
      <trkpt lat="42.25614" lon="8.90421">
        <ele>1673.79</ele>
        <time>2015-06-23T11:41:13Z</time>
      </trkpt>
      <trkpt lat="42.25616" lon="8.90414">
        <ele>1674.27</ele>
        <time>2015-06-23T11:41:18Z</time>
      </trkpt>
      <trkpt lat="42.25624" lon="8.90405">
        <ele>1674.27</ele>
        <time>2015-06-23T11:41:32Z</time>
      </trkpt>
      <trkpt lat="42.2563" lon="8.90394">
        <ele>1672.83</ele>
        <time>2015-06-23T11:41:45Z</time>
      </trkpt>
      <trkpt lat="42.25631" lon="8.90387">
        <ele>1670.43</ele>
        <time>2015-06-23T11:41:59Z</time>
      </trkpt>
      <trkpt lat="42.25637" lon="8.90381">
        <ele>1667.54</ele>
        <time>2015-06-23T11:42:14Z</time>
      </trkpt>
      <trkpt lat="42.25638" lon="8.90381">
        <ele>1667.54</ele>
        <time>2015-06-23T11:42:15Z</time>
      </trkpt>
      <trkpt lat="42.25645" lon="8.90369">
        <ele>1665.62</ele>
        <time>2015-06-23T11:42:29Z</time>
      </trkpt>
      <trkpt lat="42.25651" lon="8.9036">
        <ele>1664.66</ele>
        <time>2015-06-23T11:42:41Z</time>
      </trkpt>
      <trkpt lat="42.25653" lon="8.90358">
        <ele>1664.18</ele>
        <time>2015-06-23T11:42:44Z</time>
      </trkpt>
      <trkpt lat="42.25665" lon="8.90345">
        <ele>1662.26</ele>
        <time>2015-06-23T11:42:59Z</time>
      </trkpt>
      <trkpt lat="42.25677" lon="8.90336">
        <ele>1660.33</ele>
        <time>2015-06-23T11:43:15Z</time>
      </trkpt>
      <trkpt lat="42.2569" lon="8.90325">
        <ele>1658.41</ele>
        <time>2015-06-23T11:43:31Z</time>
      </trkpt>
      <trkpt lat="42.25706" lon="8.90314">
        <ele>1657.45</ele>
        <time>2015-06-23T11:43:47Z</time>
      </trkpt>
      <trkpt lat="42.25706" lon="8.90312">
        <ele>1657.93</ele>
        <time>2015-06-23T11:43:49Z</time>
      </trkpt>
      <trkpt lat="42.25716" lon="8.90291">
        <ele>1657.45</ele>
        <time>2015-06-23T11:44:08Z</time>
      </trkpt>
      <trkpt lat="42.25724" lon="8.90286">
        <ele>1655.53</ele>
        <time>2015-06-23T11:44:22Z</time>
      </trkpt>
      <trkpt lat="42.25734" lon="8.90277">
        <ele>1655.05</ele>
        <time>2015-06-23T11:44:35Z</time>
      </trkpt>
      <trkpt lat="42.25734" lon="8.90277">
        <ele>1655.05</ele>
        <time>2015-06-23T11:44:36Z</time>
      </trkpt>
      <trkpt lat="42.25743" lon="8.90268">
        <ele>1654.09</ele>
        <time>2015-06-23T11:44:48Z</time>
      </trkpt>
      <trkpt lat="42.25744" lon="8.90266">
        <ele>1654.09</ele>
        <time>2015-06-23T11:44:50Z</time>
      </trkpt>
      <trkpt lat="42.25755" lon="8.90253">
        <ele>1653.12</ele>
        <time>2015-06-23T11:45:07Z</time>
      </trkpt>
      <trkpt lat="42.25766" lon="8.90247">
        <ele>1652.64</ele>
        <time>2015-06-23T11:45:22Z</time>
      </trkpt>
      <trkpt lat="42.25781" lon="8.90238">
        <ele>1650.72</ele>
        <time>2015-06-23T11:45:40Z</time>
      </trkpt>
      <trkpt lat="42.25792" lon="8.90233">
        <ele>1649.76</ele>
        <time>2015-06-23T11:45:52Z</time>
      </trkpt>
      <trkpt lat="42.25804" lon="8.90225">
        <ele>1647.84</ele>
        <time>2015-06-23T11:46:06Z</time>
      </trkpt>
      <trkpt lat="42.25809" lon="8.90215">
        <ele>1647.36</ele>
        <time>2015-06-23T11:46:15Z</time>
      </trkpt>
      <trkpt lat="42.25811" lon="8.90195">
        <ele>1644.47</ele>
        <time>2015-06-23T11:46:31Z</time>
      </trkpt>
      <trkpt lat="42.25815" lon="8.90171">
        <ele>1642.55</ele>
        <time>2015-06-23T11:46:48Z</time>
      </trkpt>
      <trkpt lat="42.25819" lon="8.90155">
        <ele>1641.59</ele>
        <time>2015-06-23T11:47:01Z</time>
      </trkpt>
      <trkpt lat="42.25819" lon="8.90136">
        <ele>1640.63</ele>
        <time>2015-06-23T11:47:18Z</time>
      </trkpt>
      <trkpt lat="42.25825" lon="8.90118">
        <ele>1637.74</ele>
        <time>2015-06-23T11:47:34Z</time>
      </trkpt>
      <trkpt lat="42.25827" lon="8.90109">
        <ele>1637.26</ele>
        <time>2015-06-23T11:47:49Z</time>
      </trkpt>
      <trkpt lat="42.25832" lon="8.90094">
        <ele>1634.38</ele>
        <time>2015-06-23T11:48:03Z</time>
      </trkpt>
      <trkpt lat="42.25839" lon="8.90075">
        <ele>1632.46</ele>
        <time>2015-06-23T11:48:20Z</time>
      </trkpt>
      <trkpt lat="42.25847" lon="8.90055">
        <ele>1631.49</ele>
        <time>2015-06-23T11:48:36Z</time>
      </trkpt>
      <trkpt lat="42.25854" lon="8.9004">
        <ele>1629.09</ele>
        <time>2015-06-23T11:48:53Z</time>
      </trkpt>
      <trkpt lat="42.25857" lon="8.90035">
        <ele>1628.61</ele>
        <time>2015-06-23T11:48:59Z</time>
      </trkpt>
      <trkpt lat="42.2586" lon="8.90025">
        <ele>1626.69</ele>
        <time>2015-06-23T11:49:08Z</time>
      </trkpt>
      <trkpt lat="42.25866" lon="8.90007">
        <ele>1624.77</ele>
        <time>2015-06-23T11:49:24Z</time>
      </trkpt>
      <trkpt lat="42.25868" lon="8.90002">
        <ele>1624.28</ele>
        <time>2015-06-23T11:49:37Z</time>
      </trkpt>
      <trkpt lat="42.25873" lon="8.89989">
        <ele>1622.36</ele>
        <time>2015-06-23T11:49:51Z</time>
      </trkpt>
      <trkpt lat="42.25878" lon="8.89974">
        <ele>1619.96</ele>
        <time>2015-06-23T11:50:08Z</time>
      </trkpt>
      <trkpt lat="42.25882" lon="8.89961">
        <ele>1618.04</ele>
        <time>2015-06-23T11:50:25Z</time>
      </trkpt>
      <trkpt lat="42.25882" lon="8.89964">
        <ele>1618.52</ele>
        <time>2015-06-23T11:50:40Z</time>
      </trkpt>
      <trkpt lat="42.25877" lon="8.89968">
        <ele>1619.96</ele>
        <time>2015-06-23T11:50:57Z</time>
      </trkpt>
      <trkpt lat="42.25879" lon="8.89969">
        <ele>1619.96</ele>
        <time>2015-06-23T12:45:45Z</time>
      </trkpt>
      <trkpt lat="42.25921" lon="8.89944">
        <ele>1619.48</ele>
        <time>2015-06-23T12:45:46Z</time>
      </trkpt>
      <trkpt lat="42.25885" lon="8.89962">
        <ele>1618.52</ele>
        <time>2015-06-23T12:46:09Z</time>
      </trkpt>
      <trkpt lat="42.25885" lon="8.89953">
        <ele>1619</ele>
        <time>2015-06-23T12:46:24Z</time>
      </trkpt>
      <trkpt lat="42.25886" lon="8.89941">
        <ele>1617.07</ele>
        <time>2015-06-23T12:46:37Z</time>
      </trkpt>
      <trkpt lat="42.25888" lon="8.8994">
        <ele>1616.59</ele>
        <time>2015-06-23T12:46:40Z</time>
      </trkpt>
      <trkpt lat="42.25896" lon="8.89932">
        <ele>1615.15</ele>
        <time>2015-06-23T12:46:49Z</time>
      </trkpt>
      <trkpt lat="42.25907" lon="8.89918">
        <ele>1614.19</ele>
        <time>2015-06-23T12:47:04Z</time>
      </trkpt>
      <trkpt lat="42.2591" lon="8.89913">
        <ele>1611.31</ele>
        <time>2015-06-23T12:47:09Z</time>
      </trkpt>
      <trkpt lat="42.2591" lon="8.89911">
        <ele>1612.75</ele>
        <time>2015-06-23T12:47:11Z</time>
      </trkpt>
      <trkpt lat="42.25911" lon="8.8991">
        <ele>1611.31</ele>
        <time>2015-06-23T12:47:13Z</time>
      </trkpt>
      <trkpt lat="42.25913" lon="8.89905">
        <ele>1609.38</ele>
        <time>2015-06-23T12:47:18Z</time>
      </trkpt>
      <trkpt lat="42.25915" lon="8.89902">
        <ele>1610.83</ele>
        <time>2015-06-23T12:47:21Z</time>
      </trkpt>
      <trkpt lat="42.25916" lon="8.899">
        <ele>1610.83</ele>
        <time>2015-06-23T12:47:23Z</time>
      </trkpt>
      <trkpt lat="42.25917" lon="8.89897">
        <ele>1607.46</ele>
        <time>2015-06-23T12:47:26Z</time>
      </trkpt>
      <trkpt lat="42.25918" lon="8.89896">
        <ele>1610.35</ele>
        <time>2015-06-23T12:47:27Z</time>
      </trkpt>
      <trkpt lat="42.25922" lon="8.8988">
        <ele>1607.46</ele>
        <time>2015-06-23T12:47:41Z</time>
      </trkpt>
      <trkpt lat="42.25925" lon="8.89875">
        <ele>1608.42</ele>
        <time>2015-06-23T12:47:46Z</time>
      </trkpt>
      <trkpt lat="42.2593" lon="8.89864">
        <ele>1607.94</ele>
        <time>2015-06-23T12:48:01Z</time>
      </trkpt>
      <trkpt lat="42.25934" lon="8.89854">
        <ele>1606.5</ele>
        <time>2015-06-23T12:48:13Z</time>
      </trkpt>
      <trkpt lat="42.25935" lon="8.89837">
        <ele>1604.58</ele>
        <time>2015-06-23T12:48:29Z</time>
      </trkpt>
      <trkpt lat="42.25937" lon="8.89822">
        <ele>1604.1</ele>
        <time>2015-06-23T12:48:42Z</time>
      </trkpt>
      <trkpt lat="42.2594" lon="8.89818">
        <ele>1602.17</ele>
        <time>2015-06-23T12:48:47Z</time>
      </trkpt>
      <trkpt lat="42.2594" lon="8.89815">
        <ele>1600.73</ele>
        <time>2015-06-23T12:48:51Z</time>
      </trkpt>
      <trkpt lat="42.25943" lon="8.8981">
        <ele>1604.58</ele>
        <time>2015-06-23T12:48:56Z</time>
      </trkpt>
      <trkpt lat="42.25944" lon="8.8981">
        <ele>1603.62</ele>
        <time>2015-06-23T12:48:57Z</time>
      </trkpt>
      <trkpt lat="42.25945" lon="8.89809">
        <ele>1602.66</ele>
        <time>2015-06-23T12:48:58Z</time>
      </trkpt>
      <trkpt lat="42.25953" lon="8.89801">
        <ele>1599.77</ele>
        <time>2015-06-23T12:49:12Z</time>
      </trkpt>
      <trkpt lat="42.25963" lon="8.89791">
        <ele>1597.37</ele>
        <time>2015-06-23T12:49:27Z</time>
      </trkpt>
      <trkpt lat="42.25967" lon="8.89777">
        <ele>1596.89</ele>
        <time>2015-06-23T12:49:41Z</time>
      </trkpt>
      <trkpt lat="42.2597" lon="8.89772">
        <ele>1594.96</ele>
        <time>2015-06-23T12:49:45Z</time>
      </trkpt>
      <trkpt lat="42.25976" lon="8.89759">
        <ele>1592.56</ele>
        <time>2015-06-23T12:50:00Z</time>
      </trkpt>
      <trkpt lat="42.25979" lon="8.89755">
        <ele>1592.56</ele>
        <time>2015-06-23T12:50:06Z</time>
      </trkpt>
      <trkpt lat="42.25982" lon="8.89755">
        <ele>1591.12</ele>
        <time>2015-06-23T12:50:09Z</time>
      </trkpt>
      <trkpt lat="42.25985" lon="8.89746">
        <ele>1589.2</ele>
        <time>2015-06-23T12:50:19Z</time>
      </trkpt>
      <trkpt lat="42.25985" lon="8.89745">
        <ele>1589.68</ele>
        <time>2015-06-23T12:50:20Z</time>
      </trkpt>
      <trkpt lat="42.25989" lon="8.8974">
        <ele>1589.2</ele>
        <time>2015-06-23T12:50:26Z</time>
      </trkpt>
      <trkpt lat="42.25997" lon="8.8973">
        <ele>1587.27</ele>
        <time>2015-06-23T12:50:41Z</time>
      </trkpt>
      <trkpt lat="42.26002" lon="8.89719">
        <ele>1585.35</ele>
        <time>2015-06-23T12:50:52Z</time>
      </trkpt>
      <trkpt lat="42.26003" lon="8.89716">
        <ele>1584.87</ele>
        <time>2015-06-23T12:50:55Z</time>
      </trkpt>
      <trkpt lat="42.26004" lon="8.89714">
        <ele>1584.39</ele>
        <time>2015-06-23T12:50:57Z</time>
      </trkpt>
      <trkpt lat="42.26007" lon="8.89711">
        <ele>1583.91</ele>
        <time>2015-06-23T12:51:00Z</time>
      </trkpt>
      <trkpt lat="42.2601" lon="8.89698">
        <ele>1581.51</ele>
        <time>2015-06-23T12:51:12Z</time>
      </trkpt>
      <trkpt lat="42.26015" lon="8.89685">
        <ele>1579.58</ele>
        <time>2015-06-23T12:51:23Z</time>
      </trkpt>
      <trkpt lat="42.26017" lon="8.89682">
        <ele>1579.1</ele>
        <time>2015-06-23T12:51:26Z</time>
      </trkpt>
      <trkpt lat="42.2602" lon="8.89676">
        <ele>1577.18</ele>
        <time>2015-06-23T12:51:31Z</time>
      </trkpt>
      <trkpt lat="42.26021" lon="8.89672">
        <ele>1575.74</ele>
        <time>2015-06-23T12:51:34Z</time>
      </trkpt>
      <trkpt lat="42.26023" lon="8.89665">
        <ele>1574.3</ele>
        <time>2015-06-23T12:51:39Z</time>
      </trkpt>
      <trkpt lat="42.26023" lon="8.89663">
        <ele>1572.85</ele>
        <time>2015-06-23T12:51:41Z</time>
      </trkpt>
      <trkpt lat="42.26031" lon="8.89655">
        <ele>1573.82</ele>
        <time>2015-06-23T12:51:49Z</time>
      </trkpt>
      <trkpt lat="42.26031" lon="8.8965">
        <ele>1570.93</ele>
        <time>2015-06-23T12:51:52Z</time>
      </trkpt>
      <trkpt lat="42.26033" lon="8.89648">
        <ele>1576.22</ele>
        <time>2015-06-23T12:51:55Z</time>
      </trkpt>
      <trkpt lat="42.26034" lon="8.89647">
        <ele>1576.7</ele>
        <time>2015-06-23T12:51:56Z</time>
      </trkpt>
      <trkpt lat="42.26038" lon="8.89643">
        <ele>1572.37</ele>
        <time>2015-06-23T12:52:00Z</time>
      </trkpt>
      <trkpt lat="42.26039" lon="8.89639">
        <ele>1569.01</ele>
        <time>2015-06-23T12:52:03Z</time>
      </trkpt>
      <trkpt lat="42.26042" lon="8.89631">
        <ele>1570.93</ele>
        <time>2015-06-23T12:52:10Z</time>
      </trkpt>
      <trkpt lat="42.26044" lon="8.8963">
        <ele>1572.37</ele>
        <time>2015-06-23T12:52:12Z</time>
      </trkpt>
      <trkpt lat="42.26051" lon="8.89624">
        <ele>1569.49</ele>
        <time>2015-06-23T12:52:21Z</time>
      </trkpt>
      <trkpt lat="42.26052" lon="8.89622">
        <ele>1568.05</ele>
        <time>2015-06-23T12:52:23Z</time>
      </trkpt>
      <trkpt lat="42.26053" lon="8.89621">
        <ele>1569.01</ele>
        <time>2015-06-23T12:52:25Z</time>
      </trkpt>
      <trkpt lat="42.26056" lon="8.89617">
        <ele>1566.61</ele>
        <time>2015-06-23T12:52:29Z</time>
      </trkpt>
      <trkpt lat="42.26057" lon="8.89616">
        <ele>1566.12</ele>
        <time>2015-06-23T12:52:30Z</time>
      </trkpt>
      <trkpt lat="42.26062" lon="8.89607">
        <ele>1562.28</ele>
        <time>2015-06-23T12:52:39Z</time>
      </trkpt>
      <trkpt lat="42.26064" lon="8.89604">
        <ele>1560.36</ele>
        <time>2015-06-23T12:52:42Z</time>
      </trkpt>
      <trkpt lat="42.26074" lon="8.8959">
        <ele>1559.4</ele>
        <time>2015-06-23T12:52:57Z</time>
      </trkpt>
      <trkpt lat="42.26078" lon="8.89584">
        <ele>1557.47</ele>
        <time>2015-06-23T12:53:04Z</time>
      </trkpt>
      <trkpt lat="42.26083" lon="8.89581">
        <ele>1556.99</ele>
        <time>2015-06-23T12:53:10Z</time>
      </trkpt>
      <trkpt lat="42.26091" lon="8.8958">
        <ele>1555.07</ele>
        <time>2015-06-23T12:53:19Z</time>
      </trkpt>
      <trkpt lat="42.26095" lon="8.89581">
        <ele>1553.63</ele>
        <time>2015-06-23T12:53:24Z</time>
      </trkpt>
      <trkpt lat="42.26096" lon="8.89578">
        <ele>1548.82</ele>
        <time>2015-06-23T12:53:27Z</time>
      </trkpt>
      <trkpt lat="42.26096" lon="8.89577">
        <ele>1548.82</ele>
        <time>2015-06-23T12:53:28Z</time>
      </trkpt>
      <trkpt lat="42.26098" lon="8.89573">
        <ele>1551.71</ele>
        <time>2015-06-23T12:53:34Z</time>
      </trkpt>
      <trkpt lat="42.26099" lon="8.89571">
        <ele>1548.82</ele>
        <time>2015-06-23T12:53:37Z</time>
      </trkpt>
      <trkpt lat="42.26101" lon="8.89572">
        <ele>1550.74</ele>
        <time>2015-06-23T12:53:39Z</time>
      </trkpt>
      <trkpt lat="42.26104" lon="8.89571">
        <ele>1546.9</ele>
        <time>2015-06-23T12:53:44Z</time>
      </trkpt>
      <trkpt lat="42.26109" lon="8.89566">
        <ele>1543.53</ele>
        <time>2015-06-23T12:53:52Z</time>
      </trkpt>
      <trkpt lat="42.26114" lon="8.8956">
        <ele>1544.01</ele>
        <time>2015-06-23T12:54:01Z</time>
      </trkpt>
      <trkpt lat="42.26115" lon="8.89559">
        <ele>1540.65</ele>
        <time>2015-06-23T12:54:02Z</time>
      </trkpt>
      <trkpt lat="42.26123" lon="8.89554">
        <ele>1539.21</ele>
        <time>2015-06-23T12:54:16Z</time>
      </trkpt>
      <trkpt lat="42.26125" lon="8.89553">
        <ele>1535.84</ele>
        <time>2015-06-23T12:54:18Z</time>
      </trkpt>
      <trkpt lat="42.26125" lon="8.89552">
        <ele>1535.84</ele>
        <time>2015-06-23T12:54:19Z</time>
      </trkpt>
      <trkpt lat="42.26126" lon="8.89549">
        <ele>1535.84</ele>
        <time>2015-06-23T12:54:22Z</time>
      </trkpt>
      <trkpt lat="42.26126" lon="8.89546">
        <ele>1533.92</ele>
        <time>2015-06-23T12:54:24Z</time>
      </trkpt>
      <trkpt lat="42.26129" lon="8.89544">
        <ele>1535.36</ele>
        <time>2015-06-23T12:54:27Z</time>
      </trkpt>
      <trkpt lat="42.26139" lon="8.89539">
        <ele>1533.44</ele>
        <time>2015-06-23T12:54:37Z</time>
      </trkpt>
      <trkpt lat="42.26141" lon="8.89537">
        <ele>1530.08</ele>
        <time>2015-06-23T12:54:40Z</time>
      </trkpt>
      <trkpt lat="42.26142" lon="8.89534">
        <ele>1527.67</ele>
        <time>2015-06-23T12:54:43Z</time>
      </trkpt>
      <trkpt lat="42.26142" lon="8.89532">
        <ele>1527.19</ele>
        <time>2015-06-23T12:54:44Z</time>
      </trkpt>
      <trkpt lat="42.26143" lon="8.8953">
        <ele>1526.71</ele>
        <time>2015-06-23T12:54:46Z</time>
      </trkpt>
      <trkpt lat="42.26153" lon="8.89522">
        <ele>1527.19</ele>
        <time>2015-06-23T12:54:56Z</time>
      </trkpt>
      <trkpt lat="42.26163" lon="8.89511">
        <ele>1524.31</ele>
        <time>2015-06-23T12:55:09Z</time>
      </trkpt>
      <trkpt lat="42.26175" lon="8.89507">
        <ele>1521.9</ele>
        <time>2015-06-23T12:55:22Z</time>
      </trkpt>
      <trkpt lat="42.26185" lon="8.89503">
        <ele>1518.54</ele>
        <time>2015-06-23T12:55:33Z</time>
      </trkpt>
      <trkpt lat="42.26187" lon="8.89502">
        <ele>1518.06</ele>
        <time>2015-06-23T12:55:34Z</time>
      </trkpt>
      <trkpt lat="42.26188" lon="8.89502">
        <ele>1518.06</ele>
        <time>2015-06-23T12:55:36Z</time>
      </trkpt>
      <trkpt lat="42.26191" lon="8.89503">
        <ele>1516.62</ele>
        <time>2015-06-23T12:55:39Z</time>
      </trkpt>
      <trkpt lat="42.26193" lon="8.89503">
        <ele>1516.14</ele>
        <time>2015-06-23T12:55:41Z</time>
      </trkpt>
      <trkpt lat="42.26195" lon="8.89501">
        <ele>1514.69</ele>
        <time>2015-06-23T12:55:43Z</time>
      </trkpt>
      <trkpt lat="42.26201" lon="8.89498">
        <ele>1513.73</ele>
        <time>2015-06-23T12:55:51Z</time>
      </trkpt>
      <trkpt lat="42.26203" lon="8.89496">
        <ele>1512.77</ele>
        <time>2015-06-23T12:55:53Z</time>
      </trkpt>
      <trkpt lat="42.2621" lon="8.89488">
        <ele>1509.41</ele>
        <time>2015-06-23T12:56:03Z</time>
      </trkpt>
      <trkpt lat="42.26219" lon="8.89478">
        <ele>1506.52</ele>
        <time>2015-06-23T12:56:14Z</time>
      </trkpt>
      <trkpt lat="42.26225" lon="8.8947">
        <ele>1503.64</ele>
        <time>2015-06-23T12:56:23Z</time>
      </trkpt>
      <trkpt lat="42.26228" lon="8.89463">
        <ele>1502.68</ele>
        <time>2015-06-23T12:56:29Z</time>
      </trkpt>
      <trkpt lat="42.26233" lon="8.89457">
        <ele>1501.24</ele>
        <time>2015-06-23T12:56:36Z</time>
      </trkpt>
      <trkpt lat="42.26236" lon="8.89455">
        <ele>1500.27</ele>
        <time>2015-06-23T12:56:39Z</time>
      </trkpt>
      <trkpt lat="42.26256" lon="8.89445">
        <ele>1496.43</ele>
        <time>2015-06-23T12:56:58Z</time>
      </trkpt>
      <trkpt lat="42.2627" lon="8.89436">
        <ele>1494.99</ele>
        <time>2015-06-23T12:57:12Z</time>
      </trkpt>
      <trkpt lat="42.26275" lon="8.89412">
        <ele>1492.58</ele>
        <time>2015-06-23T12:57:30Z</time>
      </trkpt>
      <trkpt lat="42.26276" lon="8.89397">
        <ele>1490.66</ele>
        <time>2015-06-23T12:57:43Z</time>
      </trkpt>
      <trkpt lat="42.26279" lon="8.8939">
        <ele>1490.66</ele>
        <time>2015-06-23T12:57:50Z</time>
      </trkpt>
      <trkpt lat="42.26285" lon="8.89385">
        <ele>1486.34</ele>
        <time>2015-06-23T12:58:02Z</time>
      </trkpt>
      <trkpt lat="42.26287" lon="8.89379">
        <ele>1485.85</ele>
        <time>2015-06-23T12:58:09Z</time>
      </trkpt>
      <trkpt lat="42.26288" lon="8.8937">
        <ele>1481.53</ele>
        <time>2015-06-23T12:58:17Z</time>
      </trkpt>
      <trkpt lat="42.26294" lon="8.8936">
        <ele>1479.61</ele>
        <time>2015-06-23T12:58:31Z</time>
      </trkpt>
      <trkpt lat="42.26298" lon="8.89355">
        <ele>1479.61</ele>
        <time>2015-06-23T12:58:38Z</time>
      </trkpt>
      <trkpt lat="42.26301" lon="8.89349">
        <ele>1477.2</ele>
        <time>2015-06-23T12:58:45Z</time>
      </trkpt>
      <trkpt lat="42.26307" lon="8.89341">
        <ele>1478.16</ele>
        <time>2015-06-23T12:58:55Z</time>
      </trkpt>
      <trkpt lat="42.26309" lon="8.89339">
        <ele>1474.32</ele>
        <time>2015-06-23T12:58:58Z</time>
      </trkpt>
      <trkpt lat="42.26309" lon="8.89338">
        <ele>1473.84</ele>
        <time>2015-06-23T12:58:59Z</time>
      </trkpt>
      <trkpt lat="42.2631" lon="8.89332">
        <ele>1472.4</ele>
        <time>2015-06-23T12:59:06Z</time>
      </trkpt>
      <trkpt lat="42.26316" lon="8.89326">
        <ele>1471.44</ele>
        <time>2015-06-23T12:59:16Z</time>
      </trkpt>
      <trkpt lat="42.26321" lon="8.89316">
        <ele>1468.55</ele>
        <time>2015-06-23T12:59:25Z</time>
      </trkpt>
      <trkpt lat="42.26322" lon="8.89315">
        <ele>1469.03</ele>
        <time>2015-06-23T12:59:26Z</time>
      </trkpt>
      <trkpt lat="42.26323" lon="8.89313">
        <ele>1470.47</ele>
        <time>2015-06-23T12:59:28Z</time>
      </trkpt>
      <trkpt lat="42.26324" lon="8.89312">
        <ele>1469.03</ele>
        <time>2015-06-23T12:59:29Z</time>
      </trkpt>
      <trkpt lat="42.26328" lon="8.893">
        <ele>1472.88</ele>
        <time>2015-06-23T12:59:40Z</time>
      </trkpt>
      <trkpt lat="42.26331" lon="8.89296">
        <ele>1472.88</ele>
        <time>2015-06-23T12:59:50Z</time>
      </trkpt>
      <trkpt lat="42.26333" lon="8.89295">
        <ele>1470.47</ele>
        <time>2015-06-23T13:00:14Z</time>
      </trkpt>
      <trkpt lat="42.26332" lon="8.89297">
        <ele>1470.95</ele>
        <time>2015-06-23T13:00:37Z</time>
      </trkpt>
      <trkpt lat="42.26332" lon="8.89296">
        <ele>1471.44</ele>
        <time>2015-06-23T13:00:42Z</time>
      </trkpt>
      <trkpt lat="42.26332" lon="8.89296">
        <ele>1469.51</ele>
        <time>2015-06-23T13:00:45Z</time>
      </trkpt>
      <trkpt lat="42.26332" lon="8.89301">
        <ele>1468.55</ele>
        <time>2015-06-23T13:01:01Z</time>
      </trkpt>
      <trkpt lat="42.26336" lon="8.89304">
        <ele>1467.59</ele>
        <time>2015-06-23T13:01:17Z</time>
      </trkpt>
      <trkpt lat="42.26337" lon="8.89309">
        <ele>1467.11</ele>
        <time>2015-06-23T13:01:34Z</time>
      </trkpt>
      <trkpt lat="42.26337" lon="8.89313">
        <ele>1466.15</ele>
        <time>2015-06-23T13:01:38Z</time>
      </trkpt>
      <trkpt lat="42.26342" lon="8.8933">
        <ele>1463.26</ele>
        <time>2015-06-23T13:01:54Z</time>
      </trkpt>
      <trkpt lat="42.26346" lon="8.89343">
        <ele>1459.9</ele>
        <time>2015-06-23T13:02:08Z</time>
      </trkpt>
      <trkpt lat="42.26349" lon="8.89348">
        <ele>1458.46</ele>
        <time>2015-06-23T13:02:22Z</time>
      </trkpt>
      <trkpt lat="42.26351" lon="8.89341">
        <ele>1457.5</ele>
        <time>2015-06-23T13:02:28Z</time>
      </trkpt>
      <trkpt lat="42.26356" lon="8.89327">
        <ele>1456.53</ele>
        <time>2015-06-23T13:02:41Z</time>
      </trkpt>
      <trkpt lat="42.26364" lon="8.89309">
        <ele>1454.61</ele>
        <time>2015-06-23T13:02:57Z</time>
      </trkpt>
      <trkpt lat="42.26364" lon="8.89305">
        <ele>1454.13</ele>
        <time>2015-06-23T13:03:00Z</time>
      </trkpt>
      <trkpt lat="42.26367" lon="8.89292">
        <ele>1453.65</ele>
        <time>2015-06-23T13:03:11Z</time>
      </trkpt>
      <trkpt lat="42.26375" lon="8.89279">
        <ele>1449.81</ele>
        <time>2015-06-23T13:03:23Z</time>
      </trkpt>
      <trkpt lat="42.26385" lon="8.89265">
        <ele>1449.32</ele>
        <time>2015-06-23T13:03:39Z</time>
      </trkpt>
      <trkpt lat="42.26398" lon="8.89251">
        <ele>1446.92</ele>
        <time>2015-06-23T13:03:55Z</time>
      </trkpt>
      <trkpt lat="42.26407" lon="8.89252">
        <ele>1445</ele>
        <time>2015-06-23T13:04:06Z</time>
      </trkpt>
      <trkpt lat="42.26423" lon="8.89252">
        <ele>1441.15</ele>
        <time>2015-06-23T13:04:22Z</time>
      </trkpt>
      <trkpt lat="42.26436" lon="8.89253">
        <ele>1440.67</ele>
        <time>2015-06-23T13:04:36Z</time>
      </trkpt>
      <trkpt lat="42.26437" lon="8.89253">
        <ele>1439.71</ele>
        <time>2015-06-23T13:04:38Z</time>
      </trkpt>
      <trkpt lat="42.26448" lon="8.89256">
        <ele>1437.79</ele>
        <time>2015-06-23T13:04:49Z</time>
      </trkpt>
      <trkpt lat="42.2646" lon="8.89259">
        <ele>1435.87</ele>
        <time>2015-06-23T13:05:02Z</time>
      </trkpt>
      <trkpt lat="42.26467" lon="8.89261">
        <ele>1435.39</ele>
        <time>2015-06-23T13:05:09Z</time>
      </trkpt>
      <trkpt lat="42.26479" lon="8.89259">
        <ele>1434.42</ele>
        <time>2015-06-23T13:05:24Z</time>
      </trkpt>
      <trkpt lat="42.26487" lon="8.8926">
        <ele>1433.46</ele>
        <time>2015-06-23T13:05:36Z</time>
      </trkpt>
      <trkpt lat="42.26486" lon="8.89263">
        <ele>1432.02</ele>
        <time>2015-06-23T13:05:39Z</time>
      </trkpt>
      <trkpt lat="42.26485" lon="8.89266">
        <ele>1431.54</ele>
        <time>2015-06-23T13:05:41Z</time>
      </trkpt>
      <trkpt lat="42.26477" lon="8.89274">
        <ele>1428.66</ele>
        <time>2015-06-23T13:05:55Z</time>
      </trkpt>
      <trkpt lat="42.2647" lon="8.8928">
        <ele>1425.77</ele>
        <time>2015-06-23T13:06:05Z</time>
      </trkpt>
      <trkpt lat="42.26462" lon="8.89285">
        <ele>1424.81</ele>
        <time>2015-06-23T13:06:15Z</time>
      </trkpt>
      <trkpt lat="42.26449" lon="8.89285">
        <ele>1425.77</ele>
        <time>2015-06-23T13:06:31Z</time>
      </trkpt>
      <trkpt lat="42.26444" lon="8.89287">
        <ele>1424.81</ele>
        <time>2015-06-23T13:06:36Z</time>
      </trkpt>
      <trkpt lat="42.2643" lon="8.89295">
        <ele>1423.85</ele>
        <time>2015-06-23T13:06:51Z</time>
      </trkpt>
      <trkpt lat="42.26426" lon="8.89304">
        <ele>1421.45</ele>
        <time>2015-06-23T13:07:04Z</time>
      </trkpt>
      <trkpt lat="42.26425" lon="8.89313">
        <ele>1420.49</ele>
        <time>2015-06-23T13:07:18Z</time>
      </trkpt>
      <trkpt lat="42.26423" lon="8.89318">
        <ele>1420.49</ele>
        <time>2015-06-23T13:07:42Z</time>
      </trkpt>
      <trkpt lat="42.26428" lon="8.89328">
        <ele>1419.04</ele>
        <time>2015-06-23T13:08:07Z</time>
      </trkpt>
      <trkpt lat="42.26429" lon="8.89327">
        <ele>1418.56</ele>
        <time>2015-06-23T13:08:14Z</time>
      </trkpt>
      <trkpt lat="42.26432" lon="8.89339">
        <ele>1416.16</ele>
        <time>2015-06-23T13:08:30Z</time>
      </trkpt>
      <trkpt lat="42.26437" lon="8.89351">
        <ele>1413.76</ele>
        <time>2015-06-23T13:08:41Z</time>
      </trkpt>
      <trkpt lat="42.26438" lon="8.89352">
        <ele>1414.24</ele>
        <time>2015-06-23T13:08:42Z</time>
      </trkpt>
      <trkpt lat="42.26436" lon="8.89368">
        <ele>1412.31</ele>
        <time>2015-06-23T13:08:57Z</time>
      </trkpt>
      <trkpt lat="42.26437" lon="8.89382">
        <ele>1410.87</ele>
        <time>2015-06-23T13:09:10Z</time>
      </trkpt>
      <trkpt lat="42.26445" lon="8.89394">
        <ele>1408.47</ele>
        <time>2015-06-23T13:09:22Z</time>
      </trkpt>
      <trkpt lat="42.26448" lon="8.89406">
        <ele>1407.03</ele>
        <time>2015-06-23T13:09:34Z</time>
      </trkpt>
      <trkpt lat="42.26455" lon="8.89422">
        <ele>1405.1</ele>
        <time>2015-06-23T13:09:48Z</time>
      </trkpt>
      <trkpt lat="42.2646" lon="8.89439">
        <ele>1403.66</ele>
        <time>2015-06-23T13:10:01Z</time>
      </trkpt>
      <trkpt lat="42.2646" lon="8.89453">
        <ele>1401.74</ele>
        <time>2015-06-23T13:10:15Z</time>
      </trkpt>
      <trkpt lat="42.26461" lon="8.8947">
        <ele>1400.3</ele>
        <time>2015-06-23T13:10:28Z</time>
      </trkpt>
      <trkpt lat="42.26469" lon="8.89484">
        <ele>1399.34</ele>
        <time>2015-06-23T13:10:42Z</time>
      </trkpt>
      <trkpt lat="42.26475" lon="8.89498">
        <ele>1397.41</ele>
        <time>2015-06-23T13:10:56Z</time>
      </trkpt>
      <trkpt lat="42.26482" lon="8.89512">
        <ele>1395.49</ele>
        <time>2015-06-23T13:11:09Z</time>
      </trkpt>
      <trkpt lat="42.26491" lon="8.8953">
        <ele>1392.61</ele>
        <time>2015-06-23T13:11:25Z</time>
      </trkpt>
      <trkpt lat="42.26488" lon="8.89543">
        <ele>1391.65</ele>
        <time>2015-06-23T13:11:35Z</time>
      </trkpt>
      <trkpt lat="42.2649" lon="8.89554">
        <ele>1389.72</ele>
        <time>2015-06-23T13:11:50Z</time>
      </trkpt>
      <trkpt lat="42.26496" lon="8.89555">
        <ele>1386.84</ele>
        <time>2015-06-23T13:12:03Z</time>
      </trkpt>
      <trkpt lat="42.26499" lon="8.89557">
        <ele>1386.36</ele>
        <time>2015-06-23T13:12:08Z</time>
      </trkpt>
      <trkpt lat="42.265" lon="8.89567">
        <ele>1384.44</ele>
        <time>2015-06-23T13:12:20Z</time>
      </trkpt>
      <trkpt lat="42.26503" lon="8.89574">
        <ele>1382.51</ele>
        <time>2015-06-23T13:12:32Z</time>
      </trkpt>
      <trkpt lat="42.26512" lon="8.8957">
        <ele>1380.11</ele>
        <time>2015-06-23T13:12:46Z</time>
      </trkpt>
      <trkpt lat="42.26517" lon="8.89577">
        <ele>1377.71</ele>
        <time>2015-06-23T13:12:59Z</time>
      </trkpt>
      <trkpt lat="42.26519" lon="8.89576">
        <ele>1375.3</ele>
        <time>2015-06-23T13:13:13Z</time>
      </trkpt>
      <trkpt lat="42.26516" lon="8.89568">
        <ele>1374.82</ele>
        <time>2015-06-23T13:13:38Z</time>
      </trkpt>
      <trkpt lat="42.26518" lon="8.89552">
        <ele>1374.34</ele>
        <time>2015-06-23T13:13:53Z</time>
      </trkpt>
      <trkpt lat="42.26518" lon="8.89551">
        <ele>1373.86</ele>
        <time>2015-06-23T13:13:54Z</time>
      </trkpt>
      <trkpt lat="42.26521" lon="8.89531">
        <ele>1374.82</ele>
        <time>2015-06-23T13:14:09Z</time>
      </trkpt>
      <trkpt lat="42.26522" lon="8.89529">
        <ele>1374.34</ele>
        <time>2015-06-23T13:14:11Z</time>
      </trkpt>
      <trkpt lat="42.26521" lon="8.8951">
        <ele>1372.9</ele>
        <time>2015-06-23T13:14:27Z</time>
      </trkpt>
      <trkpt lat="42.2652" lon="8.8949">
        <ele>1374.34</ele>
        <time>2015-06-23T13:14:40Z</time>
      </trkpt>
      <trkpt lat="42.26523" lon="8.89467">
        <ele>1374.34</ele>
        <time>2015-06-23T13:14:56Z</time>
      </trkpt>
      <trkpt lat="42.26517" lon="8.89452">
        <ele>1374.34</ele>
        <time>2015-06-23T13:15:09Z</time>
      </trkpt>
      <trkpt lat="42.26513" lon="8.89431">
        <ele>1374.82</ele>
        <time>2015-06-23T13:15:25Z</time>
      </trkpt>
      <trkpt lat="42.26508" lon="8.89407">
        <ele>1374.34</ele>
        <time>2015-06-23T13:15:43Z</time>
      </trkpt>
      <trkpt lat="42.26511" lon="8.89391">
        <ele>1375.3</ele>
        <time>2015-06-23T13:15:57Z</time>
      </trkpt>
      <trkpt lat="42.26526" lon="8.89383">
        <ele>1374.82</ele>
        <time>2015-06-23T13:16:12Z</time>
      </trkpt>
      <trkpt lat="42.26531" lon="8.89382">
        <ele>1374.34</ele>
        <time>2015-06-23T13:16:16Z</time>
      </trkpt>
      <trkpt lat="42.26548" lon="8.8938">
        <ele>1373.86</ele>
        <time>2015-06-23T13:16:31Z</time>
      </trkpt>
      <trkpt lat="42.26566" lon="8.89374">
        <ele>1372.9</ele>
        <time>2015-06-23T13:16:49Z</time>
      </trkpt>
      <trkpt lat="42.26569" lon="8.89371">
        <ele>1372.42</ele>
        <time>2015-06-23T13:16:52Z</time>
      </trkpt>
      <trkpt lat="42.26586" lon="8.89372">
        <ele>1372.9</ele>
        <time>2015-06-23T13:17:09Z</time>
      </trkpt>
      <trkpt lat="42.26588" lon="8.89375">
        <ele>1372.42</ele>
        <time>2015-06-23T13:17:12Z</time>
      </trkpt>
      <trkpt lat="42.26604" lon="8.89389">
        <ele>1371.46</ele>
        <time>2015-06-23T13:17:29Z</time>
      </trkpt>
      <trkpt lat="42.26622" lon="8.89389">
        <ele>1371.46</ele>
        <time>2015-06-23T13:17:48Z</time>
      </trkpt>
      <trkpt lat="42.26624" lon="8.89386">
        <ele>1371.46</ele>
        <time>2015-06-23T13:17:51Z</time>
      </trkpt>
      <trkpt lat="42.26634" lon="8.8937">
        <ele>1371.46</ele>
        <time>2015-06-23T13:18:09Z</time>
      </trkpt>
      <trkpt lat="42.2665" lon="8.89357">
        <ele>1370.98</ele>
        <time>2015-06-23T13:18:28Z</time>
      </trkpt>
      <trkpt lat="42.26661" lon="8.89341">
        <ele>1371.46</ele>
        <time>2015-06-23T13:18:44Z</time>
      </trkpt>
      <trkpt lat="42.26671" lon="8.89351">
        <ele>1370.98</ele>
        <time>2015-06-23T13:18:52Z</time>
      </trkpt>
      <trkpt lat="42.26682" lon="8.89362">
        <ele>1369.05</ele>
        <time>2015-06-23T13:19:07Z</time>
      </trkpt>
      <trkpt lat="42.26697" lon="8.89372">
        <ele>1369.05</ele>
        <time>2015-06-23T13:19:23Z</time>
      </trkpt>
      <trkpt lat="42.26698" lon="8.89373">
        <ele>1369.05</ele>
        <time>2015-06-23T13:19:24Z</time>
      </trkpt>
      <trkpt lat="42.26714" lon="8.89374">
        <ele>1368.57</ele>
        <time>2015-06-23T13:19:40Z</time>
      </trkpt>
      <trkpt lat="42.26722" lon="8.89352">
        <ele>1368.09</ele>
        <time>2015-06-23T13:19:56Z</time>
      </trkpt>
      <trkpt lat="42.26727" lon="8.89333">
        <ele>1367.13</ele>
        <time>2015-06-23T13:20:12Z</time>
      </trkpt>
      <trkpt lat="42.2673" lon="8.8932">
        <ele>1366.65</ele>
        <time>2015-06-23T13:20:26Z</time>
      </trkpt>
      <trkpt lat="42.26742" lon="8.89308">
        <ele>1366.65</ele>
        <time>2015-06-23T13:20:41Z</time>
      </trkpt>
      <trkpt lat="42.26746" lon="8.89312">
        <ele>1367.13</ele>
        <time>2015-06-23T13:20:46Z</time>
      </trkpt>
      <trkpt lat="42.26754" lon="8.89321">
        <ele>1366.17</ele>
        <time>2015-06-23T13:20:54Z</time>
      </trkpt>
      <trkpt lat="42.2677" lon="8.89335">
        <ele>1365.21</ele>
        <time>2015-06-23T13:21:09Z</time>
      </trkpt>
      <trkpt lat="42.26786" lon="8.89337">
        <ele>1366.65</ele>
        <time>2015-06-23T13:21:25Z</time>
      </trkpt>
      <trkpt lat="42.26806" lon="8.89338">
        <ele>1367.13</ele>
        <time>2015-06-23T13:21:45Z</time>
      </trkpt>
      <trkpt lat="42.26822" lon="8.89347">
        <ele>1366.65</ele>
        <time>2015-06-23T13:22:02Z</time>
      </trkpt>
      <trkpt lat="42.26821" lon="8.89357">
        <ele>1366.65</ele>
        <time>2015-06-23T13:22:24Z</time>
      </trkpt>
      <trkpt lat="42.26809" lon="8.89361">
        <ele>1366.17</ele>
        <time>2015-06-23T13:22:55Z</time>
      </trkpt>
      <trkpt lat="42.26823" lon="8.8936">
        <ele>1366.65</ele>
        <time>2015-06-23T13:23:17Z</time>
      </trkpt>
      <trkpt lat="42.26824" lon="8.89353">
        <ele>1366.17</ele>
        <time>2015-06-23T13:23:47Z</time>
      </trkpt>
      <trkpt lat="42.26827" lon="8.89353">
        <ele>1366.17</ele>
        <time>2015-06-23T13:24:13Z</time>
      </trkpt>
      <trkpt lat="42.26848" lon="8.8936">
        <ele>1366.65</ele>
        <time>2015-06-23T13:24:31Z</time>
      </trkpt>
      <trkpt lat="42.26865" lon="8.89364">
        <ele>1367.13</ele>
        <time>2015-06-23T13:24:44Z</time>
      </trkpt>
      <trkpt lat="42.26879" lon="8.89362">
        <ele>1366.17</ele>
        <time>2015-06-23T13:24:59Z</time>
      </trkpt>
      <trkpt lat="42.26882" lon="8.8936">
        <ele>1365.69</ele>
        <time>2015-06-23T13:25:04Z</time>
      </trkpt>
      <trkpt lat="42.26892" lon="8.89342">
        <ele>1365.21</ele>
        <time>2015-06-23T13:25:20Z</time>
      </trkpt>
      <trkpt lat="42.26899" lon="8.89324">
        <ele>1364.73</ele>
        <time>2015-06-23T13:25:36Z</time>
      </trkpt>
      <trkpt lat="42.26911" lon="8.89307">
        <ele>1363.29</ele>
        <time>2015-06-23T13:25:53Z</time>
      </trkpt>
      <trkpt lat="42.26914" lon="8.89285">
        <ele>1363.77</ele>
        <time>2015-06-23T13:26:09Z</time>
      </trkpt>
      <trkpt lat="42.26922" lon="8.89262">
        <ele>1362.81</ele>
        <time>2015-06-23T13:26:28Z</time>
      </trkpt>
      <trkpt lat="42.2692" lon="8.89231">
        <ele>1361.84</ele>
        <time>2015-06-23T13:26:48Z</time>
      </trkpt>
      <trkpt lat="42.26922" lon="8.89228">
        <ele>1362.33</ele>
        <time>2015-06-23T13:26:50Z</time>
      </trkpt>
      <trkpt lat="42.26931" lon="8.89205">
        <ele>1360.4</ele>
        <time>2015-06-23T13:27:06Z</time>
      </trkpt>
      <trkpt lat="42.26938" lon="8.89189">
        <ele>1359.92</ele>
        <time>2015-06-23T13:27:22Z</time>
      </trkpt>
      <trkpt lat="42.26954" lon="8.89161">
        <ele>1358.96</ele>
        <time>2015-06-23T13:27:42Z</time>
      </trkpt>
      <trkpt lat="42.26975" lon="8.89146">
        <ele>1358.96</ele>
        <time>2015-06-23T13:28:01Z</time>
      </trkpt>
      <trkpt lat="42.26982" lon="8.89132">
        <ele>1358</ele>
        <time>2015-06-23T13:28:16Z</time>
      </trkpt>
      <trkpt lat="42.26983" lon="8.89119">
        <ele>1357.04</ele>
        <time>2015-06-23T13:28:24Z</time>
      </trkpt>
      <trkpt lat="42.26995" lon="8.89101">
        <ele>1356.56</ele>
        <time>2015-06-23T13:28:41Z</time>
      </trkpt>
      <trkpt lat="42.27013" lon="8.89089">
        <ele>1356.08</ele>
        <time>2015-06-23T13:28:58Z</time>
      </trkpt>
      <trkpt lat="42.27029" lon="8.89081">
        <ele>1355.6</ele>
        <time>2015-06-23T13:29:13Z</time>
      </trkpt>
      <trkpt lat="42.27043" lon="8.8908">
        <ele>1355.12</ele>
        <time>2015-06-23T13:29:28Z</time>
      </trkpt>
      <trkpt lat="42.27054" lon="8.8907">
        <ele>1352.71</ele>
        <time>2015-06-23T13:29:44Z</time>
      </trkpt>
      <trkpt lat="42.27064" lon="8.89082">
        <ele>1352.71</ele>
        <time>2015-06-23T13:29:59Z</time>
      </trkpt>
      <trkpt lat="42.2707" lon="8.89088">
        <ele>1353.19</ele>
        <time>2015-06-23T13:30:04Z</time>
      </trkpt>
      <trkpt lat="42.27078" lon="8.89103">
        <ele>1352.23</ele>
        <time>2015-06-23T13:30:19Z</time>
      </trkpt>
      <trkpt lat="42.27078" lon="8.89113">
        <ele>1351.75</ele>
        <time>2015-06-23T13:30:29Z</time>
      </trkpt>
      <trkpt lat="42.27079" lon="8.89135">
        <ele>1351.75</ele>
        <time>2015-06-23T13:30:46Z</time>
      </trkpt>
      <trkpt lat="42.27086" lon="8.89158">
        <ele>1350.79</ele>
        <time>2015-06-23T13:31:01Z</time>
      </trkpt>
      <trkpt lat="42.27089" lon="8.89165">
        <ele>1350.79</ele>
        <time>2015-06-23T13:31:06Z</time>
      </trkpt>
      <trkpt lat="42.27096" lon="8.89185">
        <ele>1350.31</ele>
        <time>2015-06-23T13:31:22Z</time>
      </trkpt>
      <trkpt lat="42.27108" lon="8.89211">
        <ele>1349.35</ele>
        <time>2015-06-23T13:31:37Z</time>
      </trkpt>
      <trkpt lat="42.27114" lon="8.8923">
        <ele>1349.35</ele>
        <time>2015-06-23T13:31:53Z</time>
      </trkpt>
      <trkpt lat="42.27118" lon="8.89254">
        <ele>1348.39</ele>
        <time>2015-06-23T13:32:11Z</time>
      </trkpt>
      <trkpt lat="42.27128" lon="8.89276">
        <ele>1348.39</ele>
        <time>2015-06-23T13:32:29Z</time>
      </trkpt>
      <trkpt lat="42.27131" lon="8.89296">
        <ele>1347.91</ele>
        <time>2015-06-23T13:32:45Z</time>
      </trkpt>
      <trkpt lat="42.27137" lon="8.89318">
        <ele>1348.87</ele>
        <time>2015-06-23T13:33:03Z</time>
      </trkpt>
      <trkpt lat="42.27149" lon="8.89343">
        <ele>1347.91</ele>
        <time>2015-06-23T13:33:24Z</time>
      </trkpt>
      <trkpt lat="42.27162" lon="8.89364">
        <ele>1347.91</ele>
        <time>2015-06-23T13:33:41Z</time>
      </trkpt>
      <trkpt lat="42.27174" lon="8.89382">
        <ele>1346.94</ele>
        <time>2015-06-23T13:33:56Z</time>
      </trkpt>
      <trkpt lat="42.27174" lon="8.89385">
        <ele>1346.46</ele>
        <time>2015-06-23T13:33:58Z</time>
      </trkpt>
      <trkpt lat="42.27178" lon="8.89406">
        <ele>1346.94</ele>
        <time>2015-06-23T13:34:14Z</time>
      </trkpt>
      <trkpt lat="42.27186" lon="8.89421">
        <ele>1346.94</ele>
        <time>2015-06-23T13:34:26Z</time>
      </trkpt>
      <trkpt lat="42.27192" lon="8.89426">
        <ele>1347.43</ele>
        <time>2015-06-23T13:34:32Z</time>
      </trkpt>
      <trkpt lat="42.27199" lon="8.89441">
        <ele>1348.87</ele>
        <time>2015-06-23T13:34:46Z</time>
      </trkpt>
      <trkpt lat="42.2721" lon="8.89454">
        <ele>1348.39</ele>
        <time>2015-06-23T13:35:02Z</time>
      </trkpt>
      <trkpt lat="42.27222" lon="8.89465">
        <ele>1348.39</ele>
        <time>2015-06-23T13:35:18Z</time>
      </trkpt>
      <trkpt lat="42.27242" lon="8.89466">
        <ele>1348.39</ele>
        <time>2015-06-23T13:35:35Z</time>
      </trkpt>
      <trkpt lat="42.27247" lon="8.89462">
        <ele>1349.35</ele>
        <time>2015-06-23T13:35:49Z</time>
      </trkpt>
      <trkpt lat="42.27254" lon="8.89458">
        <ele>1348.87</ele>
        <time>2015-06-23T13:35:58Z</time>
      </trkpt>
      <trkpt lat="42.27257" lon="8.89442">
        <ele>1348.87</ele>
        <time>2015-06-23T13:36:12Z</time>
      </trkpt>
      <trkpt lat="42.27259" lon="8.89438">
        <ele>1348.87</ele>
        <time>2015-06-23T13:36:15Z</time>
      </trkpt>
      <trkpt lat="42.27274" lon="8.89426">
        <ele>1348.39</ele>
        <time>2015-06-23T13:36:31Z</time>
      </trkpt>
      <trkpt lat="42.27289" lon="8.89425">
        <ele>1347.43</ele>
        <time>2015-06-23T13:36:47Z</time>
      </trkpt>
      <trkpt lat="42.27304" lon="8.8942">
        <ele>1346.94</ele>
        <time>2015-06-23T13:37:04Z</time>
      </trkpt>
      <trkpt lat="42.27306" lon="8.89417">
        <ele>1347.43</ele>
        <time>2015-06-23T13:37:06Z</time>
      </trkpt>
      <trkpt lat="42.27319" lon="8.89401">
        <ele>1347.91</ele>
        <time>2015-06-23T13:37:24Z</time>
      </trkpt>
      <trkpt lat="42.27333" lon="8.8939">
        <ele>1347.43</ele>
        <time>2015-06-23T13:37:41Z</time>
      </trkpt>
      <trkpt lat="42.27352" lon="8.89382">
        <ele>1347.43</ele>
        <time>2015-06-23T13:37:59Z</time>
      </trkpt>
      <trkpt lat="42.27366" lon="8.89379">
        <ele>1347.91</ele>
        <time>2015-06-23T13:38:15Z</time>
      </trkpt>
      <trkpt lat="42.27377" lon="8.89375">
        <ele>1348.39</ele>
        <time>2015-06-23T13:38:32Z</time>
      </trkpt>
      <trkpt lat="42.27388" lon="8.89362">
        <ele>1346.94</ele>
        <time>2015-06-23T13:38:49Z</time>
      </trkpt>
      <trkpt lat="42.27404" lon="8.89353">
        <ele>1347.43</ele>
        <time>2015-06-23T13:39:07Z</time>
      </trkpt>
      <trkpt lat="42.27426" lon="8.89346">
        <ele>1346.94</ele>
        <time>2015-06-23T13:39:25Z</time>
      </trkpt>
      <trkpt lat="42.27441" lon="8.89347">
        <ele>1346.46</ele>
        <time>2015-06-23T13:39:40Z</time>
      </trkpt>
      <trkpt lat="42.27465" lon="8.89343">
        <ele>1345.98</ele>
        <time>2015-06-23T13:39:59Z</time>
      </trkpt>
      <trkpt lat="42.27483" lon="8.89336">
        <ele>1345.98</ele>
        <time>2015-06-23T13:40:19Z</time>
      </trkpt>
      <trkpt lat="42.27502" lon="8.8933">
        <ele>1345.5</ele>
        <time>2015-06-23T13:40:39Z</time>
      </trkpt>
      <trkpt lat="42.27519" lon="8.8931">
        <ele>1345.98</ele>
        <time>2015-06-23T13:41:00Z</time>
      </trkpt>
      <trkpt lat="42.27524" lon="8.89293">
        <ele>1345.98</ele>
        <time>2015-06-23T13:41:15Z</time>
      </trkpt>
      <trkpt lat="42.27527" lon="8.89274">
        <ele>1346.46</ele>
        <time>2015-06-23T13:41:31Z</time>
      </trkpt>
      <trkpt lat="42.27528" lon="8.89257">
        <ele>1345.98</ele>
        <time>2015-06-23T13:41:42Z</time>
      </trkpt>
      <trkpt lat="42.27531" lon="8.89232">
        <ele>1345.02</ele>
        <time>2015-06-23T13:42:00Z</time>
      </trkpt>
      <trkpt lat="42.27531" lon="8.89227">
        <ele>1345.02</ele>
        <time>2015-06-23T13:42:05Z</time>
      </trkpt>
      <trkpt lat="42.2753" lon="8.89203">
        <ele>1344.06</ele>
        <time>2015-06-23T13:42:20Z</time>
      </trkpt>
      <trkpt lat="42.27526" lon="8.89177">
        <ele>1343.58</ele>
        <time>2015-06-23T13:42:36Z</time>
      </trkpt>
      <trkpt lat="42.2753" lon="8.89151">
        <ele>1343.58</ele>
        <time>2015-06-23T13:42:52Z</time>
      </trkpt>
      <trkpt lat="42.27529" lon="8.89144">
        <ele>1343.1</ele>
        <time>2015-06-23T13:42:57Z</time>
      </trkpt>
      <trkpt lat="42.27528" lon="8.89125">
        <ele>1342.62</ele>
        <time>2015-06-23T13:43:13Z</time>
      </trkpt>
      <trkpt lat="42.27527" lon="8.89108">
        <ele>1342.62</ele>
        <time>2015-06-23T13:43:26Z</time>
      </trkpt>
      <trkpt lat="42.27532" lon="8.89091">
        <ele>1342.14</ele>
        <time>2015-06-23T13:43:41Z</time>
      </trkpt>
      <trkpt lat="42.27549" lon="8.89079">
        <ele>1342.14</ele>
        <time>2015-06-23T13:43:59Z</time>
      </trkpt>
      <trkpt lat="42.27566" lon="8.89075">
        <ele>1341.66</ele>
        <time>2015-06-23T13:44:16Z</time>
      </trkpt>
      <trkpt lat="42.27585" lon="8.89068">
        <ele>1341.66</ele>
        <time>2015-06-23T13:44:33Z</time>
      </trkpt>
      <trkpt lat="42.27594" lon="8.89056">
        <ele>1340.7</ele>
        <time>2015-06-23T13:44:45Z</time>
      </trkpt>
      <trkpt lat="42.27602" lon="8.89037">
        <ele>1341.18</ele>
        <time>2015-06-23T13:45:01Z</time>
      </trkpt>
      <trkpt lat="42.27611" lon="8.89029">
        <ele>1341.66</ele>
        <time>2015-06-23T13:45:16Z</time>
      </trkpt>
      <trkpt lat="42.27624" lon="8.89026">
        <ele>1339.73</ele>
        <time>2015-06-23T13:45:31Z</time>
      </trkpt>
      <trkpt lat="42.27645" lon="8.89037">
        <ele>1339.25</ele>
        <time>2015-06-23T13:45:48Z</time>
      </trkpt>
      <trkpt lat="42.27659" lon="8.89033">
        <ele>1339.73</ele>
        <time>2015-06-23T13:46:04Z</time>
      </trkpt>
      <trkpt lat="42.27676" lon="8.89026">
        <ele>1340.22</ele>
        <time>2015-06-23T13:46:20Z</time>
      </trkpt>
      <trkpt lat="42.27693" lon="8.89034">
        <ele>1340.7</ele>
        <time>2015-06-23T13:46:38Z</time>
      </trkpt>
      <trkpt lat="42.27707" lon="8.89039">
        <ele>1341.18</ele>
        <time>2015-06-23T13:46:54Z</time>
      </trkpt>
      <trkpt lat="42.27723" lon="8.89036">
        <ele>1341.18</ele>
        <time>2015-06-23T13:47:13Z</time>
      </trkpt>
      <trkpt lat="42.27736" lon="8.89029">
        <ele>1340.7</ele>
        <time>2015-06-23T13:47:29Z</time>
      </trkpt>
      <trkpt lat="42.27743" lon="8.89012">
        <ele>1340.7</ele>
        <time>2015-06-23T13:47:45Z</time>
      </trkpt>
      <trkpt lat="42.27753" lon="8.88993">
        <ele>1340.7</ele>
        <time>2015-06-23T13:48:01Z</time>
      </trkpt>
      <trkpt lat="42.27755" lon="8.88987">
        <ele>1340.7</ele>
        <time>2015-06-23T13:48:04Z</time>
      </trkpt>
      <trkpt lat="42.27765" lon="8.88963">
        <ele>1341.18</ele>
        <time>2015-06-23T13:48:21Z</time>
      </trkpt>
      <trkpt lat="42.27787" lon="8.88957">
        <ele>1340.22</ele>
        <time>2015-06-23T13:48:37Z</time>
      </trkpt>
      <trkpt lat="42.27802" lon="8.88966">
        <ele>1340.7</ele>
        <time>2015-06-23T13:48:54Z</time>
      </trkpt>
      <trkpt lat="42.27822" lon="8.88966">
        <ele>1340.22</ele>
        <time>2015-06-23T13:49:13Z</time>
      </trkpt>
      <trkpt lat="42.27825" lon="8.8895">
        <ele>1340.22</ele>
        <time>2015-06-23T13:49:26Z</time>
      </trkpt>
      <trkpt lat="42.2784" lon="8.88949">
        <ele>1340.22</ele>
        <time>2015-06-23T13:49:44Z</time>
      </trkpt>
      <trkpt lat="42.27851" lon="8.8895">
        <ele>1340.7</ele>
        <time>2015-06-23T13:49:51Z</time>
      </trkpt>
      <trkpt lat="42.27865" lon="8.88945">
        <ele>1339.73</ele>
        <time>2015-06-23T13:50:06Z</time>
      </trkpt>
      <trkpt lat="42.27884" lon="8.88937">
        <ele>1339.73</ele>
        <time>2015-06-23T13:50:27Z</time>
      </trkpt>
      <trkpt lat="42.27904" lon="8.88926">
        <ele>1339.73</ele>
        <time>2015-06-23T13:50:46Z</time>
      </trkpt>
      <trkpt lat="42.27921" lon="8.88923">
        <ele>1339.73</ele>
        <time>2015-06-23T13:51:04Z</time>
      </trkpt>
      <trkpt lat="42.27932" lon="8.88921">
        <ele>1340.22</ele>
        <time>2015-06-23T13:51:19Z</time>
      </trkpt>
      <trkpt lat="42.27955" lon="8.88942">
        <ele>1339.73</ele>
        <time>2015-06-23T13:51:39Z</time>
      </trkpt>
      <trkpt lat="42.27956" lon="8.88945">
        <ele>1339.73</ele>
        <time>2015-06-23T13:51:42Z</time>
      </trkpt>
      <trkpt lat="42.27967" lon="8.88953">
        <ele>1338.77</ele>
        <time>2015-06-23T13:52:00Z</time>
      </trkpt>
      <trkpt lat="42.27972" lon="8.88972">
        <ele>1338.77</ele>
        <time>2015-06-23T13:52:16Z</time>
      </trkpt>
      <trkpt lat="42.27976" lon="8.88987">
        <ele>1339.25</ele>
        <time>2015-06-23T13:52:29Z</time>
      </trkpt>
      <trkpt lat="42.27988" lon="8.89">
        <ele>1338.77</ele>
        <time>2015-06-23T13:52:41Z</time>
      </trkpt>
      <trkpt lat="42.27995" lon="8.89011">
        <ele>1338.29</ele>
        <time>2015-06-23T13:52:54Z</time>
      </trkpt>
      <trkpt lat="42.28007" lon="8.89021">
        <ele>1338.77</ele>
        <time>2015-06-23T13:53:10Z</time>
      </trkpt>
      <trkpt lat="42.28029" lon="8.89032">
        <ele>1338.29</ele>
        <time>2015-06-23T13:53:23Z</time>
      </trkpt>
      <trkpt lat="42.28049" lon="8.89048">
        <ele>1337.81</ele>
        <time>2015-06-23T13:53:40Z</time>
      </trkpt>
      <trkpt lat="42.28061" lon="8.89061">
        <ele>1336.85</ele>
        <time>2015-06-23T13:54:00Z</time>
      </trkpt>
      <trkpt lat="42.28073" lon="8.89072">
        <ele>1336.37</ele>
        <time>2015-06-23T13:54:17Z</time>
      </trkpt>
      <trkpt lat="42.28096" lon="8.89082">
        <ele>1336.37</ele>
        <time>2015-06-23T13:54:34Z</time>
      </trkpt>
      <trkpt lat="42.28113" lon="8.89088">
        <ele>1335.89</ele>
        <time>2015-06-23T13:54:52Z</time>
      </trkpt>
      <trkpt lat="42.28126" lon="8.8909">
        <ele>1336.85</ele>
        <time>2015-06-23T13:55:10Z</time>
      </trkpt>
      <trkpt lat="42.28143" lon="8.89094">
        <ele>1335.89</ele>
        <time>2015-06-23T13:55:28Z</time>
      </trkpt>
      <trkpt lat="42.28154" lon="8.89101">
        <ele>1335.89</ele>
        <time>2015-06-23T13:55:41Z</time>
      </trkpt>
      <trkpt lat="42.28156" lon="8.89132">
        <ele>1334.45</ele>
        <time>2015-06-23T13:55:59Z</time>
      </trkpt>
      <trkpt lat="42.28166" lon="8.89153">
        <ele>1334.93</ele>
        <time>2015-06-23T13:56:18Z</time>
      </trkpt>
      <trkpt lat="42.28182" lon="8.89174">
        <ele>1335.41</ele>
        <time>2015-06-23T13:56:35Z</time>
      </trkpt>
      <trkpt lat="42.28192" lon="8.89191">
        <ele>1335.41</ele>
        <time>2015-06-23T13:56:51Z</time>
      </trkpt>
      <trkpt lat="42.28193" lon="8.89192">
        <ele>1335.41</ele>
        <time>2015-06-23T13:56:52Z</time>
      </trkpt>
      <trkpt lat="42.28208" lon="8.89203">
        <ele>1335.41</ele>
        <time>2015-06-23T13:57:10Z</time>
      </trkpt>
      <trkpt lat="42.28218" lon="8.89196">
        <ele>1334.93</ele>
        <time>2015-06-23T13:57:26Z</time>
      </trkpt>
      <trkpt lat="42.28233" lon="8.89194">
        <ele>1334.93</ele>
        <time>2015-06-23T13:57:43Z</time>
      </trkpt>
      <trkpt lat="42.2825" lon="8.89182">
        <ele>1334.93</ele>
        <time>2015-06-23T13:58:02Z</time>
      </trkpt>
      <trkpt lat="42.28265" lon="8.89203">
        <ele>1335.89</ele>
        <time>2015-06-23T13:58:20Z</time>
      </trkpt>
      <trkpt lat="42.28274" lon="8.89224">
        <ele>1335.89</ele>
        <time>2015-06-23T13:58:39Z</time>
      </trkpt>
      <trkpt lat="42.28288" lon="8.89235">
        <ele>1335.89</ele>
        <time>2015-06-23T13:58:52Z</time>
      </trkpt>
      <trkpt lat="42.28295" lon="8.89245">
        <ele>1335.89</ele>
        <time>2015-06-23T13:59:07Z</time>
      </trkpt>
      <trkpt lat="42.28306" lon="8.89264">
        <ele>1335.89</ele>
        <time>2015-06-23T13:59:20Z</time>
      </trkpt>
      <trkpt lat="42.28309" lon="8.8928">
        <ele>1334.93</ele>
        <time>2015-06-23T13:59:37Z</time>
      </trkpt>
      <trkpt lat="42.28305" lon="8.89284">
        <ele>1334.93</ele>
        <time>2015-06-23T13:59:40Z</time>
      </trkpt>
      <trkpt lat="42.28302" lon="8.89304">
        <ele>1334.45</ele>
        <time>2015-06-23T13:59:52Z</time>
      </trkpt>
      <trkpt lat="42.28301" lon="8.8932">
        <ele>1334.93</ele>
        <time>2015-06-23T14:00:03Z</time>
      </trkpt>
      <trkpt lat="42.28297" lon="8.8935">
        <ele>1334.93</ele>
        <time>2015-06-23T14:00:21Z</time>
      </trkpt>
      <trkpt lat="42.28294" lon="8.89373">
        <ele>1334.93</ele>
        <time>2015-06-23T14:00:37Z</time>
      </trkpt>
      <trkpt lat="42.28295" lon="8.89394">
        <ele>1334.93</ele>
        <time>2015-06-23T14:00:52Z</time>
      </trkpt>
      <trkpt lat="42.28293" lon="8.89413">
        <ele>1334.45</ele>
        <time>2015-06-23T14:01:06Z</time>
      </trkpt>
      <trkpt lat="42.28299" lon="8.89434">
        <ele>1335.41</ele>
        <time>2015-06-23T14:01:24Z</time>
      </trkpt>
      <trkpt lat="42.28306" lon="8.89454">
        <ele>1335.89</ele>
        <time>2015-06-23T14:01:42Z</time>
      </trkpt>
      <trkpt lat="42.2831" lon="8.89472">
        <ele>1335.89</ele>
        <time>2015-06-23T14:01:57Z</time>
      </trkpt>
      <trkpt lat="42.28318" lon="8.89486">
        <ele>1335.41</ele>
        <time>2015-06-23T14:02:14Z</time>
      </trkpt>
      <trkpt lat="42.2833" lon="8.89505">
        <ele>1335.89</ele>
        <time>2015-06-23T14:02:31Z</time>
      </trkpt>
      <trkpt lat="42.28341" lon="8.89516">
        <ele>1336.37</ele>
        <time>2015-06-23T14:02:49Z</time>
      </trkpt>
      <trkpt lat="42.28343" lon="8.89514">
        <ele>1336.85</ele>
        <time>2015-06-23T14:02:52Z</time>
      </trkpt>
      <trkpt lat="42.28354" lon="8.89492">
        <ele>1338.77</ele>
        <time>2015-06-23T14:03:10Z</time>
      </trkpt>
      <trkpt lat="42.28359" lon="8.8948">
        <ele>1342.14</ele>
        <time>2015-06-23T14:03:24Z</time>
      </trkpt>
      <trkpt lat="42.28368" lon="8.89467">
        <ele>1344.54</ele>
        <time>2015-06-23T14:03:39Z</time>
      </trkpt>
      <trkpt lat="42.28379" lon="8.8946">
        <ele>1346.94</ele>
        <time>2015-06-23T14:03:55Z</time>
      </trkpt>
      <trkpt lat="42.28396" lon="8.89457">
        <ele>1348.87</ele>
        <time>2015-06-23T14:04:12Z</time>
      </trkpt>
      <trkpt lat="42.28408" lon="8.89462">
        <ele>1351.27</ele>
        <time>2015-06-23T14:04:28Z</time>
      </trkpt>
      <trkpt lat="42.28423" lon="8.89466">
        <ele>1353.67</ele>
        <time>2015-06-23T14:04:46Z</time>
      </trkpt>
      <trkpt lat="42.2844" lon="8.89466">
        <ele>1356.08</ele>
        <time>2015-06-23T14:05:03Z</time>
      </trkpt>
      <trkpt lat="42.28448" lon="8.89463">
        <ele>1359.44</ele>
        <time>2015-06-23T14:05:17Z</time>
      </trkpt>
      <trkpt lat="42.2845" lon="8.89455">
        <ele>1362.33</ele>
        <time>2015-06-23T14:05:37Z</time>
      </trkpt>
      <trkpt lat="42.28458" lon="8.8945">
        <ele>1362.81</ele>
        <time>2015-06-23T14:05:59Z</time>
      </trkpt>
      <trkpt lat="42.28465" lon="8.89444">
        <ele>1364.25</ele>
        <time>2015-06-23T14:06:12Z</time>
      </trkpt>
      <trkpt lat="42.28481" lon="8.89438">
        <ele>1366.17</ele>
        <time>2015-06-23T14:06:31Z</time>
      </trkpt>
      <trkpt lat="42.28491" lon="8.89429">
        <ele>1369.54</ele>
        <time>2015-06-23T14:06:47Z</time>
      </trkpt>
      <trkpt lat="42.28506" lon="8.89425">
        <ele>1372.42</ele>
        <time>2015-06-23T14:07:02Z</time>
      </trkpt>
      <trkpt lat="42.28523" lon="8.89421">
        <ele>1375.3</ele>
        <time>2015-06-23T14:07:21Z</time>
      </trkpt>
      <trkpt lat="42.28529" lon="8.8941">
        <ele>1378.67</ele>
        <time>2015-06-23T14:07:35Z</time>
      </trkpt>
      <trkpt lat="42.28539" lon="8.89408">
        <ele>1381.55</ele>
        <time>2015-06-23T14:07:49Z</time>
      </trkpt>
      <trkpt lat="42.2854" lon="8.89408">
        <ele>1382.03</ele>
        <time>2015-06-23T14:07:50Z</time>
      </trkpt>
      <trkpt lat="42.28554" lon="8.89412">
        <ele>1384.92</ele>
        <time>2015-06-23T14:08:07Z</time>
      </trkpt>
      <trkpt lat="42.28572" lon="8.89416">
        <ele>1388.28</ele>
        <time>2015-06-23T14:08:19Z</time>
      </trkpt>
      <trkpt lat="42.2858" lon="8.89425">
        <ele>1391.17</ele>
        <time>2015-06-23T14:08:34Z</time>
      </trkpt>
      <trkpt lat="42.28588" lon="8.89442">
        <ele>1393.57</ele>
        <time>2015-06-23T14:08:48Z</time>
      </trkpt>
      <trkpt lat="42.28591" lon="8.89445">
        <ele>1394.05</ele>
        <time>2015-06-23T14:08:52Z</time>
      </trkpt>
      <trkpt lat="42.28602" lon="8.89451">
        <ele>1395.49</ele>
        <time>2015-06-23T14:09:06Z</time>
      </trkpt>
      <trkpt lat="42.28613" lon="8.89463">
        <ele>1398.86</ele>
        <time>2015-06-23T14:09:21Z</time>
      </trkpt>
      <trkpt lat="42.2862" lon="8.89464">
        <ele>1400.3</ele>
        <time>2015-06-23T14:09:35Z</time>
      </trkpt>
      <trkpt lat="42.28629" lon="8.8946">
        <ele>1403.18</ele>
        <time>2015-06-23T14:09:48Z</time>
      </trkpt>
      <trkpt lat="42.28637" lon="8.89459">
        <ele>1405.58</ele>
        <time>2015-06-23T14:10:05Z</time>
      </trkpt>
      <trkpt lat="42.28641" lon="8.89454">
        <ele>1406.55</ele>
        <time>2015-06-23T14:10:21Z</time>
      </trkpt>
      <trkpt lat="42.28648" lon="8.89428">
        <ele>1406.55</ele>
        <time>2015-06-23T14:10:40Z</time>
      </trkpt>
      <trkpt lat="42.2865" lon="8.89407">
        <ele>1406.55</ele>
        <time>2015-06-23T14:10:55Z</time>
      </trkpt>
      <trkpt lat="42.28652" lon="8.89383">
        <ele>1407.51</ele>
        <time>2015-06-23T14:11:11Z</time>
      </trkpt>
      <trkpt lat="42.28654" lon="8.89362">
        <ele>1408.47</ele>
        <time>2015-06-23T14:11:26Z</time>
      </trkpt>
      <trkpt lat="42.28658" lon="8.89351">
        <ele>1408.47</ele>
        <time>2015-06-23T14:11:34Z</time>
      </trkpt>
      <trkpt lat="42.28666" lon="8.89351">
        <ele>1409.43</ele>
        <time>2015-06-23T14:11:49Z</time>
      </trkpt>
      <trkpt lat="42.28667" lon="8.89356">
        <ele>1409.43</ele>
        <time>2015-06-23T14:11:57Z</time>
      </trkpt>
    </trkseg>
  </trk>
</gpx>